<?xml version="1.0" encoding="UTF-8" standalone="no" ?><gpx xmlns="http://www.topografix.com/GPX/1/1" xmlns:gpxx="http://www.garmin.com/xmlschemas/GpxExtensions/v3" xmlns:wptx1="http://www.garmin.com/xmlschemas/WaypointExtension/v1" xmlns:gpxtpx="http://www.garmin.com/xmlschemas/TrackPointExtension/v1" creator="GuideVTT.com" version="1.1" xmlns:xsi="http://www.w3.org/2001/XMLSchema-instance" xsi:schemaLocation="http://www.topografix.com/GPX/1/1 http://www.topografix.com/GPX/1/1/gpx.xsd http://www.garmin.com/xmlschemas/GpxExtensions/v3 http://www8.garmin.com/xmlschemas/GpxExtensionsv3.xsd http://www.garmin.com/xmlschemas/WaypointExtension/v1 http://www8.garmin.com/xmlschemas/WaypointExtensionv1.xsd http://www.garmin.com/xmlschemas/TrackPointExtension/v1 http://www.garmin.com/xmlschemas/TrackPointExtensionv1.xsd">
<metadata><link href="http://www.garmin.com"><text>Garmin International</text></link><time>2013-06-22T15:13:50Z</time></metadata>
<trk><name>2023rp11.gpx</name><extensions><gpxx:TrackExtension><gpxx:DisplayColor>Cyan</gpxx:DisplayColor></gpxx:TrackExtension></extensions><trkseg>
<trkpt lat="46.22465" lon="7.28376"><ele>489</ele><time>2023-07-02T14:39:54Z</time></trkpt>
<trkpt lat="46.22487" lon="7.2836"><ele>489.6</ele><time>2023-07-02T14:40:02Z</time></trkpt>
<trkpt lat="46.22497" lon="7.28356"><ele>490</ele><time>2023-07-02T14:40:06Z</time></trkpt>
<trkpt lat="46.22491" lon="7.28354"><ele>490</ele><time>2023-07-02T14:40:09Z</time></trkpt>
<trkpt lat="46.22471" lon="7.28364"><ele>489.6</ele><time>2023-07-02T14:40:14Z</time></trkpt>
<trkpt lat="46.22467" lon="7.28368"><ele>489.4</ele><time>2023-07-02T14:40:15Z</time></trkpt>
<trkpt lat="46.22463" lon="7.2838"><ele>489.2</ele><time>2023-07-02T14:40:17Z</time></trkpt>
<trkpt lat="46.22464" lon="7.28395"><ele>489</ele><time>2023-07-02T14:40:19Z</time></trkpt>
<trkpt lat="46.22467" lon="7.28402"><ele>489</ele><time>2023-07-02T14:40:20Z</time></trkpt>
<trkpt lat="46.2248" lon="7.28457"><ele>488.6</ele><time>2023-07-02T14:40:27Z</time></trkpt>
<trkpt lat="46.22484" lon="7.2851"><ele>488.4</ele><time>2023-07-02T14:40:33Z</time></trkpt>
<trkpt lat="46.22486" lon="7.28595"><ele>488</ele><time>2023-07-02T14:40:43Z</time></trkpt>
<trkpt lat="46.22487" lon="7.28669"><ele>487.4</ele><time>2023-07-02T14:40:51Z</time></trkpt>
<trkpt lat="46.22489" lon="7.28755"><ele>487.2</ele><time>2023-07-02T14:41:00Z</time></trkpt>
<trkpt lat="46.2249" lon="7.28812"><ele>487</ele><time>2023-07-02T14:41:06Z</time></trkpt>
<trkpt lat="46.22491" lon="7.28888"><ele>488</ele><time>2023-07-02T14:41:14Z</time></trkpt>
<trkpt lat="46.22482" lon="7.2896"><ele>488.4</ele><time>2023-07-02T14:41:22Z</time></trkpt>
<trkpt lat="46.22477" lon="7.2902"><ele>488</ele><time>2023-07-02T14:41:29Z</time></trkpt>
<trkpt lat="46.22476" lon="7.29028"><ele>487.8</ele><time>2023-07-02T14:41:30Z</time></trkpt>
<trkpt lat="46.22471" lon="7.29077"><ele>489</ele><time>2023-07-02T14:41:36Z</time></trkpt>
<trkpt lat="46.22466" lon="7.29109"><ele>489.4</ele><time>2023-07-02T14:41:40Z</time></trkpt>
<trkpt lat="46.2246" lon="7.29177"><ele>490</ele><time>2023-07-02T14:41:48Z</time></trkpt>
<trkpt lat="46.22451" lon="7.29248"><ele>489.8</ele><time>2023-07-02T14:41:56Z</time></trkpt>
<trkpt lat="46.22446" lon="7.29291"><ele>490</ele><time>2023-07-02T14:42:01Z</time></trkpt>
<trkpt lat="46.22446" lon="7.293"><ele>490.2</ele><time>2023-07-02T14:42:02Z</time></trkpt>
<trkpt lat="46.22445" lon="7.29309"><ele>490.2</ele><time>2023-07-02T14:42:03Z</time></trkpt>
<trkpt lat="46.22438" lon="7.29386"><ele>490.6</ele><time>2023-07-02T14:42:12Z</time></trkpt>
<trkpt lat="46.22431" lon="7.29448"><ele>490.8</ele><time>2023-07-02T14:42:20Z</time></trkpt>
<trkpt lat="46.2243" lon="7.29455"><ele>491.2</ele><time>2023-07-02T14:42:21Z</time></trkpt>
<trkpt lat="46.22432" lon="7.29473"><ele>491.6</ele><time>2023-07-02T14:42:24Z</time></trkpt>
<trkpt lat="46.22439" lon="7.29473"><ele>491.6</ele><time>2023-07-02T14:42:26Z</time></trkpt>
<trkpt lat="46.22443" lon="7.29471"><ele>491.8</ele><time>2023-07-02T14:42:27Z</time></trkpt>
<trkpt lat="46.22467" lon="7.2945"><ele>492.2</ele><time>2023-07-02T14:42:33Z</time></trkpt>
<trkpt lat="46.2248" lon="7.2944"><ele>492.2</ele><time>2023-07-02T14:42:36Z</time></trkpt>
<trkpt lat="46.22492" lon="7.29432"><ele>492</ele><time>2023-07-02T14:42:39Z</time></trkpt>
<trkpt lat="46.225" lon="7.29424"><ele>492.2</ele><time>2023-07-02T14:42:41Z</time></trkpt>
<trkpt lat="46.2252" lon="7.29407"><ele>493</ele><time>2023-07-02T14:42:46Z</time></trkpt>
<trkpt lat="46.22523" lon="7.29407"><ele>493</ele><time>2023-07-02T14:42:47Z</time></trkpt>
<trkpt lat="46.22535" lon="7.29411"><ele>493.2</ele><time>2023-07-02T14:42:50Z</time></trkpt>
<trkpt lat="46.2254" lon="7.2941"><ele>493.4</ele><time>2023-07-02T14:42:51Z</time></trkpt>
<trkpt lat="46.22545" lon="7.29407"><ele>493.4</ele><time>2023-07-02T14:42:52Z</time></trkpt>
<trkpt lat="46.22562" lon="7.29399"><ele>493.8</ele><time>2023-07-02T14:42:55Z</time></trkpt>
<trkpt lat="46.22593" lon="7.294"><ele>494.2</ele><time>2023-07-02T14:43:00Z</time></trkpt>
<trkpt lat="46.22605" lon="7.29401"><ele>494.2</ele><time>2023-07-02T14:43:02Z</time></trkpt>
<trkpt lat="46.22626" lon="7.29405"><ele>494.4</ele><time>2023-07-02T14:43:06Z</time></trkpt>
<trkpt lat="46.22637" lon="7.29407"><ele>494.8</ele><time>2023-07-02T14:43:08Z</time></trkpt>
<trkpt lat="46.22673" lon="7.29416"><ele>495.4</ele><time>2023-07-02T14:43:15Z</time></trkpt>
<trkpt lat="46.22713" lon="7.29434"><ele>496</ele><time>2023-07-02T14:43:22Z</time></trkpt>
<trkpt lat="46.22723" lon="7.29446"><ele>496.2</ele><time>2023-07-02T14:43:24Z</time></trkpt>
<trkpt lat="46.22727" lon="7.29453"><ele>496.4</ele><time>2023-07-02T14:43:25Z</time></trkpt>
<trkpt lat="46.22733" lon="7.29455"><ele>496.8</ele><time>2023-07-02T14:43:26Z</time></trkpt>
<trkpt lat="46.22737" lon="7.29448"><ele>496.8</ele><time>2023-07-02T14:43:28Z</time></trkpt>
<trkpt lat="46.22737" lon="7.29438"><ele>496.2</ele><time>2023-07-02T14:43:31Z</time></trkpt>
<trkpt lat="46.22737" lon="7.29437"><ele>496.2</ele><time>2023-07-02T14:43:32Z</time></trkpt>
<trkpt lat="46.22738" lon="7.29435"><ele>496</ele><time>2023-07-02T14:43:34Z</time></trkpt>
<trkpt lat="46.22738" lon="7.29435"><ele>496</ele><time>2023-07-02T14:43:37Z</time></trkpt>
<trkpt lat="46.22738" lon="7.29435"><ele>496</ele><time>2023-07-02T14:43:44Z</time></trkpt>
<trkpt lat="46.22738" lon="7.29434"><ele>496</ele><time>2023-07-02T14:43:54Z</time></trkpt>
<trkpt lat="46.22738" lon="7.29435"><ele>496</ele><time>2023-07-02T14:43:57Z</time></trkpt>
<trkpt lat="46.22738" lon="7.29435"><ele>496</ele><time>2023-07-02T14:44:02Z</time></trkpt>
<trkpt lat="46.22738" lon="7.29434"><ele>496.2</ele><time>2023-07-02T14:44:06Z</time></trkpt>
<trkpt lat="46.22738" lon="7.29434"><ele>496.6</ele><time>2023-07-02T14:44:07Z</time></trkpt>
<trkpt lat="46.22738" lon="7.29435"><ele>496.6</ele><time>2023-07-02T14:44:08Z</time></trkpt>
<trkpt lat="46.22738" lon="7.29435"><ele>496.6</ele><time>2023-07-02T14:44:13Z</time></trkpt>
<trkpt lat="46.22738" lon="7.29435"><ele>496.6</ele><time>2023-07-02T14:44:16Z</time></trkpt>
<trkpt lat="46.22738" lon="7.29436"><ele>496.6</ele><time>2023-07-02T14:44:18Z</time></trkpt>
<trkpt lat="46.22738" lon="7.29436"><ele>496.6</ele><time>2023-07-02T14:44:22Z</time></trkpt>
<trkpt lat="46.22738" lon="7.29435"><ele>496.6</ele><time>2023-07-02T14:44:25Z</time></trkpt>
<trkpt lat="46.22739" lon="7.29436"><ele>496.6</ele><time>2023-07-02T14:44:27Z</time></trkpt>
<trkpt lat="46.22739" lon="7.29436"><ele>496.6</ele><time>2023-07-02T14:44:29Z</time></trkpt>
<trkpt lat="46.2274" lon="7.29435"><ele>496.6</ele><time>2023-07-02T14:44:34Z</time></trkpt>
<trkpt lat="46.22739" lon="7.29435"><ele>496.6</ele><time>2023-07-02T14:44:42Z</time></trkpt>
<trkpt lat="46.22739" lon="7.29435"><ele>496.6</ele><time>2023-07-02T14:44:49Z</time></trkpt>
<trkpt lat="46.22738" lon="7.29435"><ele>496.6</ele><time>2023-07-02T14:44:59Z</time></trkpt>
<trkpt lat="46.22737" lon="7.29435"><ele>496.6</ele><time>2023-07-02T14:45:04Z</time></trkpt>
<trkpt lat="46.22737" lon="7.29435"><ele>496.6</ele><time>2023-07-02T14:45:06Z</time></trkpt>
<trkpt lat="46.22738" lon="7.29435"><ele>496.6</ele><time>2023-07-02T14:45:10Z</time></trkpt>
<trkpt lat="46.22738" lon="7.29435"><ele>496.6</ele><time>2023-07-02T14:45:12Z</time></trkpt>
<trkpt lat="46.22738" lon="7.29435"><ele>496.6</ele><time>2023-07-02T14:45:15Z</time></trkpt>
<trkpt lat="46.22738" lon="7.29435"><ele>496.6</ele><time>2023-07-02T14:45:16Z</time></trkpt>
<trkpt lat="46.22737" lon="7.29435"><ele>496.6</ele><time>2023-07-02T14:45:24Z</time></trkpt>
<trkpt lat="46.22737" lon="7.29434"><ele>496.6</ele><time>2023-07-02T14:45:33Z</time></trkpt>
<trkpt lat="46.22737" lon="7.29436"><ele>496.6</ele><time>2023-07-02T14:45:40Z</time></trkpt>
<trkpt lat="46.22738" lon="7.29435"><ele>496.6</ele><time>2023-07-02T14:45:44Z</time></trkpt>
<trkpt lat="46.22738" lon="7.29435"><ele>496.6</ele><time>2023-07-02T14:45:48Z</time></trkpt>
<trkpt lat="46.22738" lon="7.29434"><ele>496.6</ele><time>2023-07-02T14:45:58Z</time></trkpt>
<trkpt lat="46.22738" lon="7.29435"><ele>496.6</ele><time>2023-07-02T14:46:08Z</time></trkpt>
<trkpt lat="46.22738" lon="7.29435"><ele>496.6</ele><time>2023-07-02T14:46:13Z</time></trkpt>
<trkpt lat="46.22738" lon="7.29436"><ele>496.6</ele><time>2023-07-02T14:46:15Z</time></trkpt>
<trkpt lat="46.22738" lon="7.29436"><ele>496.6</ele><time>2023-07-02T14:46:17Z</time></trkpt>
<trkpt lat="46.22738" lon="7.29436"><ele>496.6</ele><time>2023-07-02T14:46:19Z</time></trkpt>
<trkpt lat="46.22738" lon="7.29436"><ele>496.6</ele><time>2023-07-02T14:46:23Z</time></trkpt>
<trkpt lat="46.22738" lon="7.29436"><ele>496.6</ele><time>2023-07-02T14:46:25Z</time></trkpt>
<trkpt lat="46.22737" lon="7.29435"><ele>496.6</ele><time>2023-07-02T14:46:31Z</time></trkpt>
<trkpt lat="46.22737" lon="7.29435"><ele>496.6</ele><time>2023-07-02T14:46:32Z</time></trkpt>
<trkpt lat="46.22738" lon="7.29435"><ele>496.6</ele><time>2023-07-02T14:46:39Z</time></trkpt>
<trkpt lat="46.22738" lon="7.29435"><ele>496.6</ele><time>2023-07-02T14:46:40Z</time></trkpt>
<trkpt lat="46.22738" lon="7.29435"><ele>496.6</ele><time>2023-07-02T14:46:41Z</time></trkpt>
<trkpt lat="46.22738" lon="7.29436"><ele>496.6</ele><time>2023-07-02T14:46:42Z</time></trkpt>
<trkpt lat="46.22739" lon="7.29436"><ele>496.6</ele><time>2023-07-02T14:46:49Z</time></trkpt>
<trkpt lat="46.22739" lon="7.29436"><ele>496.6</ele><time>2023-07-02T14:46:56Z</time></trkpt>
<trkpt lat="46.22737" lon="7.29436"><ele>496.6</ele><time>2023-07-02T14:47:05Z</time></trkpt>
<trkpt lat="46.22737" lon="7.29436"><ele>496.6</ele><time>2023-07-02T14:47:09Z</time></trkpt>
<trkpt lat="46.22737" lon="7.29436"><ele>496.6</ele><time>2023-07-02T14:47:11Z</time></trkpt>
<trkpt lat="46.22737" lon="7.29436"><ele>496.6</ele><time>2023-07-02T14:47:17Z</time></trkpt>
<trkpt lat="46.22737" lon="7.29436"><ele>496.6</ele><time>2023-07-02T14:47:22Z</time></trkpt>
<trkpt lat="46.22738" lon="7.29436"><ele>496.6</ele><time>2023-07-02T14:47:43Z</time></trkpt>
<trkpt lat="46.22737" lon="7.29436"><ele>496.6</ele><time>2023-07-02T14:47:50Z</time></trkpt>
<trkpt lat="46.22737" lon="7.29436"><ele>496.6</ele><time>2023-07-02T14:47:59Z</time></trkpt>
<trkpt lat="46.22737" lon="7.29436"><ele>496.6</ele><time>2023-07-02T14:48:03Z</time></trkpt>
<trkpt lat="46.22737" lon="7.29436"><ele>496.6</ele><time>2023-07-02T14:48:17Z</time></trkpt>
<trkpt lat="46.22737" lon="7.29436"><ele>496.6</ele><time>2023-07-02T14:48:37Z</time></trkpt>
<trkpt lat="46.22737" lon="7.29436"><ele>496.6</ele><time>2023-07-02T14:48:38Z</time></trkpt>
<trkpt lat="46.22737" lon="7.29436"><ele>496.6</ele><time>2023-07-02T14:48:41Z</time></trkpt>
<trkpt lat="46.22737" lon="7.29435"><ele>496.6</ele><time>2023-07-02T14:48:54Z</time></trkpt>
<trkpt lat="46.22736" lon="7.29435"><ele>496.6</ele><time>2023-07-02T14:49:02Z</time></trkpt>
<trkpt lat="46.22736" lon="7.29434"><ele>496.6</ele><time>2023-07-02T14:49:13Z</time></trkpt>
<trkpt lat="46.22737" lon="7.29434"><ele>496.6</ele><time>2023-07-02T14:49:22Z</time></trkpt>
<trkpt lat="46.22738" lon="7.29434"><ele>496.6</ele><time>2023-07-02T14:49:39Z</time></trkpt>
<trkpt lat="46.22738" lon="7.29434"><ele>496.6</ele><time>2023-07-02T14:49:43Z</time></trkpt>
<trkpt lat="46.22738" lon="7.29434"><ele>496.6</ele><time>2023-07-02T14:49:44Z</time></trkpt>
<trkpt lat="46.22738" lon="7.29434"><ele>496.6</ele><time>2023-07-02T14:49:51Z</time></trkpt>
<trkpt lat="46.22737" lon="7.29433"><ele>496.6</ele><time>2023-07-02T14:49:54Z</time></trkpt>
<trkpt lat="46.22737" lon="7.29434"><ele>496.6</ele><time>2023-07-02T14:49:59Z</time></trkpt>
<trkpt lat="46.22737" lon="7.29434"><ele>496.6</ele><time>2023-07-02T14:50:01Z</time></trkpt>
<trkpt lat="46.22737" lon="7.29434"><ele>496.6</ele><time>2023-07-02T14:50:04Z</time></trkpt>
<trkpt lat="46.22737" lon="7.29434"><ele>496.6</ele><time>2023-07-02T14:50:11Z</time></trkpt>
<trkpt lat="46.22736" lon="7.29435"><ele>496.6</ele><time>2023-07-02T14:50:14Z</time></trkpt>
<trkpt lat="46.22737" lon="7.29435"><ele>496.6</ele><time>2023-07-02T14:50:21Z</time></trkpt>
<trkpt lat="46.22737" lon="7.29435"><ele>496.6</ele><time>2023-07-02T14:50:29Z</time></trkpt>
<trkpt lat="46.22737" lon="7.29436"><ele>496.6</ele><time>2023-07-02T14:50:34Z</time></trkpt>
<trkpt lat="46.22737" lon="7.29436"><ele>496.6</ele><time>2023-07-02T14:50:38Z</time></trkpt>
<trkpt lat="46.22737" lon="7.29436"><ele>496.6</ele><time>2023-07-02T14:50:39Z</time></trkpt>
<trkpt lat="46.22737" lon="7.29436"><ele>496.6</ele><time>2023-07-02T14:50:41Z</time></trkpt>
<trkpt lat="46.22737" lon="7.29436"><ele>496.6</ele><time>2023-07-02T14:50:44Z</time></trkpt>
<trkpt lat="46.22737" lon="7.29436"><ele>496.6</ele><time>2023-07-02T14:50:46Z</time></trkpt>
<trkpt lat="46.22737" lon="7.29436"><ele>496.6</ele><time>2023-07-02T14:50:47Z</time></trkpt>
<trkpt lat="46.22739" lon="7.29437"><ele>496.6</ele><time>2023-07-02T14:50:51Z</time></trkpt>
<trkpt lat="46.22739" lon="7.29437"><ele>496.6</ele><time>2023-07-02T14:51:01Z</time></trkpt>
<trkpt lat="46.22738" lon="7.29436"><ele>496.6</ele><time>2023-07-02T14:51:12Z</time></trkpt>
<trkpt lat="46.22737" lon="7.29436"><ele>496.6</ele><time>2023-07-02T14:51:17Z</time></trkpt>
<trkpt lat="46.22737" lon="7.29436"><ele>496.6</ele><time>2023-07-02T14:51:27Z</time></trkpt>
<trkpt lat="46.22736" lon="7.29436"><ele>496.6</ele><time>2023-07-02T14:51:38Z</time></trkpt>
<trkpt lat="46.22737" lon="7.29437"><ele>496.6</ele><time>2023-07-02T14:51:47Z</time></trkpt>
<trkpt lat="46.22736" lon="7.29436"><ele>496.6</ele><time>2023-07-02T14:51:52Z</time></trkpt>
<trkpt lat="46.22736" lon="7.29436"><ele>496.6</ele><time>2023-07-02T14:51:56Z</time></trkpt>
<trkpt lat="46.22737" lon="7.29436"><ele>496.6</ele><time>2023-07-02T14:52:06Z</time></trkpt>
<trkpt lat="46.22736" lon="7.29435"><ele>496.6</ele><time>2023-07-02T14:52:08Z</time></trkpt>
<trkpt lat="46.22735" lon="7.29433"><ele>496.6</ele><time>2023-07-02T14:52:15Z</time></trkpt>
<trkpt lat="46.22736" lon="7.29432"><ele>496.6</ele><time>2023-07-02T14:52:16Z</time></trkpt>
<trkpt lat="46.22736" lon="7.29433"><ele>496.6</ele><time>2023-07-02T14:52:17Z</time></trkpt>
<trkpt lat="46.22737" lon="7.29434"><ele>496.6</ele><time>2023-07-02T14:52:20Z</time></trkpt>
<trkpt lat="46.22737" lon="7.29435"><ele>496.6</ele><time>2023-07-02T14:52:22Z</time></trkpt>
<trkpt lat="46.22737" lon="7.29435"><ele>496.6</ele><time>2023-07-02T14:52:27Z</time></trkpt>
<trkpt lat="46.22737" lon="7.29435"><ele>496.6</ele><time>2023-07-02T14:52:28Z</time></trkpt>
<trkpt lat="46.22738" lon="7.29435"><ele>496.6</ele><time>2023-07-02T14:52:37Z</time></trkpt>
<trkpt lat="46.22737" lon="7.29436"><ele>496.6</ele><time>2023-07-02T14:52:44Z</time></trkpt>
<trkpt lat="46.22738" lon="7.29436"><ele>496.6</ele><time>2023-07-02T14:52:47Z</time></trkpt>
<trkpt lat="46.22738" lon="7.29439"><ele>496.6</ele><time>2023-07-02T14:52:49Z</time></trkpt>
<trkpt lat="46.22739" lon="7.2944"><ele>496.6</ele><time>2023-07-02T14:52:50Z</time></trkpt>
<trkpt lat="46.22737" lon="7.29443"><ele>496.8</ele><time>2023-07-02T14:52:55Z</time></trkpt>
<trkpt lat="46.22737" lon="7.29446"><ele>496.8</ele><time>2023-07-02T14:52:56Z</time></trkpt>
<trkpt lat="46.22741" lon="7.29468"><ele>497.6</ele><time>2023-07-02T14:53:02Z</time></trkpt>
<trkpt lat="46.22744" lon="7.29473"><ele>497.6</ele><time>2023-07-02T14:53:03Z</time></trkpt>
<trkpt lat="46.22748" lon="7.29475"><ele>497.8</ele><time>2023-07-02T14:53:04Z</time></trkpt>
<trkpt lat="46.22752" lon="7.29479"><ele>497.8</ele><time>2023-07-02T14:53:05Z</time></trkpt>
<trkpt lat="46.22774" lon="7.29489"><ele>498.2</ele><time>2023-07-02T14:53:09Z</time></trkpt>
<trkpt lat="46.2278" lon="7.2949"><ele>498.6</ele><time>2023-07-02T14:53:10Z</time></trkpt>
<trkpt lat="46.22802" lon="7.29495"><ele>498.6</ele><time>2023-07-02T14:53:14Z</time></trkpt>
<trkpt lat="46.22819" lon="7.29497"><ele>498.8</ele><time>2023-07-02T14:53:17Z</time></trkpt>
<trkpt lat="46.22825" lon="7.29498"><ele>499</ele><time>2023-07-02T14:53:18Z</time></trkpt>
<trkpt lat="46.22836" lon="7.29502"><ele>499</ele><time>2023-07-02T14:53:20Z</time></trkpt>
<trkpt lat="46.22845" lon="7.29513"><ele>499.2</ele><time>2023-07-02T14:53:22Z</time></trkpt>
<trkpt lat="46.22871" lon="7.29561"><ele>499.6</ele><time>2023-07-02T14:53:29Z</time></trkpt>
<trkpt lat="46.22874" lon="7.29569"><ele>499.6</ele><time>2023-07-02T14:53:30Z</time></trkpt>
<trkpt lat="46.22878" lon="7.29585"><ele>499.6</ele><time>2023-07-02T14:53:32Z</time></trkpt>
<trkpt lat="46.22879" lon="7.29594"><ele>499.8</ele><time>2023-07-02T14:53:33Z</time></trkpt>
<trkpt lat="46.22881" lon="7.29603"><ele>500</ele><time>2023-07-02T14:53:34Z</time></trkpt>
<trkpt lat="46.22882" lon="7.2962"><ele>500.4</ele><time>2023-07-02T14:53:36Z</time></trkpt>
<trkpt lat="46.22884" lon="7.29645"><ele>500.8</ele><time>2023-07-02T14:53:39Z</time></trkpt>
<trkpt lat="46.22884" lon="7.29654"><ele>500.8</ele><time>2023-07-02T14:53:40Z</time></trkpt>
<trkpt lat="46.22889" lon="7.29678"><ele>501.2</ele><time>2023-07-02T14:53:43Z</time></trkpt>
<trkpt lat="46.22893" lon="7.29703"><ele>501.4</ele><time>2023-07-02T14:53:46Z</time></trkpt>
<trkpt lat="46.22895" lon="7.2971"><ele>501.6</ele><time>2023-07-02T14:53:47Z</time></trkpt>
<trkpt lat="46.229" lon="7.29725"><ele>501.8</ele><time>2023-07-02T14:53:49Z</time></trkpt>
<trkpt lat="46.22902" lon="7.29732"><ele>501.8</ele><time>2023-07-02T14:53:50Z</time></trkpt>
<trkpt lat="46.22906" lon="7.29746"><ele>502.2</ele><time>2023-07-02T14:53:52Z</time></trkpt>
<trkpt lat="46.22914" lon="7.29775"><ele>502.6</ele><time>2023-07-02T14:53:56Z</time></trkpt>
<trkpt lat="46.22925" lon="7.29814"><ele>502.8</ele><time>2023-07-02T14:54:01Z</time></trkpt>
<trkpt lat="46.22927" lon="7.29831"><ele>502.8</ele><time>2023-07-02T14:54:03Z</time></trkpt>
<trkpt lat="46.22928" lon="7.29883"><ele>503</ele><time>2023-07-02T14:54:09Z</time></trkpt>
<trkpt lat="46.22928" lon="7.29891"><ele>503.4</ele><time>2023-07-02T14:54:10Z</time></trkpt>
<trkpt lat="46.22931" lon="7.29907"><ele>503.6</ele><time>2023-07-02T14:54:12Z</time></trkpt>
<trkpt lat="46.22933" lon="7.29914"><ele>503.6</ele><time>2023-07-02T14:54:13Z</time></trkpt>
<trkpt lat="46.22947" lon="7.29952"><ele>504</ele><time>2023-07-02T14:54:18Z</time></trkpt>
<trkpt lat="46.22952" lon="7.29967"><ele>504</ele><time>2023-07-02T14:54:20Z</time></trkpt>
<trkpt lat="46.22971" lon="7.3003"><ele>504.6</ele><time>2023-07-02T14:54:28Z</time></trkpt>
<trkpt lat="46.22977" lon="7.30054"><ele>505.2</ele><time>2023-07-02T14:54:31Z</time></trkpt>
<trkpt lat="46.22987" lon="7.30085"><ele>505.2</ele><time>2023-07-02T14:54:35Z</time></trkpt>
<trkpt lat="46.22993" lon="7.30115"><ele>505.8</ele><time>2023-07-02T14:54:39Z</time></trkpt>
<trkpt lat="46.22995" lon="7.3014"><ele>506.4</ele><time>2023-07-02T14:54:42Z</time></trkpt>
<trkpt lat="46.22995" lon="7.30157"><ele>507</ele><time>2023-07-02T14:54:44Z</time></trkpt>
<trkpt lat="46.22996" lon="7.30207"><ele>507</ele><time>2023-07-02T14:54:50Z</time></trkpt>
<trkpt lat="46.22998" lon="7.30281"><ele>507.8</ele><time>2023-07-02T14:54:59Z</time></trkpt>
<trkpt lat="46.22998" lon="7.30289"><ele>508.2</ele><time>2023-07-02T14:55:00Z</time></trkpt>
<trkpt lat="46.23001" lon="7.30338"><ele>508.2</ele><time>2023-07-02T14:55:07Z</time></trkpt>
<trkpt lat="46.23012" lon="7.30389"><ele>508.4</ele><time>2023-07-02T14:55:14Z</time></trkpt>
<trkpt lat="46.2302" lon="7.30435"><ele>509.4</ele><time>2023-07-02T14:55:20Z</time></trkpt>
<trkpt lat="46.23025" lon="7.30451"><ele>509.8</ele><time>2023-07-02T14:55:22Z</time></trkpt>
<trkpt lat="46.23038" lon="7.30497"><ele>510.4</ele><time>2023-07-02T14:55:28Z</time></trkpt>
<trkpt lat="46.2304" lon="7.30504"><ele>510.4</ele><time>2023-07-02T14:55:29Z</time></trkpt>
<trkpt lat="46.2305" lon="7.30551"><ele>511</ele><time>2023-07-02T14:55:35Z</time></trkpt>
<trkpt lat="46.23059" lon="7.3058"><ele>511.6</ele><time>2023-07-02T14:55:39Z</time></trkpt>
<trkpt lat="46.23068" lon="7.3061"><ele>511.8</ele><time>2023-07-02T14:55:43Z</time></trkpt>
<trkpt lat="46.23077" lon="7.30659"><ele>512.4</ele><time>2023-07-02T14:55:50Z</time></trkpt>
<trkpt lat="46.23078" lon="7.30672"><ele>512.8</ele><time>2023-07-02T14:55:52Z</time></trkpt>
<trkpt lat="46.23085" lon="7.30705"><ele>513.2</ele><time>2023-07-02T14:55:57Z</time></trkpt>
<trkpt lat="46.23092" lon="7.30738"><ele>513.8</ele><time>2023-07-02T14:56:02Z</time></trkpt>
<trkpt lat="46.23095" lon="7.30751"><ele>514.2</ele><time>2023-07-02T14:56:04Z</time></trkpt>
<trkpt lat="46.23104" lon="7.30784"><ele>515</ele><time>2023-07-02T14:56:09Z</time></trkpt>
<trkpt lat="46.23111" lon="7.30803"><ele>515</ele><time>2023-07-02T14:56:12Z</time></trkpt>
<trkpt lat="46.23133" lon="7.30845"><ele>515.8</ele><time>2023-07-02T14:56:19Z</time></trkpt>
<trkpt lat="46.23136" lon="7.30851"><ele>516</ele><time>2023-07-02T14:56:20Z</time></trkpt>
<trkpt lat="46.23147" lon="7.30874"><ele>516.2</ele><time>2023-07-02T14:56:24Z</time></trkpt>
<trkpt lat="46.23147" lon="7.30882"><ele>516.6</ele><time>2023-07-02T14:56:25Z</time></trkpt>
<trkpt lat="46.23148" lon="7.30896"><ele>516.6</ele><time>2023-07-02T14:56:27Z</time></trkpt>
<trkpt lat="46.23154" lon="7.3091"><ele>516.8</ele><time>2023-07-02T14:56:29Z</time></trkpt>
<trkpt lat="46.23156" lon="7.30917"><ele>516.8</ele><time>2023-07-02T14:56:30Z</time></trkpt>
<trkpt lat="46.23158" lon="7.30932"><ele>517</ele><time>2023-07-02T14:56:32Z</time></trkpt>
<trkpt lat="46.23158" lon="7.3094"><ele>517.2</ele><time>2023-07-02T14:56:33Z</time></trkpt>
<trkpt lat="46.23159" lon="7.30962"><ele>517.6</ele><time>2023-07-02T14:56:36Z</time></trkpt>
<trkpt lat="46.2316" lon="7.30984"><ele>517.8</ele><time>2023-07-02T14:56:39Z</time></trkpt>
<trkpt lat="46.23161" lon="7.30991"><ele>517.8</ele><time>2023-07-02T14:56:40Z</time></trkpt>
<trkpt lat="46.23165" lon="7.31006"><ele>518</ele><time>2023-07-02T14:56:42Z</time></trkpt>
<trkpt lat="46.23168" lon="7.31012"><ele>518.2</ele><time>2023-07-02T14:56:43Z</time></trkpt>
<trkpt lat="46.23174" lon="7.31025"><ele>518.4</ele><time>2023-07-02T14:56:45Z</time></trkpt>
<trkpt lat="46.23186" lon="7.31051"><ele>518.4</ele><time>2023-07-02T14:56:49Z</time></trkpt>
<trkpt lat="46.23208" lon="7.31103"><ele>518.8</ele><time>2023-07-02T14:56:57Z</time></trkpt>
<trkpt lat="46.23215" lon="7.31122"><ele>518.8</ele><time>2023-07-02T14:57:01Z</time></trkpt>
<trkpt lat="46.23227" lon="7.31139"><ele>518.8</ele><time>2023-07-02T14:57:04Z</time></trkpt>
<trkpt lat="46.23231" lon="7.31148"><ele>518.6</ele><time>2023-07-02T14:57:05Z</time></trkpt>
<trkpt lat="46.23234" lon="7.31158"><ele>518.2</ele><time>2023-07-02T14:57:06Z</time></trkpt>
<trkpt lat="46.23244" lon="7.31196"><ele>517.6</ele><time>2023-07-02T14:57:10Z</time></trkpt>
<trkpt lat="46.23253" lon="7.31232"><ele>518</ele><time>2023-07-02T14:57:15Z</time></trkpt>
<trkpt lat="46.23256" lon="7.31236"><ele>518.2</ele><time>2023-07-02T14:57:16Z</time></trkpt>
<trkpt lat="46.23268" lon="7.31241"><ele>518.6</ele><time>2023-07-02T14:57:20Z</time></trkpt>
<trkpt lat="46.23282" lon="7.31237"><ele>519</ele><time>2023-07-02T14:57:24Z</time></trkpt>
<trkpt lat="46.23289" lon="7.31234"><ele>519.2</ele><time>2023-07-02T14:57:26Z</time></trkpt>
<trkpt lat="46.23327" lon="7.31217"><ele>520</ele><time>2023-07-02T14:57:35Z</time></trkpt>
<trkpt lat="46.23331" lon="7.31216"><ele>520</ele><time>2023-07-02T14:57:36Z</time></trkpt>
<trkpt lat="46.23376" lon="7.31196"><ele>521.4</ele><time>2023-07-02T14:57:46Z</time></trkpt>
<trkpt lat="46.23409" lon="7.31182"><ele>522.6</ele><time>2023-07-02T14:57:53Z</time></trkpt>
<trkpt lat="46.23427" lon="7.31173"><ele>523</ele><time>2023-07-02T14:57:57Z</time></trkpt>
<trkpt lat="46.23442" lon="7.31169"><ele>523.6</ele><time>2023-07-02T14:58:01Z</time></trkpt>
<trkpt lat="46.23445" lon="7.31169"><ele>524</ele><time>2023-07-02T14:58:02Z</time></trkpt>
<trkpt lat="46.23457" lon="7.31171"><ele>524.6</ele><time>2023-07-02T14:58:06Z</time></trkpt>
<trkpt lat="46.23461" lon="7.31174"><ele>525.2</ele><time>2023-07-02T14:58:08Z</time></trkpt>
<trkpt lat="46.23464" lon="7.31176"><ele>525.6</ele><time>2023-07-02T14:58:10Z</time></trkpt>
<trkpt lat="46.23471" lon="7.31185"><ele>526.6</ele><time>2023-07-02T14:58:15Z</time></trkpt>
<trkpt lat="46.23482" lon="7.31198"><ele>528</ele><time>2023-07-02T14:58:22Z</time></trkpt>
<trkpt lat="46.23486" lon="7.31204"><ele>528.8</ele><time>2023-07-02T14:58:25Z</time></trkpt>
<trkpt lat="46.23487" lon="7.31206"><ele>529</ele><time>2023-07-02T14:58:26Z</time></trkpt>
<trkpt lat="46.23495" lon="7.31217"><ele>530.2</ele><time>2023-07-02T14:58:32Z</time></trkpt>
<trkpt lat="46.23499" lon="7.31221"><ele>530.8</ele><time>2023-07-02T14:58:35Z</time></trkpt>
<trkpt lat="46.23504" lon="7.31226"><ele>531.4</ele><time>2023-07-02T14:58:38Z</time></trkpt>
<trkpt lat="46.23514" lon="7.31236"><ele>532.2</ele><time>2023-07-02T14:58:46Z</time></trkpt>
<trkpt lat="46.23517" lon="7.31239"><ele>532.4</ele><time>2023-07-02T14:58:48Z</time></trkpt>
<trkpt lat="46.23524" lon="7.31247"><ele>533.4</ele><time>2023-07-02T14:58:54Z</time></trkpt>
<trkpt lat="46.23529" lon="7.3125"><ele>534</ele><time>2023-07-02T14:58:57Z</time></trkpt>
<trkpt lat="46.23536" lon="7.31256"><ele>534.8</ele><time>2023-07-02T14:59:01Z</time></trkpt>
<trkpt lat="46.23543" lon="7.31261"><ele>535.2</ele><time>2023-07-02T14:59:05Z</time></trkpt>
<trkpt lat="46.23548" lon="7.31265"><ele>535.8</ele><time>2023-07-02T14:59:08Z</time></trkpt>
<trkpt lat="46.23556" lon="7.31271"><ele>536.8</ele><time>2023-07-02T14:59:13Z</time></trkpt>
<trkpt lat="46.23558" lon="7.31272"><ele>537</ele><time>2023-07-02T14:59:14Z</time></trkpt>
<trkpt lat="46.23568" lon="7.3128"><ele>538</ele><time>2023-07-02T14:59:20Z</time></trkpt>
<trkpt lat="46.23574" lon="7.31285"><ele>538.6</ele><time>2023-07-02T14:59:24Z</time></trkpt>
<trkpt lat="46.23578" lon="7.31287"><ele>539</ele><time>2023-07-02T14:59:26Z</time></trkpt>
<trkpt lat="46.23587" lon="7.31295"><ele>540</ele><time>2023-07-02T14:59:31Z</time></trkpt>
<trkpt lat="46.23601" lon="7.31307"><ele>541.2</ele><time>2023-07-02T14:59:39Z</time></trkpt>
<trkpt lat="46.23603" lon="7.31308"><ele>541.4</ele><time>2023-07-02T14:59:40Z</time></trkpt>
<trkpt lat="46.23617" lon="7.31322"><ele>542.4</ele><time>2023-07-02T14:59:48Z</time></trkpt>
<trkpt lat="46.23631" lon="7.31335"><ele>543.4</ele><time>2023-07-02T14:59:56Z</time></trkpt>
<trkpt lat="46.23635" lon="7.31339"><ele>543.6</ele><time>2023-07-02T14:59:58Z</time></trkpt>
<trkpt lat="46.23648" lon="7.31352"><ele>544.6</ele><time>2023-07-02T15:00:05Z</time></trkpt>
<trkpt lat="46.23657" lon="7.3136"><ele>545.6</ele><time>2023-07-02T15:00:10Z</time></trkpt>
<trkpt lat="46.23658" lon="7.31362"><ele>546</ele><time>2023-07-02T15:00:11Z</time></trkpt>
<trkpt lat="46.2367" lon="7.31371"><ele>546.6</ele><time>2023-07-02T15:00:17Z</time></trkpt>
<trkpt lat="46.23674" lon="7.31376"><ele>547.4</ele><time>2023-07-02T15:00:20Z</time></trkpt>
<trkpt lat="46.23678" lon="7.31379"><ele>547.8</ele><time>2023-07-02T15:00:22Z</time></trkpt>
<trkpt lat="46.23686" lon="7.31387"><ele>548.8</ele><time>2023-07-02T15:00:27Z</time></trkpt>
<trkpt lat="46.23691" lon="7.31391"><ele>549.6</ele><time>2023-07-02T15:00:31Z</time></trkpt>
<trkpt lat="46.23693" lon="7.31392"><ele>549.8</ele><time>2023-07-02T15:00:32Z</time></trkpt>
<trkpt lat="46.23707" lon="7.31399"><ele>551</ele><time>2023-07-02T15:00:40Z</time></trkpt>
<trkpt lat="46.23709" lon="7.31399"><ele>551.2</ele><time>2023-07-02T15:00:41Z</time></trkpt>
<trkpt lat="46.23718" lon="7.31401"><ele>552</ele><time>2023-07-02T15:00:46Z</time></trkpt>
<trkpt lat="46.23724" lon="7.31402"><ele>553.2</ele><time>2023-07-02T15:00:49Z</time></trkpt>
<trkpt lat="46.23739" lon="7.31401"><ele>554.2</ele><time>2023-07-02T15:00:57Z</time></trkpt>
<trkpt lat="46.23741" lon="7.314"><ele>554.4</ele><time>2023-07-02T15:00:58Z</time></trkpt>
<trkpt lat="46.23756" lon="7.31399"><ele>555.4</ele><time>2023-07-02T15:01:05Z</time></trkpt>
<trkpt lat="46.23759" lon="7.31399"><ele>556</ele><time>2023-07-02T15:01:07Z</time></trkpt>
<trkpt lat="46.23767" lon="7.31401"><ele>556.4</ele><time>2023-07-02T15:01:11Z</time></trkpt>
<trkpt lat="46.23777" lon="7.31402"><ele>556.8</ele><time>2023-07-02T15:01:15Z</time></trkpt>
<trkpt lat="46.23787" lon="7.31405"><ele>557.6</ele><time>2023-07-02T15:01:20Z</time></trkpt>
<trkpt lat="46.23791" lon="7.31405"><ele>557.8</ele><time>2023-07-02T15:01:22Z</time></trkpt>
<trkpt lat="46.238" lon="7.31405"><ele>558.6</ele><time>2023-07-02T15:01:26Z</time></trkpt>
<trkpt lat="46.23807" lon="7.31406"><ele>559</ele><time>2023-07-02T15:01:30Z</time></trkpt>
<trkpt lat="46.23816" lon="7.31408"><ele>559.8</ele><time>2023-07-02T15:01:35Z</time></trkpt>
<trkpt lat="46.23826" lon="7.31411"><ele>560.8</ele><time>2023-07-02T15:01:40Z</time></trkpt>
<trkpt lat="46.23828" lon="7.31411"><ele>561</ele><time>2023-07-02T15:01:41Z</time></trkpt>
<trkpt lat="46.23844" lon="7.31414"><ele>562</ele><time>2023-07-02T15:01:49Z</time></trkpt>
<trkpt lat="46.23856" lon="7.31412"><ele>563</ele><time>2023-07-02T15:01:55Z</time></trkpt>
<trkpt lat="46.23862" lon="7.31411"><ele>563.2</ele><time>2023-07-02T15:01:58Z</time></trkpt>
<trkpt lat="46.23876" lon="7.31406"><ele>564.2</ele><time>2023-07-02T15:02:04Z</time></trkpt>
<trkpt lat="46.2388" lon="7.31405"><ele>564.2</ele><time>2023-07-02T15:02:06Z</time></trkpt>
<trkpt lat="46.23891" lon="7.31404"><ele>565.2</ele><time>2023-07-02T15:02:11Z</time></trkpt>
<trkpt lat="46.239" lon="7.31404"><ele>565.6</ele><time>2023-07-02T15:02:15Z</time></trkpt>
<trkpt lat="46.2391" lon="7.31408"><ele>566.2</ele><time>2023-07-02T15:02:20Z</time></trkpt>
<trkpt lat="46.23914" lon="7.31409"><ele>566.4</ele><time>2023-07-02T15:02:22Z</time></trkpt>
<trkpt lat="46.23919" lon="7.31413"><ele>567.4</ele><time>2023-07-02T15:02:25Z</time></trkpt>
<trkpt lat="46.23925" lon="7.31416"><ele>568.4</ele><time>2023-07-02T15:02:28Z</time></trkpt>
<trkpt lat="46.23929" lon="7.31417"><ele>568.6</ele><time>2023-07-02T15:02:30Z</time></trkpt>
<trkpt lat="46.23944" lon="7.31426"><ele>569.4</ele><time>2023-07-02T15:02:37Z</time></trkpt>
<trkpt lat="46.23947" lon="7.31427"><ele>569.6</ele><time>2023-07-02T15:02:38Z</time></trkpt>
<trkpt lat="46.23955" lon="7.31433"><ele>570.8</ele><time>2023-07-02T15:02:43Z</time></trkpt>
<trkpt lat="46.23958" lon="7.31436"><ele>571.4</ele><time>2023-07-02T15:02:45Z</time></trkpt>
<trkpt lat="46.23966" lon="7.31443"><ele>571.8</ele><time>2023-07-02T15:02:49Z</time></trkpt>
<trkpt lat="46.23975" lon="7.31447"><ele>572.6</ele><time>2023-07-02T15:02:53Z</time></trkpt>
<trkpt lat="46.2398" lon="7.31449"><ele>572.8</ele><time>2023-07-02T15:02:56Z</time></trkpt>
<trkpt lat="46.23987" lon="7.31452"><ele>573.4</ele><time>2023-07-02T15:03:00Z</time></trkpt>
<trkpt lat="46.23991" lon="7.31454"><ele>574.2</ele><time>2023-07-02T15:03:02Z</time></trkpt>
<trkpt lat="46.24003" lon="7.31459"><ele>575</ele><time>2023-07-02T15:03:08Z</time></trkpt>
<trkpt lat="46.24006" lon="7.3146"><ele>575.2</ele><time>2023-07-02T15:03:09Z</time></trkpt>
<trkpt lat="46.2402" lon="7.31465"><ele>576.2</ele><time>2023-07-02T15:03:16Z</time></trkpt>
<trkpt lat="46.24032" lon="7.31474"><ele>577.4</ele><time>2023-07-02T15:03:22Z</time></trkpt>
<trkpt lat="46.24033" lon="7.31477"><ele>577.6</ele><time>2023-07-02T15:03:23Z</time></trkpt>
<trkpt lat="46.24036" lon="7.31493"><ele>578.6</ele><time>2023-07-02T15:03:28Z</time></trkpt>
<trkpt lat="46.24035" lon="7.31496"><ele>579</ele><time>2023-07-02T15:03:29Z</time></trkpt>
<trkpt lat="46.24032" lon="7.31503"><ele>579.6</ele><time>2023-07-02T15:03:31Z</time></trkpt>
<trkpt lat="46.24024" lon="7.31513"><ele>580.4</ele><time>2023-07-02T15:03:36Z</time></trkpt>
<trkpt lat="46.24022" lon="7.31514"><ele>580.6</ele><time>2023-07-02T15:03:37Z</time></trkpt>
<trkpt lat="46.24014" lon="7.31521"><ele>581.6</ele><time>2023-07-02T15:03:42Z</time></trkpt>
<trkpt lat="46.24005" lon="7.31529"><ele>582.8</ele><time>2023-07-02T15:03:47Z</time></trkpt>
<trkpt lat="46.23998" lon="7.31536"><ele>584</ele><time>2023-07-02T15:03:52Z</time></trkpt>
<trkpt lat="46.23993" lon="7.3154"><ele>584.2</ele><time>2023-07-02T15:03:55Z</time></trkpt>
<trkpt lat="46.23982" lon="7.31552"><ele>585.6</ele><time>2023-07-02T15:04:02Z</time></trkpt>
<trkpt lat="46.2398" lon="7.31555"><ele>586.6</ele><time>2023-07-02T15:04:04Z</time></trkpt>
<trkpt lat="46.23979" lon="7.31557"><ele>586.6</ele><time>2023-07-02T15:04:05Z</time></trkpt>
<trkpt lat="46.23969" lon="7.31574"><ele>587.6</ele><time>2023-07-02T15:04:14Z</time></trkpt>
<trkpt lat="46.23958" lon="7.31592"><ele>588.8</ele><time>2023-07-02T15:04:23Z</time></trkpt>
<trkpt lat="46.23953" lon="7.31608"><ele>590</ele><time>2023-07-02T15:04:30Z</time></trkpt>
<trkpt lat="46.23954" lon="7.3161"><ele>590.2</ele><time>2023-07-02T15:04:31Z</time></trkpt>
<trkpt lat="46.23959" lon="7.31617"><ele>591</ele><time>2023-07-02T15:04:35Z</time></trkpt>
<trkpt lat="46.2396" lon="7.31618"><ele>591.2</ele><time>2023-07-02T15:04:36Z</time></trkpt>
<trkpt lat="46.23971" lon="7.31617"><ele>592</ele><time>2023-07-02T15:04:42Z</time></trkpt>
<trkpt lat="46.23973" lon="7.31617"><ele>592.4</ele><time>2023-07-02T15:04:43Z</time></trkpt>
<trkpt lat="46.23986" lon="7.31622"><ele>593.4</ele><time>2023-07-02T15:04:50Z</time></trkpt>
<trkpt lat="46.23995" lon="7.3163"><ele>594.4</ele><time>2023-07-02T15:04:56Z</time></trkpt>
<trkpt lat="46.23999" lon="7.31634"><ele>594.8</ele><time>2023-07-02T15:04:59Z</time></trkpt>
<trkpt lat="46.24005" lon="7.31638"><ele>595.4</ele><time>2023-07-02T15:05:03Z</time></trkpt>
<trkpt lat="46.24014" lon="7.31642"><ele>596.2</ele><time>2023-07-02T15:05:08Z</time></trkpt>
<trkpt lat="46.24017" lon="7.31642"><ele>596.6</ele><time>2023-07-02T15:05:10Z</time></trkpt>
<trkpt lat="46.24028" lon="7.31643"><ele>597.6</ele><time>2023-07-02T15:05:16Z</time></trkpt>
<trkpt lat="46.2403" lon="7.31643"><ele>597.8</ele><time>2023-07-02T15:05:17Z</time></trkpt>
<trkpt lat="46.24044" lon="7.31648"><ele>598.8</ele><time>2023-07-02T15:05:25Z</time></trkpt>
<trkpt lat="46.24055" lon="7.31653"><ele>600.2</ele><time>2023-07-02T15:05:31Z</time></trkpt>
<trkpt lat="46.2406" lon="7.31656"><ele>601.4</ele><time>2023-07-02T15:05:34Z</time></trkpt>
<trkpt lat="46.24063" lon="7.31658"><ele>601.4</ele><time>2023-07-02T15:05:36Z</time></trkpt>
<trkpt lat="46.24075" lon="7.31661"><ele>602.4</ele><time>2023-07-02T15:05:42Z</time></trkpt>
<trkpt lat="46.24079" lon="7.3166"><ele>603.4</ele><time>2023-07-02T15:05:44Z</time></trkpt>
<trkpt lat="46.2408" lon="7.31659"><ele>603.6</ele><time>2023-07-02T15:05:45Z</time></trkpt>
<trkpt lat="46.24091" lon="7.31652"><ele>604</ele><time>2023-07-02T15:05:52Z</time></trkpt>
<trkpt lat="46.24096" lon="7.31648"><ele>604.8</ele><time>2023-07-02T15:05:55Z</time></trkpt>
<trkpt lat="46.24102" lon="7.31642"><ele>605.8</ele><time>2023-07-02T15:05:59Z</time></trkpt>
<trkpt lat="46.24105" lon="7.3164"><ele>606</ele><time>2023-07-02T15:06:01Z</time></trkpt>
<trkpt lat="46.24113" lon="7.31639"><ele>606.6</ele><time>2023-07-02T15:06:06Z</time></trkpt>
<trkpt lat="46.24116" lon="7.3164"><ele>607</ele><time>2023-07-02T15:06:08Z</time></trkpt>
<trkpt lat="46.24125" lon="7.31646"><ele>608</ele><time>2023-07-02T15:06:14Z</time></trkpt>
<trkpt lat="46.24127" lon="7.31647"><ele>608.2</ele><time>2023-07-02T15:06:15Z</time></trkpt>
<trkpt lat="46.2414" lon="7.31655"><ele>609.4</ele><time>2023-07-02T15:06:22Z</time></trkpt>
<trkpt lat="46.24143" lon="7.31657"><ele>609.6</ele><time>2023-07-02T15:06:24Z</time></trkpt>
<trkpt lat="46.24147" lon="7.31659"><ele>610.6</ele><time>2023-07-02T15:06:27Z</time></trkpt>
<trkpt lat="46.24154" lon="7.31665"><ele>612</ele><time>2023-07-02T15:06:32Z</time></trkpt>
<trkpt lat="46.24163" lon="7.31677"><ele>613</ele><time>2023-07-02T15:06:39Z</time></trkpt>
<trkpt lat="46.2416" lon="7.3169"><ele>614</ele><time>2023-07-02T15:06:45Z</time></trkpt>
<trkpt lat="46.24159" lon="7.31691"><ele>614.2</ele><time>2023-07-02T15:06:46Z</time></trkpt>
<trkpt lat="46.24155" lon="7.31696"><ele>615.2</ele><time>2023-07-02T15:06:49Z</time></trkpt>
<trkpt lat="46.2415" lon="7.31701"><ele>615.6</ele><time>2023-07-02T15:06:53Z</time></trkpt>
<trkpt lat="46.24142" lon="7.31709"><ele>616.2</ele><time>2023-07-02T15:06:58Z</time></trkpt>
<trkpt lat="46.24141" lon="7.31713"><ele>616.4</ele><time>2023-07-02T15:07:00Z</time></trkpt>
<trkpt lat="46.2414" lon="7.31736"><ele>616.8</ele><time>2023-07-02T15:07:08Z</time></trkpt>
<trkpt lat="46.24142" lon="7.31745"><ele>617.2</ele><time>2023-07-02T15:07:11Z</time></trkpt>
<trkpt lat="46.24147" lon="7.3176"><ele>617.8</ele><time>2023-07-02T15:07:17Z</time></trkpt>
<trkpt lat="46.24151" lon="7.31769"><ele>618.6</ele><time>2023-07-02T15:07:21Z</time></trkpt>
<trkpt lat="46.24156" lon="7.31775"><ele>619.4</ele><time>2023-07-02T15:07:25Z</time></trkpt>
<trkpt lat="46.24158" lon="7.31777"><ele>619.6</ele><time>2023-07-02T15:07:27Z</time></trkpt>
<trkpt lat="46.24169" lon="7.31781"><ele>620.6</ele><time>2023-07-02T15:07:34Z</time></trkpt>
<trkpt lat="46.24171" lon="7.31781"><ele>620.8</ele><time>2023-07-02T15:07:35Z</time></trkpt>
<trkpt lat="46.24181" lon="7.31781"><ele>621.6</ele><time>2023-07-02T15:07:41Z</time></trkpt>
<trkpt lat="46.24183" lon="7.31781"><ele>621.8</ele><time>2023-07-02T15:07:42Z</time></trkpt>
<trkpt lat="46.24196" lon="7.31782"><ele>623</ele><time>2023-07-02T15:07:49Z</time></trkpt>
<trkpt lat="46.24197" lon="7.31783"><ele>623.4</ele><time>2023-07-02T15:07:50Z</time></trkpt>
<trkpt lat="46.24204" lon="7.31784"><ele>624.2</ele><time>2023-07-02T15:07:54Z</time></trkpt>
<trkpt lat="46.24212" lon="7.31788"><ele>624.8</ele><time>2023-07-02T15:07:58Z</time></trkpt>
<trkpt lat="46.24221" lon="7.31792"><ele>625.4</ele><time>2023-07-02T15:08:03Z</time></trkpt>
<trkpt lat="46.2423" lon="7.31797"><ele>626.4</ele><time>2023-07-02T15:08:08Z</time></trkpt>
<trkpt lat="46.24232" lon="7.31797"><ele>626.4</ele><time>2023-07-02T15:08:09Z</time></trkpt>
<trkpt lat="46.24244" lon="7.31801"><ele>627.4</ele><time>2023-07-02T15:08:16Z</time></trkpt>
<trkpt lat="46.24249" lon="7.31803"><ele>628.2</ele><time>2023-07-02T15:08:19Z</time></trkpt>
<trkpt lat="46.24254" lon="7.31805"><ele>628.6</ele><time>2023-07-02T15:08:22Z</time></trkpt>
<trkpt lat="46.24264" lon="7.31809"><ele>629.4</ele><time>2023-07-02T15:08:28Z</time></trkpt>
<trkpt lat="46.24267" lon="7.31811"><ele>629.8</ele><time>2023-07-02T15:08:30Z</time></trkpt>
<trkpt lat="46.24281" lon="7.31816"><ele>630.6</ele><time>2023-07-02T15:08:38Z</time></trkpt>
<trkpt lat="46.24284" lon="7.31818"><ele>631.4</ele><time>2023-07-02T15:08:40Z</time></trkpt>
<trkpt lat="46.24293" lon="7.31822"><ele>632.4</ele><time>2023-07-02T15:08:45Z</time></trkpt>
<trkpt lat="46.24296" lon="7.31825"><ele>632.8</ele><time>2023-07-02T15:08:47Z</time></trkpt>
<trkpt lat="46.24303" lon="7.31829"><ele>633.4</ele><time>2023-07-02T15:08:51Z</time></trkpt>
<trkpt lat="46.24307" lon="7.31833"><ele>633.8</ele><time>2023-07-02T15:08:54Z</time></trkpt>
<trkpt lat="46.24312" lon="7.3184"><ele>634.4</ele><time>2023-07-02T15:08:58Z</time></trkpt>
<trkpt lat="46.24319" lon="7.31847"><ele>635.4</ele><time>2023-07-02T15:09:03Z</time></trkpt>
<trkpt lat="46.2432" lon="7.31848"><ele>635.6</ele><time>2023-07-02T15:09:04Z</time></trkpt>
<trkpt lat="46.24331" lon="7.31854"><ele>636.8</ele><time>2023-07-02T15:09:10Z</time></trkpt>
<trkpt lat="46.24335" lon="7.31855"><ele>637</ele><time>2023-07-02T15:09:12Z</time></trkpt>
<trkpt lat="46.24346" lon="7.31851"><ele>638</ele><time>2023-07-02T15:09:18Z</time></trkpt>
<trkpt lat="46.24347" lon="7.3185"><ele>638.4</ele><time>2023-07-02T15:09:19Z</time></trkpt>
<trkpt lat="46.24356" lon="7.31844"><ele>639.2</ele><time>2023-07-02T15:09:24Z</time></trkpt>
<trkpt lat="46.24364" lon="7.31838"><ele>639.8</ele><time>2023-07-02T15:09:29Z</time></trkpt>
<trkpt lat="46.24368" lon="7.31835"><ele>640.2</ele><time>2023-07-02T15:09:31Z</time></trkpt>
<trkpt lat="46.24378" lon="7.31826"><ele>641.6</ele><time>2023-07-02T15:09:37Z</time></trkpt>
<trkpt lat="46.24379" lon="7.31825"><ele>641.8</ele><time>2023-07-02T15:09:38Z</time></trkpt>
<trkpt lat="46.24393" lon="7.31812"><ele>642.8</ele><time>2023-07-02T15:09:47Z</time></trkpt>
<trkpt lat="46.24396" lon="7.3181"><ele>643.2</ele><time>2023-07-02T15:09:49Z</time></trkpt>
<trkpt lat="46.24403" lon="7.31803"><ele>643.8</ele><time>2023-07-02T15:09:53Z</time></trkpt>
<trkpt lat="46.2441" lon="7.31797"><ele>644.8</ele><time>2023-07-02T15:09:57Z</time></trkpt>
<trkpt lat="46.24414" lon="7.31794"><ele>645.2</ele><time>2023-07-02T15:09:59Z</time></trkpt>
<trkpt lat="46.2442" lon="7.31786"><ele>646.4</ele><time>2023-07-02T15:10:03Z</time></trkpt>
<trkpt lat="46.24426" lon="7.31773"><ele>647</ele><time>2023-07-02T15:10:09Z</time></trkpt>
<trkpt lat="46.24427" lon="7.31761"><ele>647.8</ele><time>2023-07-02T15:10:13Z</time></trkpt>
<trkpt lat="46.24427" lon="7.3175"><ele>648.4</ele><time>2023-07-02T15:10:17Z</time></trkpt>
<trkpt lat="46.24427" lon="7.31743"><ele>648.8</ele><time>2023-07-02T15:10:20Z</time></trkpt>
<trkpt lat="46.24425" lon="7.3173"><ele>650</ele><time>2023-07-02T15:10:25Z</time></trkpt>
<trkpt lat="46.24425" lon="7.31728"><ele>650.2</ele><time>2023-07-02T15:10:26Z</time></trkpt>
<trkpt lat="46.24421" lon="7.3171"><ele>651.2</ele><time>2023-07-02T15:10:34Z</time></trkpt>
<trkpt lat="46.24418" lon="7.31696"><ele>652.4</ele><time>2023-07-02T15:10:40Z</time></trkpt>
<trkpt lat="46.24417" lon="7.31689"><ele>653</ele><time>2023-07-02T15:10:43Z</time></trkpt>
<trkpt lat="46.24416" lon="7.31686"><ele>653.6</ele><time>2023-07-02T15:10:45Z</time></trkpt>
<trkpt lat="46.24414" lon="7.31678"><ele>653.8</ele><time>2023-07-02T15:10:50Z</time></trkpt>
<trkpt lat="46.2441" lon="7.31664"><ele>654.6</ele><time>2023-07-02T15:10:55Z</time></trkpt>
<trkpt lat="46.24409" lon="7.31658"><ele>655.2</ele><time>2023-07-02T15:10:58Z</time></trkpt>
<trkpt lat="46.24409" lon="7.31653"><ele>655.6</ele><time>2023-07-02T15:11:00Z</time></trkpt>
<trkpt lat="46.24407" lon="7.31641"><ele>656.6</ele><time>2023-07-02T15:11:05Z</time></trkpt>
<trkpt lat="46.24406" lon="7.31634"><ele>656.8</ele><time>2023-07-02T15:11:08Z</time></trkpt>
<trkpt lat="46.24405" lon="7.31624"><ele>657.6</ele><time>2023-07-02T15:11:12Z</time></trkpt>
<trkpt lat="46.24403" lon="7.31608"><ele>658.8</ele><time>2023-07-02T15:11:18Z</time></trkpt>
<trkpt lat="46.244" lon="7.31591"><ele>659.8</ele><time>2023-07-02T15:11:24Z</time></trkpt>
<trkpt lat="46.24398" lon="7.31581"><ele>660.8</ele><time>2023-07-02T15:11:28Z</time></trkpt>
<trkpt lat="46.24397" lon="7.31576"><ele>661.4</ele><time>2023-07-02T15:11:30Z</time></trkpt>
<trkpt lat="46.24396" lon="7.31568"><ele>662</ele><time>2023-07-02T15:11:33Z</time></trkpt>
<trkpt lat="46.24395" lon="7.31558"><ele>663</ele><time>2023-07-02T15:11:37Z</time></trkpt>
<trkpt lat="46.24394" lon="7.3155"><ele>663.6</ele><time>2023-07-02T15:11:40Z</time></trkpt>
<trkpt lat="46.24393" lon="7.31539"><ele>664.4</ele><time>2023-07-02T15:11:44Z</time></trkpt>
<trkpt lat="46.24391" lon="7.31527"><ele>665.4</ele><time>2023-07-02T15:11:49Z</time></trkpt>
<trkpt lat="46.24391" lon="7.31525"><ele>665.6</ele><time>2023-07-02T15:11:50Z</time></trkpt>
<trkpt lat="46.2439" lon="7.31514"><ele>666.2</ele><time>2023-07-02T15:11:56Z</time></trkpt>
<trkpt lat="46.24393" lon="7.31499"><ele>666.6</ele><time>2023-07-02T15:12:02Z</time></trkpt>
<trkpt lat="46.24397" lon="7.3149"><ele>667.6</ele><time>2023-07-02T15:12:06Z</time></trkpt>
<trkpt lat="46.24402" lon="7.31481"><ele>668.4</ele><time>2023-07-02T15:12:10Z</time></trkpt>
<trkpt lat="46.24403" lon="7.31479"><ele>668.8</ele><time>2023-07-02T15:12:11Z</time></trkpt>
<trkpt lat="46.24407" lon="7.31467"><ele>669.8</ele><time>2023-07-02T15:12:16Z</time></trkpt>
<trkpt lat="46.24408" lon="7.31464"><ele>670.2</ele><time>2023-07-02T15:12:18Z</time></trkpt>
<trkpt lat="46.24409" lon="7.31462"><ele>670.4</ele><time>2023-07-02T15:12:19Z</time></trkpt>
<trkpt lat="46.2441" lon="7.31452"><ele>671</ele><time>2023-07-02T15:12:24Z</time></trkpt>
<trkpt lat="46.2441" lon="7.31445"><ele>671.2</ele><time>2023-07-02T15:12:27Z</time></trkpt>
<trkpt lat="46.24408" lon="7.31429"><ele>672</ele><time>2023-07-02T15:12:34Z</time></trkpt>
<trkpt lat="46.24403" lon="7.31409"><ele>673</ele><time>2023-07-02T15:12:43Z</time></trkpt>
<trkpt lat="46.24402" lon="7.31399"><ele>674.2</ele><time>2023-07-02T15:12:48Z</time></trkpt>
<trkpt lat="46.24401" lon="7.31394"><ele>674.4</ele><time>2023-07-02T15:12:50Z</time></trkpt>
<trkpt lat="46.24402" lon="7.31382"><ele>675.2</ele><time>2023-07-02T15:12:55Z</time></trkpt>
<trkpt lat="46.24403" lon="7.31371"><ele>676.4</ele><time>2023-07-02T15:13:00Z</time></trkpt>
<trkpt lat="46.24407" lon="7.31346"><ele>677.6</ele><time>2023-07-02T15:13:11Z</time></trkpt>
<trkpt lat="46.24408" lon="7.31336"><ele>678.6</ele><time>2023-07-02T15:13:16Z</time></trkpt>
<trkpt lat="46.24409" lon="7.3133"><ele>679.2</ele><time>2023-07-02T15:13:19Z</time></trkpt>
<trkpt lat="46.24411" lon="7.31318"><ele>679.8</ele><time>2023-07-02T15:13:24Z</time></trkpt>
<trkpt lat="46.24411" lon="7.31311"><ele>680.2</ele><time>2023-07-02T15:13:27Z</time></trkpt>
<trkpt lat="46.24413" lon="7.31299"><ele>681</ele><time>2023-07-02T15:13:32Z</time></trkpt>
<trkpt lat="46.24415" lon="7.31287"><ele>681.8</ele><time>2023-07-02T15:13:37Z</time></trkpt>
<trkpt lat="46.24416" lon="7.31284"><ele>682</ele><time>2023-07-02T15:13:38Z</time></trkpt>
<trkpt lat="46.2442" lon="7.31274"><ele>683</ele><time>2023-07-02T15:13:44Z</time></trkpt>
<trkpt lat="46.24421" lon="7.31272"><ele>683.2</ele><time>2023-07-02T15:13:45Z</time></trkpt>
<trkpt lat="46.2443" lon="7.31266"><ele>683.8</ele><time>2023-07-02T15:13:51Z</time></trkpt>
<trkpt lat="46.24435" lon="7.31265"><ele>684.2</ele><time>2023-07-02T15:13:54Z</time></trkpt>
<trkpt lat="46.24444" lon="7.31264"><ele>685</ele><time>2023-07-02T15:13:59Z</time></trkpt>
<trkpt lat="46.24447" lon="7.31263"><ele>685.2</ele><time>2023-07-02T15:14:01Z</time></trkpt>
<trkpt lat="46.24455" lon="7.31261"><ele>686.2</ele><time>2023-07-02T15:14:05Z</time></trkpt>
<trkpt lat="46.24458" lon="7.31261"><ele>686.4</ele><time>2023-07-02T15:14:07Z</time></trkpt>
<trkpt lat="46.24471" lon="7.31259"><ele>687.4</ele><time>2023-07-02T15:14:14Z</time></trkpt>
<trkpt lat="46.24473" lon="7.31259"><ele>687.4</ele><time>2023-07-02T15:14:15Z</time></trkpt>
<trkpt lat="46.24477" lon="7.31267"><ele>687.6</ele><time>2023-07-02T15:14:20Z</time></trkpt>
<trkpt lat="46.24475" lon="7.31275"><ele>688.4</ele><time>2023-07-02T15:14:24Z</time></trkpt>
<trkpt lat="46.24473" lon="7.31277"><ele>689</ele><time>2023-07-02T15:14:26Z</time></trkpt>
<trkpt lat="46.24469" lon="7.31281"><ele>689.6</ele><time>2023-07-02T15:14:29Z</time></trkpt>
<trkpt lat="46.24464" lon="7.31286"><ele>691</ele><time>2023-07-02T15:14:33Z</time></trkpt>
<trkpt lat="46.2446" lon="7.31291"><ele>691.4</ele><time>2023-07-02T15:14:36Z</time></trkpt>
<trkpt lat="46.24458" lon="7.31299"><ele>691.6</ele><time>2023-07-02T15:14:39Z</time></trkpt>
<trkpt lat="46.24457" lon="7.31307"><ele>692</ele><time>2023-07-02T15:14:42Z</time></trkpt>
<trkpt lat="46.24458" lon="7.31316"><ele>692.6</ele><time>2023-07-02T15:14:46Z</time></trkpt>
<trkpt lat="46.24458" lon="7.3132"><ele>693</ele><time>2023-07-02T15:14:48Z</time></trkpt>
<trkpt lat="46.24462" lon="7.31334"><ele>694.2</ele><time>2023-07-02T15:14:54Z</time></trkpt>
<trkpt lat="46.24463" lon="7.31338"><ele>694.4</ele><time>2023-07-02T15:14:56Z</time></trkpt>
<trkpt lat="46.24467" lon="7.31351"><ele>695.2</ele><time>2023-07-02T15:15:02Z</time></trkpt>
<trkpt lat="46.24469" lon="7.31358"><ele>696.2</ele><time>2023-07-02T15:15:05Z</time></trkpt>
<trkpt lat="46.24469" lon="7.3136"><ele>696.2</ele><time>2023-07-02T15:15:06Z</time></trkpt>
<trkpt lat="46.24474" lon="7.31375"><ele>697.2</ele><time>2023-07-02T15:15:14Z</time></trkpt>
<trkpt lat="46.24475" lon="7.31378"><ele>697.6</ele><time>2023-07-02T15:15:16Z</time></trkpt>
<trkpt lat="46.24478" lon="7.31389"><ele>698.4</ele><time>2023-07-02T15:15:21Z</time></trkpt>
<trkpt lat="46.24479" lon="7.31395"><ele>698.8</ele><time>2023-07-02T15:15:24Z</time></trkpt>
<trkpt lat="46.24482" lon="7.31402"><ele>699.4</ele><time>2023-07-02T15:15:28Z</time></trkpt>
<trkpt lat="46.24484" lon="7.31411"><ele>699.8</ele><time>2023-07-02T15:15:32Z</time></trkpt>
<trkpt lat="46.24487" lon="7.31421"><ele>700.4</ele><time>2023-07-02T15:15:37Z</time></trkpt>
<trkpt lat="46.2449" lon="7.31435"><ele>701.6</ele><time>2023-07-02T15:15:43Z</time></trkpt>
<trkpt lat="46.24491" lon="7.31437"><ele>701.6</ele><time>2023-07-02T15:15:44Z</time></trkpt>
<trkpt lat="46.24495" lon="7.31448"><ele>702.6</ele><time>2023-07-02T15:15:49Z</time></trkpt>
<trkpt lat="46.24497" lon="7.31458"><ele>703.4</ele><time>2023-07-02T15:15:54Z</time></trkpt>
<trkpt lat="46.24499" lon="7.31464"><ele>704</ele><time>2023-07-02T15:15:56Z</time></trkpt>
<trkpt lat="46.24504" lon="7.31484"><ele>705.2</ele><time>2023-07-02T15:16:05Z</time></trkpt>
<trkpt lat="46.24504" lon="7.31487"><ele>705.4</ele><time>2023-07-02T15:16:06Z</time></trkpt>
<trkpt lat="46.24507" lon="7.31498"><ele>706.2</ele><time>2023-07-02T15:16:11Z</time></trkpt>
<trkpt lat="46.24508" lon="7.31506"><ele>706.8</ele><time>2023-07-02T15:16:15Z</time></trkpt>
<trkpt lat="46.24509" lon="7.31513"><ele>707.2</ele><time>2023-07-02T15:16:18Z</time></trkpt>
<trkpt lat="46.2451" lon="7.31522"><ele>708.2</ele><time>2023-07-02T15:16:22Z</time></trkpt>
<trkpt lat="46.24511" lon="7.31527"><ele>708.2</ele><time>2023-07-02T15:16:24Z</time></trkpt>
<trkpt lat="46.24517" lon="7.31544"><ele>709.4</ele><time>2023-07-02T15:16:32Z</time></trkpt>
<trkpt lat="46.24518" lon="7.31546"><ele>709.6</ele><time>2023-07-02T15:16:33Z</time></trkpt>
<trkpt lat="46.2452" lon="7.31556"><ele>710.4</ele><time>2023-07-02T15:16:38Z</time></trkpt>
<trkpt lat="46.24524" lon="7.31568"><ele>711.4</ele><time>2023-07-02T15:16:43Z</time></trkpt>
<trkpt lat="46.24524" lon="7.3157"><ele>711.4</ele><time>2023-07-02T15:16:44Z</time></trkpt>
<trkpt lat="46.24527" lon="7.31582"><ele>712.6</ele><time>2023-07-02T15:16:50Z</time></trkpt>
<trkpt lat="46.24528" lon="7.31589"><ele>713</ele><time>2023-07-02T15:16:53Z</time></trkpt>
<trkpt lat="46.2453" lon="7.316"><ele>714</ele><time>2023-07-02T15:16:58Z</time></trkpt>
<trkpt lat="46.24531" lon="7.31605"><ele>714.4</ele><time>2023-07-02T15:17:00Z</time></trkpt>
<trkpt lat="46.24533" lon="7.31614"><ele>715</ele><time>2023-07-02T15:17:05Z</time></trkpt>
<trkpt lat="46.24535" lon="7.31627"><ele>715.8</ele><time>2023-07-02T15:17:11Z</time></trkpt>
<trkpt lat="46.24535" lon="7.31629"><ele>716</ele><time>2023-07-02T15:17:12Z</time></trkpt>
<trkpt lat="46.24538" lon="7.31643"><ele>717.2</ele><time>2023-07-02T15:17:20Z</time></trkpt>
<trkpt lat="46.24538" lon="7.31646"><ele>717.6</ele><time>2023-07-02T15:17:21Z</time></trkpt>
<trkpt lat="46.2454" lon="7.3166"><ele>718.2</ele><time>2023-07-02T15:17:28Z</time></trkpt>
<trkpt lat="46.24542" lon="7.31673"><ele>719</ele><time>2023-07-02T15:17:35Z</time></trkpt>
<trkpt lat="46.24543" lon="7.31677"><ele>719.4</ele><time>2023-07-02T15:17:37Z</time></trkpt>
<trkpt lat="46.24543" lon="7.31687"><ele>721</ele><time>2023-07-02T15:17:42Z</time></trkpt>
<trkpt lat="46.24543" lon="7.31691"><ele>721.2</ele><time>2023-07-02T15:17:44Z</time></trkpt>
<trkpt lat="46.24543" lon="7.31701"><ele>722.2</ele><time>2023-07-02T15:17:50Z</time></trkpt>
<trkpt lat="46.24543" lon="7.31705"><ele>722.4</ele><time>2023-07-02T15:17:52Z</time></trkpt>
<trkpt lat="46.24546" lon="7.3172"><ele>722.6</ele><time>2023-07-02T15:17:59Z</time></trkpt>
<trkpt lat="46.24546" lon="7.3173"><ele>723.2</ele><time>2023-07-02T15:18:05Z</time></trkpt>
<trkpt lat="46.24546" lon="7.31733"><ele>723.2</ele><time>2023-07-02T15:18:06Z</time></trkpt>
<trkpt lat="46.24547" lon="7.31743"><ele>724.2</ele><time>2023-07-02T15:18:11Z</time></trkpt>
<trkpt lat="46.24547" lon="7.31745"><ele>724.4</ele><time>2023-07-02T15:18:12Z</time></trkpt>
<trkpt lat="46.2455" lon="7.31761"><ele>725.2</ele><time>2023-07-02T15:18:20Z</time></trkpt>
<trkpt lat="46.24553" lon="7.31764"><ele>725.4</ele><time>2023-07-02T15:18:22Z</time></trkpt>
<trkpt lat="46.24561" lon="7.31764"><ele>725.8</ele><time>2023-07-02T15:18:26Z</time></trkpt>
<trkpt lat="46.24563" lon="7.31762"><ele>726</ele><time>2023-07-02T15:18:28Z</time></trkpt>
<trkpt lat="46.24564" lon="7.31758"><ele>726.4</ele><time>2023-07-02T15:18:30Z</time></trkpt>
<trkpt lat="46.24564" lon="7.31756"><ele>726.4</ele><time>2023-07-02T15:18:31Z</time></trkpt>
<trkpt lat="46.24564" lon="7.31742"><ele>727.2</ele><time>2023-07-02T15:18:37Z</time></trkpt>
<trkpt lat="46.24563" lon="7.31732"><ele>727.8</ele><time>2023-07-02T15:18:41Z</time></trkpt>
<trkpt lat="46.24564" lon="7.31721"><ele>728.4</ele><time>2023-07-02T15:18:46Z</time></trkpt>
<trkpt lat="46.24564" lon="7.31714"><ele>729</ele><time>2023-07-02T15:18:49Z</time></trkpt>
<trkpt lat="46.24565" lon="7.31704"><ele>729.6</ele><time>2023-07-02T15:18:54Z</time></trkpt>
<trkpt lat="46.24566" lon="7.31701"><ele>730</ele><time>2023-07-02T15:18:56Z</time></trkpt>
<trkpt lat="46.24567" lon="7.31693"><ele>730.4</ele><time>2023-07-02T15:19:00Z</time></trkpt>
<trkpt lat="46.24569" lon="7.31682"><ele>731</ele><time>2023-07-02T15:19:06Z</time></trkpt>
<trkpt lat="46.2457" lon="7.31674"><ele>731.6</ele><time>2023-07-02T15:19:10Z</time></trkpt>
<trkpt lat="46.24573" lon="7.31665"><ele>732.2</ele><time>2023-07-02T15:19:15Z</time></trkpt>
<trkpt lat="46.24573" lon="7.31663"><ele>732.4</ele><time>2023-07-02T15:19:16Z</time></trkpt>
<trkpt lat="46.24577" lon="7.31651"><ele>733.2</ele><time>2023-07-02T15:19:23Z</time></trkpt>
<trkpt lat="46.2458" lon="7.31642"><ele>734.4</ele><time>2023-07-02T15:19:28Z</time></trkpt>
<trkpt lat="46.24583" lon="7.31631"><ele>734.8</ele><time>2023-07-02T15:19:33Z</time></trkpt>
<trkpt lat="46.24585" lon="7.3162"><ele>735.4</ele><time>2023-07-02T15:19:38Z</time></trkpt>
<trkpt lat="46.24586" lon="7.31617"><ele>735.8</ele><time>2023-07-02T15:19:40Z</time></trkpt>
<trkpt lat="46.24589" lon="7.31607"><ele>736.6</ele><time>2023-07-02T15:19:46Z</time></trkpt>
<trkpt lat="46.24589" lon="7.31603"><ele>737</ele><time>2023-07-02T15:19:48Z</time></trkpt>
<trkpt lat="46.24591" lon="7.31589"><ele>737.8</ele><time>2023-07-02T15:19:55Z</time></trkpt>
<trkpt lat="46.24591" lon="7.31587"><ele>738</ele><time>2023-07-02T15:19:56Z</time></trkpt>
<trkpt lat="46.24593" lon="7.31574"><ele>738.8</ele><time>2023-07-02T15:20:02Z</time></trkpt>
<trkpt lat="46.24596" lon="7.31555"><ele>740.2</ele><time>2023-07-02T15:20:11Z</time></trkpt>
<trkpt lat="46.24597" lon="7.31553"><ele>740.4</ele><time>2023-07-02T15:20:12Z</time></trkpt>
<trkpt lat="46.24599" lon="7.31534"><ele>741.2</ele><time>2023-07-02T15:20:21Z</time></trkpt>
<trkpt lat="46.24599" lon="7.31532"><ele>741.4</ele><time>2023-07-02T15:20:22Z</time></trkpt>
<trkpt lat="46.24601" lon="7.31523"><ele>742.2</ele><time>2023-07-02T15:20:27Z</time></trkpt>
<trkpt lat="46.24601" lon="7.31514"><ele>743.2</ele><time>2023-07-02T15:20:32Z</time></trkpt>
<trkpt lat="46.24602" lon="7.31512"><ele>743.2</ele><time>2023-07-02T15:20:33Z</time></trkpt>
<trkpt lat="46.24604" lon="7.31497"><ele>744.2</ele><time>2023-07-02T15:20:41Z</time></trkpt>
<trkpt lat="46.24605" lon="7.31495"><ele>744.4</ele><time>2023-07-02T15:20:42Z</time></trkpt>
<trkpt lat="46.24606" lon="7.31481"><ele>745.2</ele><time>2023-07-02T15:20:49Z</time></trkpt>
<trkpt lat="46.24607" lon="7.31479"><ele>745.4</ele><time>2023-07-02T15:20:50Z</time></trkpt>
<trkpt lat="46.24609" lon="7.31469"><ele>746.2</ele><time>2023-07-02T15:20:55Z</time></trkpt>
<trkpt lat="46.2461" lon="7.31466"><ele>746.6</ele><time>2023-07-02T15:20:57Z</time></trkpt>
<trkpt lat="46.24613" lon="7.31455"><ele>747.4</ele><time>2023-07-02T15:21:02Z</time></trkpt>
<trkpt lat="46.24614" lon="7.31451"><ele>747.6</ele><time>2023-07-02T15:21:04Z</time></trkpt>
<trkpt lat="46.24619" lon="7.31435"><ele>748.6</ele><time>2023-07-02T15:21:12Z</time></trkpt>
<trkpt lat="46.2462" lon="7.31433"><ele>748.8</ele><time>2023-07-02T15:21:13Z</time></trkpt>
<trkpt lat="46.24625" lon="7.31426"><ele>749.6</ele><time>2023-07-02T15:21:18Z</time></trkpt>
<trkpt lat="46.24628" lon="7.31419"><ele>750.2</ele><time>2023-07-02T15:21:22Z</time></trkpt>
<trkpt lat="46.24631" lon="7.31414"><ele>750.8</ele><time>2023-07-02T15:21:25Z</time></trkpt>
<trkpt lat="46.24638" lon="7.31401"><ele>751.8</ele><time>2023-07-02T15:21:32Z</time></trkpt>
<trkpt lat="46.24639" lon="7.314"><ele>751.8</ele><time>2023-07-02T15:21:33Z</time></trkpt>
<trkpt lat="46.24646" lon="7.31388"><ele>753</ele><time>2023-07-02T15:21:41Z</time></trkpt>
<trkpt lat="46.24647" lon="7.31386"><ele>753.2</ele><time>2023-07-02T15:21:42Z</time></trkpt>
<trkpt lat="46.24654" lon="7.31376"><ele>754</ele><time>2023-07-02T15:21:49Z</time></trkpt>
<trkpt lat="46.24655" lon="7.31375"><ele>754.2</ele><time>2023-07-02T15:21:50Z</time></trkpt>
<trkpt lat="46.24661" lon="7.31365"><ele>755.2</ele><time>2023-07-02T15:21:56Z</time></trkpt>
<trkpt lat="46.24664" lon="7.31361"><ele>755.4</ele><time>2023-07-02T15:21:59Z</time></trkpt>
<trkpt lat="46.2467" lon="7.31355"><ele>756.2</ele><time>2023-07-02T15:22:04Z</time></trkpt>
<trkpt lat="46.24672" lon="7.31352"><ele>756.4</ele><time>2023-07-02T15:22:06Z</time></trkpt>
<trkpt lat="46.24677" lon="7.3135"><ele>757.2</ele><time>2023-07-02T15:22:10Z</time></trkpt>
<trkpt lat="46.24682" lon="7.3135"><ele>757.4</ele><time>2023-07-02T15:22:13Z</time></trkpt>
<trkpt lat="46.24687" lon="7.31351"><ele>758.2</ele><time>2023-07-02T15:22:17Z</time></trkpt>
<trkpt lat="46.24692" lon="7.31353"><ele>758.8</ele><time>2023-07-02T15:22:21Z</time></trkpt>
<trkpt lat="46.24696" lon="7.31357"><ele>759.4</ele><time>2023-07-02T15:22:25Z</time></trkpt>
<trkpt lat="46.24701" lon="7.3136"><ele>759.8</ele><time>2023-07-02T15:22:29Z</time></trkpt>
<trkpt lat="46.24706" lon="7.31363"><ele>760.4</ele><time>2023-07-02T15:22:33Z</time></trkpt>
<trkpt lat="46.24708" lon="7.31365"><ele>760.6</ele><time>2023-07-02T15:22:35Z</time></trkpt>
<trkpt lat="46.24715" lon="7.31371"><ele>761.4</ele><time>2023-07-02T15:22:41Z</time></trkpt>
<trkpt lat="46.24716" lon="7.31372"><ele>761.6</ele><time>2023-07-02T15:22:42Z</time></trkpt>
<trkpt lat="46.24725" lon="7.31379"><ele>762.6</ele><time>2023-07-02T15:22:49Z</time></trkpt>
<trkpt lat="46.24728" lon="7.31383"><ele>762.8</ele><time>2023-07-02T15:22:52Z</time></trkpt>
<trkpt lat="46.24732" lon="7.31391"><ele>763.2</ele><time>2023-07-02T15:22:58Z</time></trkpt>
<trkpt lat="46.24734" lon="7.31395"><ele>763.6</ele><time>2023-07-02T15:23:00Z</time></trkpt>
<trkpt lat="46.24733" lon="7.31403"><ele>764.4</ele><time>2023-07-02T15:23:04Z</time></trkpt>
<trkpt lat="46.24731" lon="7.31406"><ele>764.8</ele><time>2023-07-02T15:23:06Z</time></trkpt>
<trkpt lat="46.24726" lon="7.3141"><ele>765.4</ele><time>2023-07-02T15:23:10Z</time></trkpt>
<trkpt lat="46.24724" lon="7.31412"><ele>765.8</ele><time>2023-07-02T15:23:12Z</time></trkpt>
<trkpt lat="46.24715" lon="7.31413"><ele>766.8</ele><time>2023-07-02T15:23:18Z</time></trkpt>
<trkpt lat="46.24709" lon="7.31416"><ele>767.6</ele><time>2023-07-02T15:23:23Z</time></trkpt>
<trkpt lat="46.247" lon="7.31425"><ele>768</ele><time>2023-07-02T15:23:30Z</time></trkpt>
<trkpt lat="46.24698" lon="7.31427"><ele>768</ele><time>2023-07-02T15:23:31Z</time></trkpt>
<trkpt lat="46.24692" lon="7.31447"><ele>769.2</ele><time>2023-07-02T15:23:40Z</time></trkpt>
<trkpt lat="46.24689" lon="7.31462"><ele>770.2</ele><time>2023-07-02T15:23:46Z</time></trkpt>
<trkpt lat="46.24686" lon="7.31473"><ele>770.8</ele><time>2023-07-02T15:23:50Z</time></trkpt>
<trkpt lat="46.24684" lon="7.31483"><ele>771.2</ele><time>2023-07-02T15:23:54Z</time></trkpt>
<trkpt lat="46.24681" lon="7.31496"><ele>772.2</ele><time>2023-07-02T15:24:00Z</time></trkpt>
<trkpt lat="46.2468" lon="7.31498"><ele>772.4</ele><time>2023-07-02T15:24:01Z</time></trkpt>
<trkpt lat="46.24677" lon="7.31515"><ele>773.4</ele><time>2023-07-02T15:24:08Z</time></trkpt>
<trkpt lat="46.24677" lon="7.31517"><ele>773.6</ele><time>2023-07-02T15:24:09Z</time></trkpt>
<trkpt lat="46.24681" lon="7.31537"><ele>774.6</ele><time>2023-07-02T15:24:17Z</time></trkpt>
<trkpt lat="46.24682" lon="7.3154"><ele>774.8</ele><time>2023-07-02T15:24:18Z</time></trkpt>
<trkpt lat="46.24685" lon="7.31554"><ele>775.6</ele><time>2023-07-02T15:24:24Z</time></trkpt>
<trkpt lat="46.24686" lon="7.3156"><ele>776</ele><time>2023-07-02T15:24:27Z</time></trkpt>
<trkpt lat="46.24688" lon="7.31571"><ele>776.8</ele><time>2023-07-02T15:24:32Z</time></trkpt>
<trkpt lat="46.2469" lon="7.31579"><ele>777.6</ele><time>2023-07-02T15:24:36Z</time></trkpt>
<trkpt lat="46.24691" lon="7.31583"><ele>777.8</ele><time>2023-07-02T15:24:38Z</time></trkpt>
<trkpt lat="46.24694" lon="7.31595"><ele>778.8</ele><time>2023-07-02T15:24:44Z</time></trkpt>
<trkpt lat="46.24696" lon="7.31599"><ele>779</ele><time>2023-07-02T15:24:46Z</time></trkpt>
<trkpt lat="46.24699" lon="7.31613"><ele>780</ele><time>2023-07-02T15:24:52Z</time></trkpt>
<trkpt lat="46.24702" lon="7.31622"><ele>780.6</ele><time>2023-07-02T15:24:56Z</time></trkpt>
<trkpt lat="46.24704" lon="7.31629"><ele>781.2</ele><time>2023-07-02T15:24:59Z</time></trkpt>
<trkpt lat="46.24707" lon="7.31641"><ele>782.2</ele><time>2023-07-02T15:25:04Z</time></trkpt>
<trkpt lat="46.2471" lon="7.31648"><ele>782.4</ele><time>2023-07-02T15:25:07Z</time></trkpt>
<trkpt lat="46.24712" lon="7.31656"><ele>783.2</ele><time>2023-07-02T15:25:11Z</time></trkpt>
<trkpt lat="46.24715" lon="7.31667"><ele>784.2</ele><time>2023-07-02T15:25:16Z</time></trkpt>
<trkpt lat="46.24716" lon="7.31669"><ele>784.4</ele><time>2023-07-02T15:25:17Z</time></trkpt>
<trkpt lat="46.2472" lon="7.31682"><ele>785.4</ele><time>2023-07-02T15:25:23Z</time></trkpt>
<trkpt lat="46.24721" lon="7.31685"><ele>785.6</ele><time>2023-07-02T15:25:25Z</time></trkpt>
<trkpt lat="46.24723" lon="7.31699"><ele>786.4</ele><time>2023-07-02T15:25:32Z</time></trkpt>
<trkpt lat="46.24723" lon="7.31701"><ele>786.6</ele><time>2023-07-02T15:25:33Z</time></trkpt>
<trkpt lat="46.24724" lon="7.31713"><ele>787.6</ele><time>2023-07-02T15:25:39Z</time></trkpt>
<trkpt lat="46.24724" lon="7.31717"><ele>787.8</ele><time>2023-07-02T15:25:41Z</time></trkpt>
<trkpt lat="46.24724" lon="7.31729"><ele>788.6</ele><time>2023-07-02T15:25:48Z</time></trkpt>
<trkpt lat="46.24724" lon="7.31733"><ele>788.8</ele><time>2023-07-02T15:25:50Z</time></trkpt>
<trkpt lat="46.24725" lon="7.31745"><ele>789.8</ele><time>2023-07-02T15:25:56Z</time></trkpt>
<trkpt lat="46.24726" lon="7.31765"><ele>791</ele><time>2023-07-02T15:26:06Z</time></trkpt>
<trkpt lat="46.24727" lon="7.31771"><ele>791.8</ele><time>2023-07-02T15:26:09Z</time></trkpt>
<trkpt lat="46.24727" lon="7.31775"><ele>792</ele><time>2023-07-02T15:26:11Z</time></trkpt>
<trkpt lat="46.24729" lon="7.31792"><ele>793.2</ele><time>2023-07-02T15:26:19Z</time></trkpt>
<trkpt lat="46.24732" lon="7.31803"><ele>794.4</ele><time>2023-07-02T15:26:25Z</time></trkpt>
<trkpt lat="46.24734" lon="7.31809"><ele>794.6</ele><time>2023-07-02T15:26:28Z</time></trkpt>
<trkpt lat="46.24739" lon="7.31822"><ele>795.4</ele><time>2023-07-02T15:26:35Z</time></trkpt>
<trkpt lat="46.24742" lon="7.31831"><ele>796</ele><time>2023-07-02T15:26:40Z</time></trkpt>
<trkpt lat="46.24746" lon="7.31838"><ele>796.4</ele><time>2023-07-02T15:26:44Z</time></trkpt>
<trkpt lat="46.2475" lon="7.31845"><ele>797.2</ele><time>2023-07-02T15:26:48Z</time></trkpt>
<trkpt lat="46.24752" lon="7.31849"><ele>797.6</ele><time>2023-07-02T15:26:51Z</time></trkpt>
<trkpt lat="46.24758" lon="7.31858"><ele>798.6</ele><time>2023-07-02T15:26:58Z</time></trkpt>
<trkpt lat="46.24759" lon="7.31859"><ele>798.8</ele><time>2023-07-02T15:26:59Z</time></trkpt>
<trkpt lat="46.24765" lon="7.31872"><ele>799.8</ele><time>2023-07-02T15:27:07Z</time></trkpt>
<trkpt lat="46.24768" lon="7.31885"><ele>800.4</ele><time>2023-07-02T15:27:14Z</time></trkpt>
<trkpt lat="46.24768" lon="7.31891"><ele>800.8</ele><time>2023-07-02T15:27:17Z</time></trkpt>
<trkpt lat="46.24765" lon="7.31897"><ele>802</ele><time>2023-07-02T15:27:22Z</time></trkpt>
<trkpt lat="46.24759" lon="7.31908"><ele>802.6</ele><time>2023-07-02T15:27:30Z</time></trkpt>
<trkpt lat="46.24757" lon="7.31913"><ele>803</ele><time>2023-07-02T15:27:33Z</time></trkpt>
<trkpt lat="46.24751" lon="7.31923"><ele>803.8</ele><time>2023-07-02T15:27:39Z</time></trkpt>
<trkpt lat="46.2475" lon="7.31926"><ele>804.2</ele><time>2023-07-02T15:27:41Z</time></trkpt>
<trkpt lat="46.24746" lon="7.31938"><ele>805.2</ele><time>2023-07-02T15:27:47Z</time></trkpt>
<trkpt lat="46.24745" lon="7.31942"><ele>805.8</ele><time>2023-07-02T15:27:49Z</time></trkpt>
<trkpt lat="46.24746" lon="7.31949"><ele>806.2</ele><time>2023-07-02T15:27:52Z</time></trkpt>
<trkpt lat="46.24748" lon="7.31961"><ele>807.2</ele><time>2023-07-02T15:27:58Z</time></trkpt>
<trkpt lat="46.24748" lon="7.31963"><ele>807.4</ele><time>2023-07-02T15:27:59Z</time></trkpt>
<trkpt lat="46.24752" lon="7.31976"><ele>808</ele><time>2023-07-02T15:28:05Z</time></trkpt>
<trkpt lat="46.24753" lon="7.3198"><ele>808.6</ele><time>2023-07-02T15:28:07Z</time></trkpt>
<trkpt lat="46.24758" lon="7.31995"><ele>809.8</ele><time>2023-07-02T15:28:15Z</time></trkpt>
<trkpt lat="46.24759" lon="7.31997"><ele>810</ele><time>2023-07-02T15:28:16Z</time></trkpt>
<trkpt lat="46.24764" lon="7.32011"><ele>810.8</ele><time>2023-07-02T15:28:23Z</time></trkpt>
<trkpt lat="46.24765" lon="7.32015"><ele>811</ele><time>2023-07-02T15:28:25Z</time></trkpt>
<trkpt lat="46.24769" lon="7.32024"><ele>812</ele><time>2023-07-02T15:28:30Z</time></trkpt>
<trkpt lat="46.24775" lon="7.32036"><ele>812.8</ele><time>2023-07-02T15:28:37Z</time></trkpt>
<trkpt lat="46.24776" lon="7.32038"><ele>813</ele><time>2023-07-02T15:28:38Z</time></trkpt>
<trkpt lat="46.24781" lon="7.32048"><ele>814.2</ele><time>2023-07-02T15:28:44Z</time></trkpt>
<trkpt lat="46.24781" lon="7.32051"><ele>814.4</ele><time>2023-07-02T15:28:45Z</time></trkpt>
<trkpt lat="46.24786" lon="7.3206"><ele>815.4</ele><time>2023-07-02T15:28:50Z</time></trkpt>
<trkpt lat="46.24788" lon="7.32068"><ele>816</ele><time>2023-07-02T15:28:54Z</time></trkpt>
<trkpt lat="46.24792" lon="7.32079"><ele>816.4</ele><time>2023-07-02T15:28:59Z</time></trkpt>
<trkpt lat="46.24794" lon="7.32084"><ele>817</ele><time>2023-07-02T15:29:02Z</time></trkpt>
<trkpt lat="46.24795" lon="7.32089"><ele>817.4</ele><time>2023-07-02T15:29:04Z</time></trkpt>
<trkpt lat="46.24798" lon="7.32102"><ele>818.2</ele><time>2023-07-02T15:29:11Z</time></trkpt>
<trkpt lat="46.24798" lon="7.32106"><ele>818.4</ele><time>2023-07-02T15:29:14Z</time></trkpt>
<trkpt lat="46.24799" lon="7.32109"><ele>818.4</ele><time>2023-07-02T15:29:16Z</time></trkpt>
<trkpt lat="46.24802" lon="7.3211"><ele>818.4</ele><time>2023-07-02T15:29:18Z</time></trkpt>
<trkpt lat="46.24804" lon="7.32109"><ele>818.4</ele><time>2023-07-02T15:29:19Z</time></trkpt>
<trkpt lat="46.24806" lon="7.32108"><ele>818.4</ele><time>2023-07-02T15:29:20Z</time></trkpt>
<trkpt lat="46.24807" lon="7.321"><ele>818.6</ele><time>2023-07-02T15:29:23Z</time></trkpt>
<trkpt lat="46.24807" lon="7.32084"><ele>819.4</ele><time>2023-07-02T15:29:30Z</time></trkpt>
<trkpt lat="46.24806" lon="7.32079"><ele>819.6</ele><time>2023-07-02T15:29:32Z</time></trkpt>
<trkpt lat="46.24804" lon="7.32064"><ele>820.4</ele><time>2023-07-02T15:29:38Z</time></trkpt>
<trkpt lat="46.24803" lon="7.32055"><ele>821</ele><time>2023-07-02T15:29:42Z</time></trkpt>
<trkpt lat="46.24803" lon="7.3205"><ele>821.6</ele><time>2023-07-02T15:29:45Z</time></trkpt>
<trkpt lat="46.24802" lon="7.32042"><ele>822</ele><time>2023-07-02T15:29:49Z</time></trkpt>
<trkpt lat="46.24802" lon="7.32029"><ele>822.8</ele><time>2023-07-02T15:29:55Z</time></trkpt>
<trkpt lat="46.24801" lon="7.32009"><ele>824</ele><time>2023-07-02T15:30:04Z</time></trkpt>
<trkpt lat="46.248" lon="7.31991"><ele>825</ele><time>2023-07-02T15:30:12Z</time></trkpt>
<trkpt lat="46.24802" lon="7.31975"><ele>825.4</ele><time>2023-07-02T15:30:19Z</time></trkpt>
<trkpt lat="46.24808" lon="7.31961"><ele>825.4</ele><time>2023-07-02T15:30:25Z</time></trkpt>
<trkpt lat="46.24821" lon="7.31946"><ele>825</ele><time>2023-07-02T15:30:31Z</time></trkpt>
<trkpt lat="46.24828" lon="7.31939"><ele>824.2</ele><time>2023-07-02T15:30:33Z</time></trkpt>
<trkpt lat="46.24836" lon="7.31929"><ele>823.8</ele><time>2023-07-02T15:30:35Z</time></trkpt>
<trkpt lat="46.24838" lon="7.31921"><ele>823.4</ele><time>2023-07-02T15:30:36Z</time></trkpt>
<trkpt lat="46.24838" lon="7.31913"><ele>823</ele><time>2023-07-02T15:30:37Z</time></trkpt>
<trkpt lat="46.24837" lon="7.31905"><ele>822.6</ele><time>2023-07-02T15:30:38Z</time></trkpt>
<trkpt lat="46.24834" lon="7.31896"><ele>822.4</ele><time>2023-07-02T15:30:39Z</time></trkpt>
<trkpt lat="46.24829" lon="7.31863"><ele>821.6</ele><time>2023-07-02T15:30:42Z</time></trkpt>
<trkpt lat="46.24829" lon="7.31853"><ele>821.4</ele><time>2023-07-02T15:30:43Z</time></trkpt>
<trkpt lat="46.24832" lon="7.31844"><ele>821.4</ele><time>2023-07-02T15:30:44Z</time></trkpt>
<trkpt lat="46.24839" lon="7.31835"><ele>821.4</ele><time>2023-07-02T15:30:46Z</time></trkpt>
<trkpt lat="46.24842" lon="7.31826"><ele>822.8</ele><time>2023-07-02T15:30:50Z</time></trkpt>
<trkpt lat="46.24845" lon="7.31816"><ele>823.4</ele><time>2023-07-02T15:30:55Z</time></trkpt>
<trkpt lat="46.24847" lon="7.3181"><ele>823.8</ele><time>2023-07-02T15:30:59Z</time></trkpt>
<trkpt lat="46.24848" lon="7.31805"><ele>824.4</ele><time>2023-07-02T15:31:01Z</time></trkpt>
<trkpt lat="46.24852" lon="7.31794"><ele>825</ele><time>2023-07-02T15:31:07Z</time></trkpt>
<trkpt lat="46.24853" lon="7.31792"><ele>825</ele><time>2023-07-02T15:31:08Z</time></trkpt>
<trkpt lat="46.24854" lon="7.31783"><ele>826</ele><time>2023-07-02T15:31:13Z</time></trkpt>
<trkpt lat="46.24856" lon="7.31774"><ele>826.4</ele><time>2023-07-02T15:31:17Z</time></trkpt>
<trkpt lat="46.24857" lon="7.31768"><ele>827</ele><time>2023-07-02T15:31:20Z</time></trkpt>
<trkpt lat="46.24858" lon="7.31758"><ele>827.8</ele><time>2023-07-02T15:31:25Z</time></trkpt>
<trkpt lat="46.24859" lon="7.31754"><ele>828.2</ele><time>2023-07-02T15:31:27Z</time></trkpt>
<trkpt lat="46.24861" lon="7.31739"><ele>828.8</ele><time>2023-07-02T15:31:34Z</time></trkpt>
<trkpt lat="46.24862" lon="7.31734"><ele>829.2</ele><time>2023-07-02T15:31:37Z</time></trkpt>
<trkpt lat="46.24862" lon="7.31726"><ele>829.6</ele><time>2023-07-02T15:31:41Z</time></trkpt>
<trkpt lat="46.24864" lon="7.31717"><ele>830.2</ele><time>2023-07-02T15:31:47Z</time></trkpt>
<trkpt lat="46.24864" lon="7.31715"><ele>830.4</ele><time>2023-07-02T15:31:48Z</time></trkpt>
<trkpt lat="46.24868" lon="7.31701"><ele>831.2</ele><time>2023-07-02T15:31:56Z</time></trkpt>
<trkpt lat="46.24868" lon="7.31698"><ele>831.4</ele><time>2023-07-02T15:31:57Z</time></trkpt>
<trkpt lat="46.24874" lon="7.31686"><ele>832.2</ele><time>2023-07-02T15:32:04Z</time></trkpt>
<trkpt lat="46.24877" lon="7.31677"><ele>832.4</ele><time>2023-07-02T15:32:09Z</time></trkpt>
<trkpt lat="46.24877" lon="7.31673"><ele>832.8</ele><time>2023-07-02T15:32:11Z</time></trkpt>
<trkpt lat="46.24879" lon="7.31666"><ele>833.4</ele><time>2023-07-02T15:32:15Z</time></trkpt>
<trkpt lat="46.24882" lon="7.3166"><ele>833.8</ele><time>2023-07-02T15:32:19Z</time></trkpt>
<trkpt lat="46.24887" lon="7.31653"><ele>834.6</ele><time>2023-07-02T15:32:23Z</time></trkpt>
<trkpt lat="46.24888" lon="7.3165"><ele>834.8</ele><time>2023-07-02T15:32:25Z</time></trkpt>
<trkpt lat="46.2489" lon="7.31639"><ele>835.2</ele><time>2023-07-02T15:32:31Z</time></trkpt>
<trkpt lat="46.24891" lon="7.31636"><ele>835.6</ele><time>2023-07-02T15:32:34Z</time></trkpt>
<trkpt lat="46.24891" lon="7.31637"><ele>835.6</ele><time>2023-07-02T15:32:36Z</time></trkpt>
<trkpt lat="46.24891" lon="7.31637"><ele>836</ele><time>2023-07-02T15:32:40Z</time></trkpt>
<trkpt lat="46.24891" lon="7.31637"><ele>836</ele><time>2023-07-02T15:32:44Z</time></trkpt>
<trkpt lat="46.24893" lon="7.31636"><ele>836</ele><time>2023-07-02T15:32:45Z</time></trkpt>
<trkpt lat="46.24905" lon="7.31629"><ele>835.8</ele><time>2023-07-02T15:32:50Z</time></trkpt>
<trkpt lat="46.24924" lon="7.31616"><ele>834.4</ele><time>2023-07-02T15:32:56Z</time></trkpt>
<trkpt lat="46.24936" lon="7.31602"><ele>833.6</ele><time>2023-07-02T15:32:59Z</time></trkpt>
<trkpt lat="46.24942" lon="7.31597"><ele>833.4</ele><time>2023-07-02T15:33:00Z</time></trkpt>
<trkpt lat="46.24949" lon="7.31592"><ele>832</ele><time>2023-07-02T15:33:01Z</time></trkpt>
<trkpt lat="46.24956" lon="7.31587"><ele>831.6</ele><time>2023-07-02T15:33:02Z</time></trkpt>
<trkpt lat="46.24964" lon="7.31584"><ele>830.8</ele><time>2023-07-02T15:33:03Z</time></trkpt>
<trkpt lat="46.24974" lon="7.31582"><ele>830.2</ele><time>2023-07-02T15:33:04Z</time></trkpt>
<trkpt lat="46.24993" lon="7.31579"><ele>827.4</ele><time>2023-07-02T15:33:06Z</time></trkpt>
<trkpt lat="46.25003" lon="7.31579"><ele>826</ele><time>2023-07-02T15:33:07Z</time></trkpt>
<trkpt lat="46.25024" lon="7.31577"><ele>824.2</ele><time>2023-07-02T15:33:09Z</time></trkpt>
<trkpt lat="46.25047" lon="7.31575"><ele>822.4</ele><time>2023-07-02T15:33:11Z</time></trkpt>
<trkpt lat="46.25057" lon="7.31573"><ele>819.4</ele><time>2023-07-02T15:33:12Z</time></trkpt>
<trkpt lat="46.25079" lon="7.31571"><ele>817.4</ele><time>2023-07-02T15:33:14Z</time></trkpt>
<trkpt lat="46.2509" lon="7.31575"><ele>816.6</ele><time>2023-07-02T15:33:15Z</time></trkpt>
<trkpt lat="46.251" lon="7.31582"><ele>816.2</ele><time>2023-07-02T15:33:16Z</time></trkpt>
<trkpt lat="46.2511" lon="7.31592"><ele>816</ele><time>2023-07-02T15:33:17Z</time></trkpt>
<trkpt lat="46.25119" lon="7.31602"><ele>815.4</ele><time>2023-07-02T15:33:18Z</time></trkpt>
<trkpt lat="46.25128" lon="7.3161"><ele>814.2</ele><time>2023-07-02T15:33:19Z</time></trkpt>
<trkpt lat="46.25148" lon="7.31624"><ele>812.4</ele><time>2023-07-02T15:33:21Z</time></trkpt>
<trkpt lat="46.25158" lon="7.31629"><ele>811.6</ele><time>2023-07-02T15:33:22Z</time></trkpt>
<trkpt lat="46.25169" lon="7.31634"><ele>810</ele><time>2023-07-02T15:33:23Z</time></trkpt>
<trkpt lat="46.25199" lon="7.31643"><ele>809</ele><time>2023-07-02T15:33:26Z</time></trkpt>
<trkpt lat="46.25209" lon="7.31646"><ele>808.8</ele><time>2023-07-02T15:33:27Z</time></trkpt>
<trkpt lat="46.2526" lon="7.31659"><ele>807.8</ele><time>2023-07-02T15:33:32Z</time></trkpt>
<trkpt lat="46.25269" lon="7.3166"><ele>807</ele><time>2023-07-02T15:33:33Z</time></trkpt>
<trkpt lat="46.25279" lon="7.31663"><ele>806.6</ele><time>2023-07-02T15:33:34Z</time></trkpt>
<trkpt lat="46.25309" lon="7.31662"><ele>806.4</ele><time>2023-07-02T15:33:37Z</time></trkpt>
<trkpt lat="46.25326" lon="7.31654"><ele>806</ele><time>2023-07-02T15:33:39Z</time></trkpt>
<trkpt lat="46.25334" lon="7.31648"><ele>805.4</ele><time>2023-07-02T15:33:40Z</time></trkpt>
<trkpt lat="46.25342" lon="7.3164"><ele>805</ele><time>2023-07-02T15:33:41Z</time></trkpt>
<trkpt lat="46.25355" lon="7.31619"><ele>804</ele><time>2023-07-02T15:33:43Z</time></trkpt>
<trkpt lat="46.25374" lon="7.31586"><ele>802.6</ele><time>2023-07-02T15:33:46Z</time></trkpt>
<trkpt lat="46.25383" lon="7.31578"><ele>801.4</ele><time>2023-07-02T15:33:47Z</time></trkpt>
<trkpt lat="46.25393" lon="7.31574"><ele>800.8</ele><time>2023-07-02T15:33:48Z</time></trkpt>
<trkpt lat="46.25404" lon="7.31576"><ele>800.6</ele><time>2023-07-02T15:33:49Z</time></trkpt>
<trkpt lat="46.25414" lon="7.31578"><ele>799.8</ele><time>2023-07-02T15:33:50Z</time></trkpt>
<trkpt lat="46.25424" lon="7.31582"><ele>798.2</ele><time>2023-07-02T15:33:51Z</time></trkpt>
<trkpt lat="46.25434" lon="7.3159"><ele>797.8</ele><time>2023-07-02T15:33:52Z</time></trkpt>
<trkpt lat="46.25451" lon="7.3161"><ele>796.8</ele><time>2023-07-02T15:33:54Z</time></trkpt>
<trkpt lat="46.25458" lon="7.31623"><ele>796.4</ele><time>2023-07-02T15:33:55Z</time></trkpt>
<trkpt lat="46.25464" lon="7.31638"><ele>796.2</ele><time>2023-07-02T15:33:56Z</time></trkpt>
<trkpt lat="46.2547" lon="7.31654"><ele>795</ele><time>2023-07-02T15:33:57Z</time></trkpt>
<trkpt lat="46.25476" lon="7.31669"><ele>794.8</ele><time>2023-07-02T15:33:58Z</time></trkpt>
<trkpt lat="46.25485" lon="7.31683"><ele>794</ele><time>2023-07-02T15:33:59Z</time></trkpt>
<trkpt lat="46.25494" lon="7.31694"><ele>793.4</ele><time>2023-07-02T15:34:00Z</time></trkpt>
<trkpt lat="46.25503" lon="7.31705"><ele>791.4</ele><time>2023-07-02T15:34:01Z</time></trkpt>
<trkpt lat="46.25517" lon="7.31733"><ele>789.6</ele><time>2023-07-02T15:34:03Z</time></trkpt>
<trkpt lat="46.25524" lon="7.31748"><ele>789.4</ele><time>2023-07-02T15:34:04Z</time></trkpt>
<trkpt lat="46.25534" lon="7.3176"><ele>788.6</ele><time>2023-07-02T15:34:05Z</time></trkpt>
<trkpt lat="46.25544" lon="7.3177"><ele>787.6</ele><time>2023-07-02T15:34:06Z</time></trkpt>
<trkpt lat="46.25555" lon="7.31778"><ele>786.2</ele><time>2023-07-02T15:34:07Z</time></trkpt>
<trkpt lat="46.25577" lon="7.31779"><ele>784.6</ele><time>2023-07-02T15:34:09Z</time></trkpt>
<trkpt lat="46.25597" lon="7.31765"><ele>783.6</ele><time>2023-07-02T15:34:11Z</time></trkpt>
<trkpt lat="46.25606" lon="7.31755"><ele>781.4</ele><time>2023-07-02T15:34:12Z</time></trkpt>
<trkpt lat="46.25627" lon="7.31745"><ele>780.4</ele><time>2023-07-02T15:34:14Z</time></trkpt>
<trkpt lat="46.25636" lon="7.31746"><ele>780</ele><time>2023-07-02T15:34:15Z</time></trkpt>
<trkpt lat="46.25646" lon="7.31752"><ele>779.6</ele><time>2023-07-02T15:34:16Z</time></trkpt>
<trkpt lat="46.25657" lon="7.31754"><ele>779.2</ele><time>2023-07-02T15:34:17Z</time></trkpt>
<trkpt lat="46.25668" lon="7.31752"><ele>778.6</ele><time>2023-07-02T15:34:18Z</time></trkpt>
<trkpt lat="46.25692" lon="7.31746"><ele>776.2</ele><time>2023-07-02T15:34:20Z</time></trkpt>
<trkpt lat="46.25706" lon="7.31745"><ele>774.4</ele><time>2023-07-02T15:34:21Z</time></trkpt>
<trkpt lat="46.25706" lon="7.31745"><ele>774.4</ele><time>2023-07-02T15:34:21Z</time></trkpt>
<trkpt lat="46.25706" lon="7.31745"><ele>774.4</ele><time>2023-07-02T15:34:21Z</time></trkpt>
<trkpt lat="46.25786" lon="7.31775"><ele>769.2</ele><time>2023-07-02T15:34:28Z</time></trkpt>
<trkpt lat="46.25822" lon="7.318"><ele>768</ele><time>2023-07-02T15:34:31Z</time></trkpt>
<trkpt lat="46.25832" lon="7.31802"><ele>767.8</ele><time>2023-07-02T15:34:32Z</time></trkpt>
<trkpt lat="46.2585" lon="7.31796"><ele>767.4</ele><time>2023-07-02T15:34:34Z</time></trkpt>
<trkpt lat="46.25857" lon="7.31791"><ele>767.4</ele><time>2023-07-02T15:34:35Z</time></trkpt>
<trkpt lat="46.25887" lon="7.31775"><ele>767.4</ele><time>2023-07-02T15:34:39Z</time></trkpt>
<trkpt lat="46.25902" lon="7.31781"><ele>767.4</ele><time>2023-07-02T15:34:41Z</time></trkpt>
<trkpt lat="46.25907" lon="7.31786"><ele>767.6</ele><time>2023-07-02T15:34:42Z</time></trkpt>
<trkpt lat="46.25913" lon="7.31791"><ele>767.8</ele><time>2023-07-02T15:34:43Z</time></trkpt>
<trkpt lat="46.25928" lon="7.31809"><ele>768.2</ele><time>2023-07-02T15:34:46Z</time></trkpt>
<trkpt lat="46.25941" lon="7.31824"><ele>768.8</ele><time>2023-07-02T15:34:49Z</time></trkpt>
<trkpt lat="46.25945" lon="7.31827"><ele>769</ele><time>2023-07-02T15:34:50Z</time></trkpt>
<trkpt lat="46.25949" lon="7.31829"><ele>769.2</ele><time>2023-07-02T15:34:51Z</time></trkpt>
<trkpt lat="46.25958" lon="7.31835"><ele>770</ele><time>2023-07-02T15:34:54Z</time></trkpt>
<trkpt lat="46.25962" lon="7.31839"><ele>770.4</ele><time>2023-07-02T15:34:56Z</time></trkpt>
<trkpt lat="46.2597" lon="7.31843"><ele>771</ele><time>2023-07-02T15:35:00Z</time></trkpt>
<trkpt lat="46.25978" lon="7.31847"><ele>771.8</ele><time>2023-07-02T15:35:03Z</time></trkpt>
<trkpt lat="46.2598" lon="7.31848"><ele>772</ele><time>2023-07-02T15:35:04Z</time></trkpt>
<trkpt lat="46.25987" lon="7.31851"><ele>772.4</ele><time>2023-07-02T15:35:07Z</time></trkpt>
<trkpt lat="46.25994" lon="7.31854"><ele>772.6</ele><time>2023-07-02T15:35:10Z</time></trkpt>
<trkpt lat="46.26004" lon="7.31859"><ele>773.2</ele><time>2023-07-02T15:35:14Z</time></trkpt>
<trkpt lat="46.26014" lon="7.31869"><ele>773.8</ele><time>2023-07-02T15:35:19Z</time></trkpt>
<trkpt lat="46.26018" lon="7.31877"><ele>774.2</ele><time>2023-07-02T15:35:22Z</time></trkpt>
<trkpt lat="46.26026" lon="7.31891"><ele>775.4</ele><time>2023-07-02T15:35:27Z</time></trkpt>
<trkpt lat="46.26038" lon="7.31909"><ele>776</ele><time>2023-07-02T15:35:34Z</time></trkpt>
<trkpt lat="46.2604" lon="7.31911"><ele>776.2</ele><time>2023-07-02T15:35:35Z</time></trkpt>
<trkpt lat="46.26045" lon="7.31915"><ele>776.4</ele><time>2023-07-02T15:35:37Z</time></trkpt>
<trkpt lat="46.26057" lon="7.31919"><ele>776.8</ele><time>2023-07-02T15:35:41Z</time></trkpt>
<trkpt lat="46.26077" lon="7.31919"><ele>777.2</ele><time>2023-07-02T15:35:49Z</time></trkpt>
<trkpt lat="46.26082" lon="7.31918"><ele>777.6</ele><time>2023-07-02T15:35:51Z</time></trkpt>
<trkpt lat="46.26098" lon="7.31915"><ele>777.8</ele><time>2023-07-02T15:35:57Z</time></trkpt>
<trkpt lat="46.26118" lon="7.31913"><ele>778.8</ele><time>2023-07-02T15:36:05Z</time></trkpt>
<trkpt lat="46.26132" lon="7.31913"><ele>780</ele><time>2023-07-02T15:36:12Z</time></trkpt>
<trkpt lat="46.26135" lon="7.31914"><ele>780.2</ele><time>2023-07-02T15:36:14Z</time></trkpt>
<trkpt lat="46.26144" lon="7.31917"><ele>781</ele><time>2023-07-02T15:36:18Z</time></trkpt>
<trkpt lat="46.26152" lon="7.31918"><ele>781.6</ele><time>2023-07-02T15:36:22Z</time></trkpt>
<trkpt lat="46.26154" lon="7.3192"><ele>782</ele><time>2023-07-02T15:36:23Z</time></trkpt>
<trkpt lat="46.26162" lon="7.31922"><ele>782.8</ele><time>2023-07-02T15:36:28Z</time></trkpt>
<trkpt lat="46.26166" lon="7.31923"><ele>783.2</ele><time>2023-07-02T15:36:30Z</time></trkpt>
<trkpt lat="46.26177" lon="7.31926"><ele>784</ele><time>2023-07-02T15:36:36Z</time></trkpt>
<trkpt lat="46.2618" lon="7.31926"><ele>784.2</ele><time>2023-07-02T15:36:38Z</time></trkpt>
<trkpt lat="46.26192" lon="7.3193"><ele>785</ele><time>2023-07-02T15:36:44Z</time></trkpt>
<trkpt lat="46.26195" lon="7.31931"><ele>785.4</ele><time>2023-07-02T15:36:46Z</time></trkpt>
<trkpt lat="46.26203" lon="7.31934"><ele>786.2</ele><time>2023-07-02T15:36:51Z</time></trkpt>
<trkpt lat="46.26206" lon="7.31937"><ele>786.4</ele><time>2023-07-02T15:36:53Z</time></trkpt>
<trkpt lat="46.26212" lon="7.31941"><ele>787</ele><time>2023-07-02T15:36:57Z</time></trkpt>
<trkpt lat="46.26217" lon="7.31945"><ele>787.6</ele><time>2023-07-02T15:37:00Z</time></trkpt>
<trkpt lat="46.26225" lon="7.31952"><ele>788.2</ele><time>2023-07-02T15:37:06Z</time></trkpt>
<trkpt lat="46.26228" lon="7.31955"><ele>788.6</ele><time>2023-07-02T15:37:08Z</time></trkpt>
<trkpt lat="46.26237" lon="7.31961"><ele>789.2</ele><time>2023-07-02T15:37:14Z</time></trkpt>
<trkpt lat="46.26241" lon="7.31962"><ele>789.6</ele><time>2023-07-02T15:37:16Z</time></trkpt>
<trkpt lat="46.26249" lon="7.31966"><ele>790.2</ele><time>2023-07-02T15:37:21Z</time></trkpt>
<trkpt lat="46.26253" lon="7.31969"><ele>790.6</ele><time>2023-07-02T15:37:24Z</time></trkpt>
<trkpt lat="46.26259" lon="7.31974"><ele>791.2</ele><time>2023-07-02T15:37:28Z</time></trkpt>
<trkpt lat="46.26262" lon="7.31976"><ele>791.8</ele><time>2023-07-02T15:37:31Z</time></trkpt>
<trkpt lat="46.26268" lon="7.3198"><ele>792.4</ele><time>2023-07-02T15:37:36Z</time></trkpt>
<trkpt lat="46.26275" lon="7.31984"><ele>792.8</ele><time>2023-07-02T15:37:40Z</time></trkpt>
<trkpt lat="46.2628" lon="7.31987"><ele>793.2</ele><time>2023-07-02T15:37:43Z</time></trkpt>
<trkpt lat="46.2629" lon="7.31992"><ele>794</ele><time>2023-07-02T15:37:49Z</time></trkpt>
<trkpt lat="46.26298" lon="7.32003"><ele>794.6</ele><time>2023-07-02T15:37:56Z</time></trkpt>
<trkpt lat="46.26301" lon="7.3201"><ele>795.2</ele><time>2023-07-02T15:38:00Z</time></trkpt>
<trkpt lat="46.26302" lon="7.32011"><ele>795.4</ele><time>2023-07-02T15:38:01Z</time></trkpt>
<trkpt lat="46.2631" lon="7.32024"><ele>796.2</ele><time>2023-07-02T15:38:09Z</time></trkpt>
<trkpt lat="46.26319" lon="7.32032"><ele>797.2</ele><time>2023-07-02T15:38:16Z</time></trkpt>
<trkpt lat="46.2632" lon="7.32033"><ele>797.4</ele><time>2023-07-02T15:38:17Z</time></trkpt>
<trkpt lat="46.26326" lon="7.32036"><ele>798</ele><time>2023-07-02T15:38:22Z</time></trkpt>
<trkpt lat="46.2633" lon="7.32036"><ele>798.6</ele><time>2023-07-02T15:38:25Z</time></trkpt>
<trkpt lat="46.26333" lon="7.32036"><ele>798.8</ele><time>2023-07-02T15:38:28Z</time></trkpt>
<trkpt lat="46.26338" lon="7.32035"><ele>799.4</ele><time>2023-07-02T15:38:33Z</time></trkpt>
<trkpt lat="46.26341" lon="7.32034"><ele>799.6</ele><time>2023-07-02T15:38:35Z</time></trkpt>
<trkpt lat="46.26342" lon="7.32034"><ele>799.8</ele><time>2023-07-02T15:38:36Z</time></trkpt>
<trkpt lat="46.26349" lon="7.32032"><ele>800.6</ele><time>2023-07-02T15:38:43Z</time></trkpt>
<trkpt lat="46.2635" lon="7.32032"><ele>800.6</ele><time>2023-07-02T15:38:44Z</time></trkpt>
<trkpt lat="46.26351" lon="7.32033"><ele>800.8</ele><time>2023-07-02T15:38:45Z</time></trkpt>
<trkpt lat="46.26355" lon="7.32034"><ele>801.4</ele><time>2023-07-02T15:38:50Z</time></trkpt>
<trkpt lat="46.2636" lon="7.32035"><ele>802</ele><time>2023-07-02T15:38:55Z</time></trkpt>
<trkpt lat="46.26363" lon="7.32035"><ele>802.2</ele><time>2023-07-02T15:38:57Z</time></trkpt>
<trkpt lat="46.26369" lon="7.32037"><ele>803</ele><time>2023-07-02T15:39:02Z</time></trkpt>
<trkpt lat="46.2637" lon="7.32037"><ele>803</ele><time>2023-07-02T15:39:03Z</time></trkpt>
<trkpt lat="46.26376" lon="7.32037"><ele>803.8</ele><time>2023-07-02T15:39:09Z</time></trkpt>
<trkpt lat="46.26379" lon="7.32037"><ele>804</ele><time>2023-07-02T15:39:12Z</time></trkpt>
<trkpt lat="46.26383" lon="7.32036"><ele>804.4</ele><time>2023-07-02T15:39:16Z</time></trkpt>
<trkpt lat="46.26386" lon="7.32036"><ele>805</ele><time>2023-07-02T15:39:20Z</time></trkpt>
<trkpt lat="46.26389" lon="7.32036"><ele>805.4</ele><time>2023-07-02T15:39:22Z</time></trkpt>
<trkpt lat="46.26393" lon="7.32036"><ele>806</ele><time>2023-07-02T15:39:26Z</time></trkpt>
<trkpt lat="46.26397" lon="7.32035"><ele>806.6</ele><time>2023-07-02T15:39:30Z</time></trkpt>
<trkpt lat="46.26402" lon="7.32035"><ele>807.2</ele><time>2023-07-02T15:39:36Z</time></trkpt>
<trkpt lat="46.26403" lon="7.32036"><ele>807.4</ele><time>2023-07-02T15:39:37Z</time></trkpt>
<trkpt lat="46.2641" lon="7.32034"><ele>808</ele><time>2023-07-02T15:39:45Z</time></trkpt>
<trkpt lat="46.26412" lon="7.32034"><ele>808.2</ele><time>2023-07-02T15:39:47Z</time></trkpt>
<trkpt lat="46.26418" lon="7.32034"><ele>808.8</ele><time>2023-07-02T15:39:53Z</time></trkpt>
<trkpt lat="46.26422" lon="7.32037"><ele>809.4</ele><time>2023-07-02T15:39:57Z</time></trkpt>
<trkpt lat="46.26425" lon="7.32039"><ele>809.8</ele><time>2023-07-02T15:40:01Z</time></trkpt>
<trkpt lat="46.26429" lon="7.32043"><ele>810.6</ele><time>2023-07-02T15:40:06Z</time></trkpt>
<trkpt lat="46.26431" lon="7.32045"><ele>810.8</ele><time>2023-07-02T15:40:08Z</time></trkpt>
<trkpt lat="46.26435" lon="7.32048"><ele>811.6</ele><time>2023-07-02T15:40:14Z</time></trkpt>
<trkpt lat="46.26437" lon="7.3205"><ele>812</ele><time>2023-07-02T15:40:16Z</time></trkpt>
<trkpt lat="46.26441" lon="7.32054"><ele>812.6</ele><time>2023-07-02T15:40:21Z</time></trkpt>
<trkpt lat="46.26443" lon="7.32055"><ele>812.8</ele><time>2023-07-02T15:40:22Z</time></trkpt>
<trkpt lat="46.26449" lon="7.32061"><ele>813.4</ele><time>2023-07-02T15:40:28Z</time></trkpt>
<trkpt lat="46.2645" lon="7.32065"><ele>813.6</ele><time>2023-07-02T15:40:31Z</time></trkpt>
<trkpt lat="46.26452" lon="7.32066"><ele>814.2</ele><time>2023-07-02T15:40:35Z</time></trkpt>
<trkpt lat="46.26455" lon="7.32071"><ele>814.8</ele><time>2023-07-02T15:40:40Z</time></trkpt>
<trkpt lat="46.26457" lon="7.32074"><ele>815.2</ele><time>2023-07-02T15:40:43Z</time></trkpt>
<trkpt lat="46.26464" lon="7.3208"><ele>815.8</ele><time>2023-07-02T15:40:49Z</time></trkpt>
<trkpt lat="46.26469" lon="7.3208"><ele>816.4</ele><time>2023-07-02T15:40:54Z</time></trkpt>
<trkpt lat="46.26472" lon="7.32081"><ele>816.8</ele><time>2023-07-02T15:40:57Z</time></trkpt>
<trkpt lat="46.26476" lon="7.32083"><ele>817.8</ele><time>2023-07-02T15:41:02Z</time></trkpt>
<trkpt lat="46.26477" lon="7.32084"><ele>817.8</ele><time>2023-07-02T15:41:03Z</time></trkpt>
<trkpt lat="46.2648" lon="7.32086"><ele>818</ele><time>2023-07-02T15:41:06Z</time></trkpt>
<trkpt lat="46.26483" lon="7.32089"><ele>818.6</ele><time>2023-07-02T15:41:09Z</time></trkpt>
<trkpt lat="46.26486" lon="7.3209"><ele>819</ele><time>2023-07-02T15:41:13Z</time></trkpt>
<trkpt lat="46.26488" lon="7.32091"><ele>819.2</ele><time>2023-07-02T15:41:15Z</time></trkpt>
<trkpt lat="46.26495" lon="7.3209"><ele>820</ele><time>2023-07-02T15:41:21Z</time></trkpt>
<trkpt lat="46.26496" lon="7.3209"><ele>820.2</ele><time>2023-07-02T15:41:23Z</time></trkpt>
<trkpt lat="46.26504" lon="7.3209"><ele>821.2</ele><time>2023-07-02T15:41:31Z</time></trkpt>
<trkpt lat="46.26506" lon="7.32091"><ele>821.6</ele><time>2023-07-02T15:41:35Z</time></trkpt>
<trkpt lat="46.26509" lon="7.32094"><ele>822.2</ele><time>2023-07-02T15:41:39Z</time></trkpt>
<trkpt lat="46.26514" lon="7.32097"><ele>822.8</ele><time>2023-07-02T15:41:44Z</time></trkpt>
<trkpt lat="46.26515" lon="7.321"><ele>823</ele><time>2023-07-02T15:41:46Z</time></trkpt>
<trkpt lat="46.26516" lon="7.32104"><ele>823.2</ele><time>2023-07-02T15:41:48Z</time></trkpt>
<trkpt lat="46.26521" lon="7.32106"><ele>823.8</ele><time>2023-07-02T15:41:53Z</time></trkpt>
<trkpt lat="46.26525" lon="7.32107"><ele>824.4</ele><time>2023-07-02T15:41:57Z</time></trkpt>
<trkpt lat="46.26527" lon="7.32108"><ele>824.6</ele><time>2023-07-02T15:42:00Z</time></trkpt>
<trkpt lat="46.26534" lon="7.32112"><ele>825.4</ele><time>2023-07-02T15:42:06Z</time></trkpt>
<trkpt lat="46.26537" lon="7.32115"><ele>826</ele><time>2023-07-02T15:42:09Z</time></trkpt>
<trkpt lat="46.26539" lon="7.32117"><ele>826.6</ele><time>2023-07-02T15:42:11Z</time></trkpt>
<trkpt lat="46.26544" lon="7.32123"><ele>827.2</ele><time>2023-07-02T15:42:16Z</time></trkpt>
<trkpt lat="46.26546" lon="7.32125"><ele>827.6</ele><time>2023-07-02T15:42:18Z</time></trkpt>
<trkpt lat="46.2655" lon="7.3213"><ele>828.2</ele><time>2023-07-02T15:42:22Z</time></trkpt>
<trkpt lat="46.26552" lon="7.32133"><ele>828.6</ele><time>2023-07-02T15:42:24Z</time></trkpt>
<trkpt lat="46.26556" lon="7.32138"><ele>829.2</ele><time>2023-07-02T15:42:29Z</time></trkpt>
<trkpt lat="46.26557" lon="7.32141"><ele>829.8</ele><time>2023-07-02T15:42:32Z</time></trkpt>
<trkpt lat="46.26558" lon="7.32145"><ele>830.2</ele><time>2023-07-02T15:42:35Z</time></trkpt>
<trkpt lat="46.26559" lon="7.32152"><ele>830.8</ele><time>2023-07-02T15:42:40Z</time></trkpt>
<trkpt lat="46.2656" lon="7.32156"><ele>831.4</ele><time>2023-07-02T15:42:43Z</time></trkpt>
<trkpt lat="46.26563" lon="7.32162"><ele>832</ele><time>2023-07-02T15:42:48Z</time></trkpt>
<trkpt lat="46.26563" lon="7.32164"><ele>832.4</ele><time>2023-07-02T15:42:50Z</time></trkpt>
<trkpt lat="46.26564" lon="7.32165"><ele>832.4</ele><time>2023-07-02T15:42:51Z</time></trkpt>
<trkpt lat="46.26569" lon="7.32169"><ele>833</ele><time>2023-07-02T15:42:55Z</time></trkpt>
<trkpt lat="46.26576" lon="7.32173"><ele>833.8</ele><time>2023-07-02T15:43:02Z</time></trkpt>
<trkpt lat="46.26577" lon="7.32173"><ele>834</ele><time>2023-07-02T15:43:04Z</time></trkpt>
<trkpt lat="46.26582" lon="7.32169"><ele>834.8</ele><time>2023-07-02T15:43:09Z</time></trkpt>
<trkpt lat="46.26585" lon="7.32168"><ele>835.2</ele><time>2023-07-02T15:43:12Z</time></trkpt>
<trkpt lat="46.26588" lon="7.32166"><ele>835.6</ele><time>2023-07-02T15:43:16Z</time></trkpt>
<trkpt lat="46.26592" lon="7.32163"><ele>836.2</ele><time>2023-07-02T15:43:20Z</time></trkpt>
<trkpt lat="46.26596" lon="7.32161"><ele>836.8</ele><time>2023-07-02T15:43:24Z</time></trkpt>
<trkpt lat="46.26599" lon="7.32159"><ele>837.2</ele><time>2023-07-02T15:43:28Z</time></trkpt>
<trkpt lat="46.26603" lon="7.32159"><ele>837.8</ele><time>2023-07-02T15:43:31Z</time></trkpt>
<trkpt lat="46.26608" lon="7.32158"><ele>838.6</ele><time>2023-07-02T15:43:36Z</time></trkpt>
<trkpt lat="46.26612" lon="7.32159"><ele>839.2</ele><time>2023-07-02T15:43:40Z</time></trkpt>
<trkpt lat="46.26614" lon="7.32159"><ele>839.6</ele><time>2023-07-02T15:43:42Z</time></trkpt>
<trkpt lat="46.26622" lon="7.32163"><ele>840.8</ele><time>2023-07-02T15:43:48Z</time></trkpt>
<trkpt lat="46.26623" lon="7.32165"><ele>841</ele><time>2023-07-02T15:43:49Z</time></trkpt>
<trkpt lat="46.26629" lon="7.32168"><ele>841.8</ele><time>2023-07-02T15:43:54Z</time></trkpt>
<trkpt lat="46.26631" lon="7.32168"><ele>842.4</ele><time>2023-07-02T15:43:57Z</time></trkpt>
<trkpt lat="46.26637" lon="7.32168"><ele>843</ele><time>2023-07-02T15:44:01Z</time></trkpt>
<trkpt lat="46.2664" lon="7.32167"><ele>843.6</ele><time>2023-07-02T15:44:04Z</time></trkpt>
<trkpt lat="46.26644" lon="7.32165"><ele>844</ele><time>2023-07-02T15:44:08Z</time></trkpt>
<trkpt lat="46.26649" lon="7.32162"><ele>844.6</ele><time>2023-07-02T15:44:12Z</time></trkpt>
<trkpt lat="46.26652" lon="7.32161"><ele>845</ele><time>2023-07-02T15:44:15Z</time></trkpt>
<trkpt lat="46.26658" lon="7.32158"><ele>846.2</ele><time>2023-07-02T15:44:21Z</time></trkpt>
<trkpt lat="46.2666" lon="7.32157"><ele>846.4</ele><time>2023-07-02T15:44:22Z</time></trkpt>
<trkpt lat="46.26668" lon="7.32154"><ele>847.4</ele><time>2023-07-02T15:44:29Z</time></trkpt>
<trkpt lat="46.26672" lon="7.32154"><ele>848.2</ele><time>2023-07-02T15:44:34Z</time></trkpt>
<trkpt lat="46.26673" lon="7.32154"><ele>848.4</ele><time>2023-07-02T15:44:35Z</time></trkpt>
<trkpt lat="46.26675" lon="7.32155"><ele>848.6</ele><time>2023-07-02T15:44:36Z</time></trkpt>
<trkpt lat="46.26683" lon="7.32155"><ele>849.6</ele><time>2023-07-02T15:44:43Z</time></trkpt>
<trkpt lat="46.26685" lon="7.32155"><ele>849.8</ele><time>2023-07-02T15:44:45Z</time></trkpt>
<trkpt lat="46.26692" lon="7.32157"><ele>850.6</ele><time>2023-07-02T15:44:51Z</time></trkpt>
<trkpt lat="46.26695" lon="7.32158"><ele>851</ele><time>2023-07-02T15:44:54Z</time></trkpt>
<trkpt lat="46.26699" lon="7.32159"><ele>851.8</ele><time>2023-07-02T15:44:58Z</time></trkpt>
<trkpt lat="46.26703" lon="7.32161"><ele>852.4</ele><time>2023-07-02T15:45:01Z</time></trkpt>
<trkpt lat="46.26706" lon="7.32162"><ele>853</ele><time>2023-07-02T15:45:05Z</time></trkpt>
<trkpt lat="46.26709" lon="7.32165"><ele>853.4</ele><time>2023-07-02T15:45:08Z</time></trkpt>
<trkpt lat="46.26712" lon="7.32171"><ele>854</ele><time>2023-07-02T15:45:12Z</time></trkpt>
<trkpt lat="46.26713" lon="7.32172"><ele>854</ele><time>2023-07-02T15:45:13Z</time></trkpt>
<trkpt lat="46.26714" lon="7.32173"><ele>854</ele><time>2023-07-02T15:45:14Z</time></trkpt>
<trkpt lat="46.26721" lon="7.32177"><ele>855</ele><time>2023-07-02T15:45:19Z</time></trkpt>
<trkpt lat="46.26724" lon="7.32181"><ele>855.4</ele><time>2023-07-02T15:45:22Z</time></trkpt>
<trkpt lat="46.26727" lon="7.32186"><ele>856.2</ele><time>2023-07-02T15:45:26Z</time></trkpt>
<trkpt lat="46.2673" lon="7.32191"><ele>856.6</ele><time>2023-07-02T15:45:30Z</time></trkpt>
<trkpt lat="46.26732" lon="7.32196"><ele>857.2</ele><time>2023-07-02T15:45:33Z</time></trkpt>
<trkpt lat="46.26738" lon="7.32204"><ele>858</ele><time>2023-07-02T15:45:38Z</time></trkpt>
<trkpt lat="46.26739" lon="7.32205"><ele>858.2</ele><time>2023-07-02T15:45:39Z</time></trkpt>
<trkpt lat="46.26746" lon="7.32214"><ele>859</ele><time>2023-07-02T15:45:46Z</time></trkpt>
<trkpt lat="46.26747" lon="7.32215"><ele>859.2</ele><time>2023-07-02T15:45:47Z</time></trkpt>
<trkpt lat="46.2675" lon="7.32221"><ele>860</ele><time>2023-07-02T15:45:53Z</time></trkpt>
<trkpt lat="46.26753" lon="7.32224"><ele>860.4</ele><time>2023-07-02T15:45:56Z</time></trkpt>
<trkpt lat="46.26755" lon="7.32227"><ele>860.8</ele><time>2023-07-02T15:45:59Z</time></trkpt>
<trkpt lat="46.26761" lon="7.32233"><ele>861.4</ele><time>2023-07-02T15:46:04Z</time></trkpt>
<trkpt lat="46.26764" lon="7.32236"><ele>861.6</ele><time>2023-07-02T15:46:06Z</time></trkpt>
<trkpt lat="46.26772" lon="7.32244"><ele>862.8</ele><time>2023-07-02T15:46:12Z</time></trkpt>
<trkpt lat="46.26782" lon="7.32257"><ele>863.8</ele><time>2023-07-02T15:46:20Z</time></trkpt>
<trkpt lat="46.26783" lon="7.32259"><ele>864</ele><time>2023-07-02T15:46:21Z</time></trkpt>
<trkpt lat="46.26789" lon="7.32265"><ele>865</ele><time>2023-07-02T15:46:26Z</time></trkpt>
<trkpt lat="46.26793" lon="7.32267"><ele>865.4</ele><time>2023-07-02T15:46:29Z</time></trkpt>
<trkpt lat="46.26797" lon="7.3227"><ele>866</ele><time>2023-07-02T15:46:33Z</time></trkpt>
<trkpt lat="46.26802" lon="7.32272"><ele>866.4</ele><time>2023-07-02T15:46:37Z</time></trkpt>
<trkpt lat="46.2681" lon="7.32274"><ele>867.2</ele><time>2023-07-02T15:46:42Z</time></trkpt>
<trkpt lat="46.26813" lon="7.32276"><ele>867.6</ele><time>2023-07-02T15:46:45Z</time></trkpt>
<trkpt lat="46.2682" lon="7.32279"><ele>868.2</ele><time>2023-07-02T15:46:50Z</time></trkpt>
<trkpt lat="46.26821" lon="7.32279"><ele>868.2</ele><time>2023-07-02T15:46:51Z</time></trkpt>
<trkpt lat="46.2683" lon="7.32273"><ele>869.4</ele><time>2023-07-02T15:46:58Z</time></trkpt>
<trkpt lat="46.26838" lon="7.32275"><ele>870.6</ele><time>2023-07-02T15:47:05Z</time></trkpt>
<trkpt lat="46.2684" lon="7.32276"><ele>870.8</ele><time>2023-07-02T15:47:07Z</time></trkpt>
<trkpt lat="46.26847" lon="7.3228"><ele>871.6</ele><time>2023-07-02T15:47:13Z</time></trkpt>
<trkpt lat="46.26849" lon="7.32285"><ele>872</ele><time>2023-07-02T15:47:16Z</time></trkpt>
<trkpt lat="46.26853" lon="7.32302"><ele>872.6</ele><time>2023-07-02T15:47:23Z</time></trkpt>
<trkpt lat="46.26855" lon="7.32306"><ele>872.6</ele><time>2023-07-02T15:47:25Z</time></trkpt>
<trkpt lat="46.26865" lon="7.32318"><ele>873.6</ele><time>2023-07-02T15:47:31Z</time></trkpt>
<trkpt lat="46.26866" lon="7.3232"><ele>873.6</ele><time>2023-07-02T15:47:32Z</time></trkpt>
<trkpt lat="46.26876" lon="7.32331"><ele>874.6</ele><time>2023-07-02T15:47:39Z</time></trkpt>
<trkpt lat="46.26878" lon="7.32334"><ele>874.8</ele><time>2023-07-02T15:47:41Z</time></trkpt>
<trkpt lat="46.26882" lon="7.32343"><ele>875.8</ele><time>2023-07-02T15:47:46Z</time></trkpt>
<trkpt lat="46.26884" lon="7.32347"><ele>876</ele><time>2023-07-02T15:47:48Z</time></trkpt>
<trkpt lat="46.26888" lon="7.32354"><ele>876.8</ele><time>2023-07-02T15:47:54Z</time></trkpt>
<trkpt lat="46.26888" lon="7.32355"><ele>877</ele><time>2023-07-02T15:47:55Z</time></trkpt>
<trkpt lat="46.26892" lon="7.32361"><ele>877.4</ele><time>2023-07-02T15:48:01Z</time></trkpt>
<trkpt lat="46.26893" lon="7.32364"><ele>878</ele><time>2023-07-02T15:48:04Z</time></trkpt>
<trkpt lat="46.26897" lon="7.3237"><ele>879</ele><time>2023-07-02T15:48:08Z</time></trkpt>
<trkpt lat="46.26899" lon="7.32373"><ele>879.2</ele><time>2023-07-02T15:48:10Z</time></trkpt>
<trkpt lat="46.26902" lon="7.32376"><ele>879.6</ele><time>2023-07-02T15:48:13Z</time></trkpt>
<trkpt lat="46.26906" lon="7.32379"><ele>879.8</ele><time>2023-07-02T15:48:16Z</time></trkpt>
<trkpt lat="46.26908" lon="7.3238"><ele>880.2</ele><time>2023-07-02T15:48:18Z</time></trkpt>
<trkpt lat="46.26913" lon="7.32383"><ele>881.4</ele><time>2023-07-02T15:48:23Z</time></trkpt>
<trkpt lat="46.26915" lon="7.32383"><ele>881.4</ele><time>2023-07-02T15:48:24Z</time></trkpt>
<trkpt lat="46.26923" lon="7.32387"><ele>882.2</ele><time>2023-07-02T15:48:31Z</time></trkpt>
<trkpt lat="46.26924" lon="7.32388"><ele>882.6</ele><time>2023-07-02T15:48:33Z</time></trkpt>
<trkpt lat="46.26929" lon="7.32388"><ele>883</ele><time>2023-07-02T15:48:37Z</time></trkpt>
<trkpt lat="46.26932" lon="7.32388"><ele>883.6</ele><time>2023-07-02T15:48:41Z</time></trkpt>
<trkpt lat="46.26933" lon="7.32387"><ele>883.8</ele><time>2023-07-02T15:48:42Z</time></trkpt>
<trkpt lat="46.26942" lon="7.32385"><ele>884.8</ele><time>2023-07-02T15:48:49Z</time></trkpt>
<trkpt lat="46.2695" lon="7.32383"><ele>885.4</ele><time>2023-07-02T15:48:56Z</time></trkpt>
<trkpt lat="46.26953" lon="7.32381"><ele>885.8</ele><time>2023-07-02T15:48:59Z</time></trkpt>
<trkpt lat="46.26958" lon="7.32381"><ele>886</ele><time>2023-07-02T15:49:03Z</time></trkpt>
<trkpt lat="46.26962" lon="7.32382"><ele>886.8</ele><time>2023-07-02T15:49:07Z</time></trkpt>
<trkpt lat="46.26965" lon="7.32382"><ele>887.4</ele><time>2023-07-02T15:49:10Z</time></trkpt>
<trkpt lat="46.26969" lon="7.32382"><ele>887.8</ele><time>2023-07-02T15:49:14Z</time></trkpt>
<trkpt lat="46.26973" lon="7.32381"><ele>888.4</ele><time>2023-07-02T15:49:17Z</time></trkpt>
<trkpt lat="46.26976" lon="7.32381"><ele>889</ele><time>2023-07-02T15:49:20Z</time></trkpt>
<trkpt lat="46.26977" lon="7.32383"><ele>889.2</ele><time>2023-07-02T15:49:21Z</time></trkpt>
<trkpt lat="46.26979" lon="7.32384"><ele>889.8</ele><time>2023-07-02T15:49:23Z</time></trkpt>
<trkpt lat="46.2698" lon="7.32385"><ele>890.2</ele><time>2023-07-02T15:49:24Z</time></trkpt>
<trkpt lat="46.26987" lon="7.32388"><ele>891</ele><time>2023-07-02T15:49:29Z</time></trkpt>
<trkpt lat="46.26989" lon="7.32388"><ele>891.2</ele><time>2023-07-02T15:49:31Z</time></trkpt>
<trkpt lat="46.26993" lon="7.32387"><ele>891.6</ele><time>2023-07-02T15:49:34Z</time></trkpt>
<trkpt lat="46.26999" lon="7.32388"><ele>891.8</ele><time>2023-07-02T15:49:38Z</time></trkpt>
<trkpt lat="46.27004" lon="7.32388"><ele>892.2</ele><time>2023-07-02T15:49:41Z</time></trkpt>
<trkpt lat="46.27005" lon="7.32388"><ele>892.4</ele><time>2023-07-02T15:49:42Z</time></trkpt>
<trkpt lat="46.27013" lon="7.32384"><ele>892.6</ele><time>2023-07-02T15:49:47Z</time></trkpt>
<trkpt lat="46.2702" lon="7.32373"><ele>893</ele><time>2023-07-02T15:49:53Z</time></trkpt>
<trkpt lat="46.27022" lon="7.32364"><ele>893.4</ele><time>2023-07-02T15:49:57Z</time></trkpt>
<trkpt lat="46.27024" lon="7.3236"><ele>893.4</ele><time>2023-07-02T15:49:59Z</time></trkpt>
<trkpt lat="46.27027" lon="7.32349"><ele>894.2</ele><time>2023-07-02T15:50:04Z</time></trkpt>
<trkpt lat="46.27027" lon="7.32347"><ele>894.4</ele><time>2023-07-02T15:50:05Z</time></trkpt>
<trkpt lat="46.27027" lon="7.32341"><ele>894.4</ele><time>2023-07-02T15:50:07Z</time></trkpt>
<trkpt lat="46.27029" lon="7.32325"><ele>895.2</ele><time>2023-07-02T15:50:14Z</time></trkpt>
<trkpt lat="46.27031" lon="7.32319"><ele>895.6</ele><time>2023-07-02T15:50:17Z</time></trkpt>
<trkpt lat="46.27035" lon="7.32305"><ele>896.4</ele><time>2023-07-02T15:50:23Z</time></trkpt>
<trkpt lat="46.27037" lon="7.323"><ele>896.8</ele><time>2023-07-02T15:50:25Z</time></trkpt>
<trkpt lat="46.27042" lon="7.32289"><ele>897.8</ele><time>2023-07-02T15:50:31Z</time></trkpt>
<trkpt lat="46.27043" lon="7.32287"><ele>898</ele><time>2023-07-02T15:50:32Z</time></trkpt>
<trkpt lat="46.27049" lon="7.32277"><ele>899</ele><time>2023-07-02T15:50:38Z</time></trkpt>
<trkpt lat="46.27051" lon="7.32274"><ele>899.2</ele><time>2023-07-02T15:50:40Z</time></trkpt>
<trkpt lat="46.27057" lon="7.32266"><ele>900</ele><time>2023-07-02T15:50:45Z</time></trkpt>
<trkpt lat="46.27058" lon="7.32265"><ele>900.2</ele><time>2023-07-02T15:50:46Z</time></trkpt>
<trkpt lat="46.27066" lon="7.32258"><ele>901.2</ele><time>2023-07-02T15:50:52Z</time></trkpt>
<trkpt lat="46.27067" lon="7.32258"><ele>901.2</ele><time>2023-07-02T15:50:53Z</time></trkpt>
<trkpt lat="46.27077" lon="7.32251"><ele>902.2</ele><time>2023-07-02T15:51:00Z</time></trkpt>
<trkpt lat="46.27078" lon="7.3225"><ele>902.2</ele><time>2023-07-02T15:51:01Z</time></trkpt>
<trkpt lat="46.27086" lon="7.32235"><ele>903.2</ele><time>2023-07-02T15:51:10Z</time></trkpt>
<trkpt lat="46.27087" lon="7.32233"><ele>903.2</ele><time>2023-07-02T15:51:11Z</time></trkpt>
<trkpt lat="46.27088" lon="7.32223"><ele>904</ele><time>2023-07-02T15:51:16Z</time></trkpt>
<trkpt lat="46.27088" lon="7.32223"><ele>904.4</ele><time>2023-07-02T15:51:18Z</time></trkpt>
<trkpt lat="46.27088" lon="7.32224"><ele>904.6</ele><time>2023-07-02T15:51:21Z</time></trkpt>
<trkpt lat="46.27088" lon="7.32222"><ele>904.4</ele><time>2023-07-02T15:51:29Z</time></trkpt>
<trkpt lat="46.27087" lon="7.32221"><ele>904.8</ele><time>2023-07-02T15:51:32Z</time></trkpt>
<trkpt lat="46.27085" lon="7.32216"><ele>904.8</ele><time>2023-07-02T15:51:36Z</time></trkpt>
<trkpt lat="46.27081" lon="7.32203"><ele>905</ele><time>2023-07-02T15:51:42Z</time></trkpt>
<trkpt lat="46.27081" lon="7.32203"><ele>905</ele><time>2023-07-02T15:51:42Z</time></trkpt>
<trkpt lat="46.27081" lon="7.32203"><ele>905</ele><time>2023-07-02T15:51:42Z</time></trkpt>
<trkpt lat="46.27081" lon="7.32203"><ele>905</ele><time>2023-07-02T15:51:42Z</time></trkpt>
<trkpt lat="46.27081" lon="7.32203"><ele>905</ele><time>2023-07-02T15:51:42Z</time></trkpt>
<trkpt lat="46.27081" lon="7.32203"><ele>905</ele><time>2023-07-02T15:51:42Z</time></trkpt>
<trkpt lat="46.27047" lon="7.32125"><ele>910</ele><time>2023-07-02T15:52:18Z</time></trkpt>
<trkpt lat="46.27046" lon="7.32123"><ele>910.4</ele><time>2023-07-02T15:52:20Z</time></trkpt>
<trkpt lat="46.27042" lon="7.32111"><ele>910.8</ele><time>2023-07-02T15:52:25Z</time></trkpt>
<trkpt lat="46.2704" lon="7.32108"><ele>910.8</ele><time>2023-07-02T15:52:26Z</time></trkpt>
<trkpt lat="46.2704" lon="7.32108"><ele>910.8</ele><time>2023-07-02T15:52:26Z</time></trkpt>
<trkpt lat="46.2704" lon="7.32108"><ele>910.8</ele><time>2023-07-02T15:52:26Z</time></trkpt>
<trkpt lat="46.27024" lon="7.32092"><ele>913.2</ele><time>2023-07-02T15:52:42Z</time></trkpt>
<trkpt lat="46.27023" lon="7.32088"><ele>913.4</ele><time>2023-07-02T15:52:43Z</time></trkpt>
<trkpt lat="46.27019" lon="7.32078"><ele>914</ele><time>2023-07-02T15:52:47Z</time></trkpt>
<trkpt lat="46.27018" lon="7.32077"><ele>914.2</ele><time>2023-07-02T15:52:48Z</time></trkpt>
<trkpt lat="46.27009" lon="7.32072"><ele>915.2</ele><time>2023-07-02T15:52:54Z</time></trkpt>
<trkpt lat="46.27007" lon="7.32071"><ele>915.2</ele><time>2023-07-02T15:52:55Z</time></trkpt>
<trkpt lat="46.26995" lon="7.32071"><ele>915.8</ele><time>2023-07-02T15:53:02Z</time></trkpt>
<trkpt lat="46.26991" lon="7.32069"><ele>916.2</ele><time>2023-07-02T15:53:04Z</time></trkpt>
<trkpt lat="46.26986" lon="7.32069"><ele>916.4</ele><time>2023-07-02T15:53:07Z</time></trkpt>
<trkpt lat="46.26976" lon="7.32069"><ele>917.2</ele><time>2023-07-02T15:53:13Z</time></trkpt>
<trkpt lat="46.26971" lon="7.32068"><ele>917.6</ele><time>2023-07-02T15:53:16Z</time></trkpt>
<trkpt lat="46.26963" lon="7.32066"><ele>918.2</ele><time>2023-07-02T15:53:21Z</time></trkpt>
<trkpt lat="46.26956" lon="7.32062"><ele>919.2</ele><time>2023-07-02T15:53:26Z</time></trkpt>
<trkpt lat="46.26952" lon="7.32059"><ele>919.6</ele><time>2023-07-02T15:53:29Z</time></trkpt>
<trkpt lat="46.26944" lon="7.32053"><ele>920.2</ele><time>2023-07-02T15:53:34Z</time></trkpt>
<trkpt lat="46.26941" lon="7.3205"><ele>920.6</ele><time>2023-07-02T15:53:36Z</time></trkpt>
<trkpt lat="46.26932" lon="7.32039"><ele>921.6</ele><time>2023-07-02T15:53:43Z</time></trkpt>
<trkpt lat="46.26932" lon="7.32037"><ele>921.8</ele><time>2023-07-02T15:53:44Z</time></trkpt>
<trkpt lat="46.26925" lon="7.32026"><ele>922.8</ele><time>2023-07-02T15:53:51Z</time></trkpt>
<trkpt lat="46.26925" lon="7.32024"><ele>923</ele><time>2023-07-02T15:53:52Z</time></trkpt>
<trkpt lat="46.2692" lon="7.32016"><ele>923.4</ele><time>2023-07-02T15:53:57Z</time></trkpt>
<trkpt lat="46.26916" lon="7.32011"><ele>924</ele><time>2023-07-02T15:54:00Z</time></trkpt>
<trkpt lat="46.26911" lon="7.32006"><ele>924.6</ele><time>2023-07-02T15:54:04Z</time></trkpt>
<trkpt lat="46.26906" lon="7.32001"><ele>925</ele><time>2023-07-02T15:54:08Z</time></trkpt>
<trkpt lat="46.269" lon="7.31996"><ele>925.6</ele><time>2023-07-02T15:54:12Z</time></trkpt>
<trkpt lat="46.26896" lon="7.31992"><ele>926</ele><time>2023-07-02T15:54:15Z</time></trkpt>
<trkpt lat="46.26891" lon="7.31987"><ele>926.6</ele><time>2023-07-02T15:54:19Z</time></trkpt>
<trkpt lat="46.26886" lon="7.31983"><ele>927.2</ele><time>2023-07-02T15:54:22Z</time></trkpt>
<trkpt lat="46.2688" lon="7.31976"><ele>927.8</ele><time>2023-07-02T15:54:27Z</time></trkpt>
<trkpt lat="46.26876" lon="7.3197"><ele>928.4</ele><time>2023-07-02T15:54:30Z</time></trkpt>
<trkpt lat="46.26869" lon="7.31958"><ele>929.4</ele><time>2023-07-02T15:54:36Z</time></trkpt>
<trkpt lat="46.26869" lon="7.31956"><ele>929.6</ele><time>2023-07-02T15:54:37Z</time></trkpt>
<trkpt lat="46.26864" lon="7.31945"><ele>930.6</ele><time>2023-07-02T15:54:42Z</time></trkpt>
<trkpt lat="46.26862" lon="7.3194"><ele>930.8</ele><time>2023-07-02T15:54:44Z</time></trkpt>
<trkpt lat="46.26857" lon="7.3193"><ele>931.6</ele><time>2023-07-02T15:54:49Z</time></trkpt>
<trkpt lat="46.26855" lon="7.31927"><ele>931.8</ele><time>2023-07-02T15:54:51Z</time></trkpt>
<trkpt lat="46.26849" lon="7.31915"><ele>932.6</ele><time>2023-07-02T15:54:58Z</time></trkpt>
<trkpt lat="46.26847" lon="7.31914"><ele>932.8</ele><time>2023-07-02T15:54:59Z</time></trkpt>
<trkpt lat="46.26839" lon="7.31905"><ele>933.8</ele><time>2023-07-02T15:55:07Z</time></trkpt>
<trkpt lat="46.26828" lon="7.31895"><ele>934.6</ele><time>2023-07-02T15:55:15Z</time></trkpt>
<trkpt lat="46.26827" lon="7.31893"><ele>934.8</ele><time>2023-07-02T15:55:16Z</time></trkpt>
<trkpt lat="46.2682" lon="7.31885"><ele>935.6</ele><time>2023-07-02T15:55:21Z</time></trkpt>
<trkpt lat="46.26818" lon="7.31883"><ele>935.8</ele><time>2023-07-02T15:55:23Z</time></trkpt>
<trkpt lat="46.26816" lon="7.31877"><ele>936</ele><time>2023-07-02T15:55:26Z</time></trkpt>
<trkpt lat="46.26817" lon="7.31874"><ele>936</ele><time>2023-07-02T15:55:27Z</time></trkpt>
<trkpt lat="46.26821" lon="7.3187"><ele>936.6</ele><time>2023-07-02T15:55:30Z</time></trkpt>
<trkpt lat="46.26824" lon="7.31871"><ele>936.8</ele><time>2023-07-02T15:55:32Z</time></trkpt>
<trkpt lat="46.26828" lon="7.31874"><ele>937.4</ele><time>2023-07-02T15:55:35Z</time></trkpt>
<trkpt lat="46.26835" lon="7.31882"><ele>938</ele><time>2023-07-02T15:55:40Z</time></trkpt>
<trkpt lat="46.26841" lon="7.31889"><ele>938.6</ele><time>2023-07-02T15:55:45Z</time></trkpt>
<trkpt lat="46.26843" lon="7.31892"><ele>939</ele><time>2023-07-02T15:55:47Z</time></trkpt>
<trkpt lat="46.2685" lon="7.319"><ele>939.6</ele><time>2023-07-02T15:55:52Z</time></trkpt>
<trkpt lat="46.26853" lon="7.31905"><ele>940</ele><time>2023-07-02T15:55:55Z</time></trkpt>
<trkpt lat="46.26862" lon="7.31916"><ele>941.2</ele><time>2023-07-02T15:56:02Z</time></trkpt>
<trkpt lat="46.26864" lon="7.31917"><ele>941.4</ele><time>2023-07-02T15:56:04Z</time></trkpt>
<trkpt lat="46.26873" lon="7.31925"><ele>942.2</ele><time>2023-07-02T15:56:11Z</time></trkpt>
<trkpt lat="46.26876" lon="7.31927"><ele>942.4</ele><time>2023-07-02T15:56:13Z</time></trkpt>
<trkpt lat="46.26884" lon="7.31932"><ele>943.2</ele><time>2023-07-02T15:56:19Z</time></trkpt>
<trkpt lat="46.26888" lon="7.31935"><ele>943.8</ele><time>2023-07-02T15:56:23Z</time></trkpt>
<trkpt lat="46.26894" lon="7.31937"><ele>944.2</ele><time>2023-07-02T15:56:27Z</time></trkpt>
<trkpt lat="46.269" lon="7.31942"><ele>945</ele><time>2023-07-02T15:56:32Z</time></trkpt>
<trkpt lat="46.26903" lon="7.31943"><ele>945.2</ele><time>2023-07-02T15:56:34Z</time></trkpt>
<trkpt lat="46.2691" lon="7.31948"><ele>945.8</ele><time>2023-07-02T15:56:40Z</time></trkpt>
<trkpt lat="46.26915" lon="7.31951"><ele>946.4</ele><time>2023-07-02T15:56:44Z</time></trkpt>
<trkpt lat="46.26922" lon="7.31953"><ele>947</ele><time>2023-07-02T15:56:49Z</time></trkpt>
<trkpt lat="46.26927" lon="7.31956"><ele>947.4</ele><time>2023-07-02T15:56:52Z</time></trkpt>
<trkpt lat="46.26934" lon="7.31959"><ele>948.2</ele><time>2023-07-02T15:56:57Z</time></trkpt>
<trkpt lat="46.26938" lon="7.3196"><ele>948.6</ele><time>2023-07-02T15:57:00Z</time></trkpt>
<trkpt lat="46.26943" lon="7.31962"><ele>949.2</ele><time>2023-07-02T15:57:04Z</time></trkpt>
<trkpt lat="46.26948" lon="7.31964"><ele>949.6</ele><time>2023-07-02T15:57:07Z</time></trkpt>
<trkpt lat="46.26959" lon="7.31966"><ele>950.4</ele><time>2023-07-02T15:57:13Z</time></trkpt>
<trkpt lat="46.2696" lon="7.31966"><ele>950.6</ele><time>2023-07-02T15:57:14Z</time></trkpt>
<trkpt lat="46.26971" lon="7.31964"><ele>951.6</ele><time>2023-07-02T15:57:21Z</time></trkpt>
<trkpt lat="46.26973" lon="7.31963"><ele>951.8</ele><time>2023-07-02T15:57:22Z</time></trkpt>
<trkpt lat="46.26983" lon="7.3196"><ele>952.8</ele><time>2023-07-02T15:57:29Z</time></trkpt>
<trkpt lat="46.26985" lon="7.31961"><ele>953</ele><time>2023-07-02T15:57:30Z</time></trkpt>
<trkpt lat="46.26992" lon="7.31961"><ele>953.4</ele><time>2023-07-02T15:57:35Z</time></trkpt>
<trkpt lat="46.26997" lon="7.31961"><ele>954</ele><time>2023-07-02T15:57:38Z</time></trkpt>
<trkpt lat="46.27004" lon="7.31963"><ele>954.6</ele><time>2023-07-02T15:57:43Z</time></trkpt>
<trkpt lat="46.27009" lon="7.31965"><ele>955</ele><time>2023-07-02T15:57:46Z</time></trkpt>
<trkpt lat="46.27018" lon="7.31973"><ele>955.8</ele><time>2023-07-02T15:57:52Z</time></trkpt>
<trkpt lat="46.27019" lon="7.31975"><ele>956</ele><time>2023-07-02T15:57:53Z</time></trkpt>
<trkpt lat="46.27027" lon="7.31984"><ele>956.8</ele><time>2023-07-02T15:58:00Z</time></trkpt>
<trkpt lat="46.27028" lon="7.31985"><ele>957</ele><time>2023-07-02T15:58:01Z</time></trkpt>
<trkpt lat="46.27039" lon="7.31994"><ele>958.2</ele><time>2023-07-02T15:58:09Z</time></trkpt>
<trkpt lat="46.27041" lon="7.31995"><ele>958.2</ele><time>2023-07-02T15:58:10Z</time></trkpt>
<trkpt lat="46.2705" lon="7.32002"><ele>959.2</ele><time>2023-07-02T15:58:17Z</time></trkpt>
<trkpt lat="46.27063" lon="7.32006"><ele>960.2</ele><time>2023-07-02T15:58:25Z</time></trkpt>
<trkpt lat="46.27064" lon="7.32006"><ele>960.4</ele><time>2023-07-02T15:58:26Z</time></trkpt>
<trkpt lat="46.27074" lon="7.32009"><ele>961.2</ele><time>2023-07-02T15:58:33Z</time></trkpt>
<trkpt lat="46.27077" lon="7.3201"><ele>961.4</ele><time>2023-07-02T15:58:35Z</time></trkpt>
<trkpt lat="46.27086" lon="7.32013"><ele>962.2</ele><time>2023-07-02T15:58:41Z</time></trkpt>
<trkpt lat="46.27089" lon="7.32014"><ele>962.6</ele><time>2023-07-02T15:58:43Z</time></trkpt>
<trkpt lat="46.27098" lon="7.32017"><ele>963.4</ele><time>2023-07-02T15:58:49Z</time></trkpt>
<trkpt lat="46.27101" lon="7.32019"><ele>963.6</ele><time>2023-07-02T15:58:51Z</time></trkpt>
<trkpt lat="46.27113" lon="7.32022"><ele>964.6</ele><time>2023-07-02T15:58:59Z</time></trkpt>
<trkpt lat="46.27125" lon="7.32026"><ele>965.8</ele><time>2023-07-02T15:59:07Z</time></trkpt>
<trkpt lat="46.27126" lon="7.32027"><ele>966</ele><time>2023-07-02T15:59:08Z</time></trkpt>
<trkpt lat="46.27134" lon="7.32029"><ele>966.8</ele><time>2023-07-02T15:59:15Z</time></trkpt>
<trkpt lat="46.27135" lon="7.32029"><ele>966.8</ele><time>2023-07-02T15:59:16Z</time></trkpt>
<trkpt lat="46.27144" lon="7.32028"><ele>967.6</ele><time>2023-07-02T15:59:22Z</time></trkpt>
<trkpt lat="46.27148" lon="7.32025"><ele>967.8</ele><time>2023-07-02T15:59:26Z</time></trkpt>
<trkpt lat="46.27149" lon="7.32024"><ele>968</ele><time>2023-07-02T15:59:27Z</time></trkpt>
<trkpt lat="46.27158" lon="7.32017"><ele>968.4</ele><time>2023-07-02T15:59:34Z</time></trkpt>
<trkpt lat="46.27167" lon="7.32014"><ele>969</ele><time>2023-07-02T15:59:40Z</time></trkpt>
<trkpt lat="46.27168" lon="7.32014"><ele>969</ele><time>2023-07-02T15:59:41Z</time></trkpt>
<trkpt lat="46.27178" lon="7.32016"><ele>970.2</ele><time>2023-07-02T15:59:47Z</time></trkpt>
<trkpt lat="46.27181" lon="7.32018"><ele>970.2</ele><time>2023-07-02T15:59:49Z</time></trkpt>
<trkpt lat="46.27189" lon="7.32022"><ele>971.2</ele><time>2023-07-02T15:59:54Z</time></trkpt>
<trkpt lat="46.27195" lon="7.32027"><ele>972</ele><time>2023-07-02T15:59:58Z</time></trkpt>
<trkpt lat="46.27197" lon="7.32028"><ele>972.2</ele><time>2023-07-02T15:59:59Z</time></trkpt>
<trkpt lat="46.27207" lon="7.32036"><ele>973.2</ele><time>2023-07-02T16:00:05Z</time></trkpt>
<trkpt lat="46.2721" lon="7.32039"><ele>973.4</ele><time>2023-07-02T16:00:07Z</time></trkpt>
<trkpt lat="46.27217" lon="7.32049"><ele>974.2</ele><time>2023-07-02T16:00:13Z</time></trkpt>
<trkpt lat="46.27219" lon="7.32053"><ele>974.6</ele><time>2023-07-02T16:00:15Z</time></trkpt>
<trkpt lat="46.27226" lon="7.3206"><ele>975.4</ele><time>2023-07-02T16:00:19Z</time></trkpt>
<trkpt lat="46.27233" lon="7.32067"><ele>976.2</ele><time>2023-07-02T16:00:24Z</time></trkpt>
<trkpt lat="46.27234" lon="7.32068"><ele>976.4</ele><time>2023-07-02T16:00:25Z</time></trkpt>
<trkpt lat="46.27244" lon="7.32075"><ele>977.2</ele><time>2023-07-02T16:00:32Z</time></trkpt>
<trkpt lat="46.27248" lon="7.32078"><ele>977.6</ele><time>2023-07-02T16:00:35Z</time></trkpt>
<trkpt lat="46.27259" lon="7.32087"><ele>978.8</ele><time>2023-07-02T16:00:43Z</time></trkpt>
<trkpt lat="46.27269" lon="7.32094"><ele>979.8</ele><time>2023-07-02T16:00:51Z</time></trkpt>
<trkpt lat="46.27278" lon="7.321"><ele>980.6</ele><time>2023-07-02T16:00:58Z</time></trkpt>
<trkpt lat="46.2728" lon="7.32102"><ele>981</ele><time>2023-07-02T16:01:00Z</time></trkpt>
<trkpt lat="46.27287" lon="7.32108"><ele>981.8</ele><time>2023-07-02T16:01:05Z</time></trkpt>
<trkpt lat="46.2729" lon="7.32111"><ele>982</ele><time>2023-07-02T16:01:07Z</time></trkpt>
<trkpt lat="46.273" lon="7.32121"><ele>983.2</ele><time>2023-07-02T16:01:13Z</time></trkpt>
<trkpt lat="46.27302" lon="7.32123"><ele>983.2</ele><time>2023-07-02T16:01:14Z</time></trkpt>
<trkpt lat="46.27308" lon="7.32127"><ele>984.2</ele><time>2023-07-02T16:01:18Z</time></trkpt>
<trkpt lat="46.27314" lon="7.32133"><ele>985</ele><time>2023-07-02T16:01:23Z</time></trkpt>
<trkpt lat="46.27317" lon="7.32137"><ele>985.2</ele><time>2023-07-02T16:01:25Z</time></trkpt>
<trkpt lat="46.27323" lon="7.32145"><ele>986</ele><time>2023-07-02T16:01:30Z</time></trkpt>
<trkpt lat="46.27327" lon="7.32151"><ele>986.4</ele><time>2023-07-02T16:01:33Z</time></trkpt>
<trkpt lat="46.27333" lon="7.32159"><ele>987</ele><time>2023-07-02T16:01:38Z</time></trkpt>
<trkpt lat="46.27335" lon="7.32161"><ele>987.4</ele><time>2023-07-02T16:01:40Z</time></trkpt>
<trkpt lat="46.27338" lon="7.32167"><ele>988</ele><time>2023-07-02T16:01:44Z</time></trkpt>
<trkpt lat="46.27341" lon="7.32172"><ele>988.4</ele><time>2023-07-02T16:01:47Z</time></trkpt>
<trkpt lat="46.27343" lon="7.32178"><ele>988.8</ele><time>2023-07-02T16:01:50Z</time></trkpt>
<trkpt lat="46.27345" lon="7.32178"><ele>989</ele><time>2023-07-02T16:01:51Z</time></trkpt>
<trkpt lat="46.27348" lon="7.32185"><ele>989.6</ele><time>2023-07-02T16:01:55Z</time></trkpt>
<trkpt lat="46.27356" lon="7.32198"><ele>990.6</ele><time>2023-07-02T16:02:03Z</time></trkpt>
<trkpt lat="46.27362" lon="7.3221"><ele>991.4</ele><time>2023-07-02T16:02:10Z</time></trkpt>
<trkpt lat="46.27364" lon="7.32215"><ele>991.8</ele><time>2023-07-02T16:02:13Z</time></trkpt>
<trkpt lat="46.27366" lon="7.32217"><ele>991.8</ele><time>2023-07-02T16:02:15Z</time></trkpt>
<trkpt lat="46.27368" lon="7.32228"><ele>992.4</ele><time>2023-07-02T16:02:21Z</time></trkpt>
<trkpt lat="46.27369" lon="7.32234"><ele>992.8</ele><time>2023-07-02T16:02:24Z</time></trkpt>
<trkpt lat="46.27369" lon="7.32238"><ele>993.2</ele><time>2023-07-02T16:02:27Z</time></trkpt>
<trkpt lat="46.2737" lon="7.32246"><ele>993.8</ele><time>2023-07-02T16:02:32Z</time></trkpt>
<trkpt lat="46.27371" lon="7.32254"><ele>994.6</ele><time>2023-07-02T16:02:36Z</time></trkpt>
<trkpt lat="46.27373" lon="7.32261"><ele>994.8</ele><time>2023-07-02T16:02:39Z</time></trkpt>
<trkpt lat="46.27374" lon="7.32264"><ele>995</ele><time>2023-07-02T16:02:40Z</time></trkpt>
<trkpt lat="46.27379" lon="7.32276"><ele>996</ele><time>2023-07-02T16:02:45Z</time></trkpt>
<trkpt lat="46.2738" lon="7.32278"><ele>996.2</ele><time>2023-07-02T16:02:46Z</time></trkpt>
<trkpt lat="46.27385" lon="7.32287"><ele>996.6</ele><time>2023-07-02T16:02:50Z</time></trkpt>
<trkpt lat="46.27388" lon="7.3229"><ele>997</ele><time>2023-07-02T16:02:52Z</time></trkpt>
<trkpt lat="46.27392" lon="7.32294"><ele>997.2</ele><time>2023-07-02T16:02:54Z</time></trkpt>
<trkpt lat="46.27404" lon="7.32293"><ele>997.8</ele><time>2023-07-02T16:02:59Z</time></trkpt>
<trkpt lat="46.27405" lon="7.32288"><ele>998</ele><time>2023-07-02T16:03:01Z</time></trkpt>
<trkpt lat="46.27405" lon="7.32283"><ele>998.2</ele><time>2023-07-02T16:03:03Z</time></trkpt>
<trkpt lat="46.27405" lon="7.32281"><ele>998.4</ele><time>2023-07-02T16:03:04Z</time></trkpt>
<trkpt lat="46.27402" lon="7.32272"><ele>999.2</ele><time>2023-07-02T16:03:09Z</time></trkpt>
<trkpt lat="46.274" lon="7.32268"><ele>999.4</ele><time>2023-07-02T16:03:11Z</time></trkpt>
<trkpt lat="46.27394" lon="7.32255"><ele>999.8</ele><time>2023-07-02T16:03:17Z</time></trkpt>
<trkpt lat="46.27391" lon="7.32247"><ele>1000.4</ele><time>2023-07-02T16:03:21Z</time></trkpt>
<trkpt lat="46.2739" lon="7.32243"><ele>1000.6</ele><time>2023-07-02T16:03:23Z</time></trkpt>
<trkpt lat="46.27387" lon="7.32231"><ele>1001.4</ele><time>2023-07-02T16:03:29Z</time></trkpt>
<trkpt lat="46.27387" lon="7.32228"><ele>1001.4</ele><time>2023-07-02T16:03:30Z</time></trkpt>
<trkpt lat="46.27385" lon="7.32218"><ele>1002.4</ele><time>2023-07-02T16:03:35Z</time></trkpt>
<trkpt lat="46.27385" lon="7.32215"><ele>1002.6</ele><time>2023-07-02T16:03:36Z</time></trkpt>
<trkpt lat="46.27384" lon="7.32199"><ele>1003.4</ele><time>2023-07-02T16:03:43Z</time></trkpt>
<trkpt lat="46.27383" lon="7.32196"><ele>1003.8</ele><time>2023-07-02T16:03:44Z</time></trkpt>
<trkpt lat="46.27381" lon="7.32184"><ele>1004.6</ele><time>2023-07-02T16:03:48Z</time></trkpt>
<trkpt lat="46.2738" lon="7.32181"><ele>1004.8</ele><time>2023-07-02T16:03:49Z</time></trkpt>
<trkpt lat="46.27373" lon="7.32167"><ele>1005.8</ele><time>2023-07-02T16:03:56Z</time></trkpt>
<trkpt lat="46.27369" lon="7.3216"><ele>1006.4</ele><time>2023-07-02T16:03:59Z</time></trkpt>
<trkpt lat="46.27366" lon="7.32154"><ele>1006.8</ele><time>2023-07-02T16:04:02Z</time></trkpt>
<trkpt lat="46.27361" lon="7.32142"><ele>1007.6</ele><time>2023-07-02T16:04:08Z</time></trkpt>
<trkpt lat="46.27359" lon="7.32137"><ele>1008</ele><time>2023-07-02T16:04:10Z</time></trkpt>
<trkpt lat="46.27352" lon="7.32123"><ele>1009.2</ele><time>2023-07-02T16:04:17Z</time></trkpt>
<trkpt lat="46.27343" lon="7.32106"><ele>1010.4</ele><time>2023-07-02T16:04:24Z</time></trkpt>
<trkpt lat="46.27341" lon="7.32101"><ele>1010.8</ele><time>2023-07-02T16:04:26Z</time></trkpt>
<trkpt lat="46.27335" lon="7.32092"><ele>1011.4</ele><time>2023-07-02T16:04:30Z</time></trkpt>
<trkpt lat="46.27331" lon="7.32086"><ele>1011.8</ele><time>2023-07-02T16:04:33Z</time></trkpt>
<trkpt lat="46.27328" lon="7.32081"><ele>1012.4</ele><time>2023-07-02T16:04:35Z</time></trkpt>
<trkpt lat="46.27318" lon="7.32065"><ele>1013.8</ele><time>2023-07-02T16:04:42Z</time></trkpt>
<trkpt lat="46.27317" lon="7.32063"><ele>1014</ele><time>2023-07-02T16:04:43Z</time></trkpt>
<trkpt lat="46.27308" lon="7.32053"><ele>1014.8</ele><time>2023-07-02T16:04:48Z</time></trkpt>
<trkpt lat="46.27302" lon="7.32045"><ele>1015.8</ele><time>2023-07-02T16:04:52Z</time></trkpt>
<trkpt lat="46.27301" lon="7.32043"><ele>1016</ele><time>2023-07-02T16:04:53Z</time></trkpt>
<trkpt lat="46.27292" lon="7.32032"><ele>1017.2</ele><time>2023-07-02T16:04:59Z</time></trkpt>
<trkpt lat="46.27288" lon="7.32028"><ele>1017.2</ele><time>2023-07-02T16:05:01Z</time></trkpt>
<trkpt lat="46.2728" lon="7.32016"><ele>1018.2</ele><time>2023-07-02T16:05:06Z</time></trkpt>
<trkpt lat="46.27273" lon="7.32007"><ele>1018.6</ele><time>2023-07-02T16:05:10Z</time></trkpt>
<trkpt lat="46.2727" lon="7.32003"><ele>1019.2</ele><time>2023-07-02T16:05:12Z</time></trkpt>
<trkpt lat="46.27262" lon="7.31989"><ele>1020.2</ele><time>2023-07-02T16:05:17Z</time></trkpt>
<trkpt lat="46.27257" lon="7.31981"><ele>1020.8</ele><time>2023-07-02T16:05:20Z</time></trkpt>
<trkpt lat="46.27252" lon="7.31973"><ele>1021.4</ele><time>2023-07-02T16:05:23Z</time></trkpt>
<trkpt lat="46.27243" lon="7.3196"><ele>1022.6</ele><time>2023-07-02T16:05:28Z</time></trkpt>
<trkpt lat="46.27241" lon="7.31958"><ele>1022.6</ele><time>2023-07-02T16:05:29Z</time></trkpt>
<trkpt lat="46.27231" lon="7.31943"><ele>1023.6</ele><time>2023-07-02T16:05:35Z</time></trkpt>
<trkpt lat="46.27223" lon="7.31937"><ele>1024.2</ele><time>2023-07-02T16:05:39Z</time></trkpt>
<trkpt lat="46.27221" lon="7.31936"><ele>1024.6</ele><time>2023-07-02T16:05:40Z</time></trkpt>
<trkpt lat="46.27211" lon="7.31932"><ele>1025.8</ele><time>2023-07-02T16:05:45Z</time></trkpt>
<trkpt lat="46.27206" lon="7.31931"><ele>1026.4</ele><time>2023-07-02T16:05:48Z</time></trkpt>
<trkpt lat="46.27202" lon="7.31929"><ele>1027</ele><time>2023-07-02T16:05:52Z</time></trkpt>
<trkpt lat="46.27201" lon="7.31928"><ele>1027</ele><time>2023-07-02T16:05:53Z</time></trkpt>
<trkpt lat="46.272" lon="7.31927"><ele>1027</ele><time>2023-07-02T16:05:54Z</time></trkpt>
<trkpt lat="46.27195" lon="7.31918"><ele>1027.4</ele><time>2023-07-02T16:06:00Z</time></trkpt>
<trkpt lat="46.27182" lon="7.31911"><ele>1026.8</ele><time>2023-07-02T16:06:04Z</time></trkpt>
<trkpt lat="46.27177" lon="7.3191"><ele>1026.6</ele><time>2023-07-02T16:06:05Z</time></trkpt>
<trkpt lat="46.27163" lon="7.31901"><ele>1025.6</ele><time>2023-07-02T16:06:08Z</time></trkpt>
<trkpt lat="46.27151" lon="7.31892"><ele>1025.2</ele><time>2023-07-02T16:06:10Z</time></trkpt>
<trkpt lat="46.27132" lon="7.31878"><ele>1024.2</ele><time>2023-07-02T16:06:13Z</time></trkpt>
<trkpt lat="46.27117" lon="7.31867"><ele>1022.6</ele><time>2023-07-02T16:06:15Z</time></trkpt>
<trkpt lat="46.27109" lon="7.31862"><ele>1022</ele><time>2023-07-02T16:06:16Z</time></trkpt>
<trkpt lat="46.27094" lon="7.31849"><ele>1020.8</ele><time>2023-07-02T16:06:18Z</time></trkpt>
<trkpt lat="46.27078" lon="7.31832"><ele>1020</ele><time>2023-07-02T16:06:20Z</time></trkpt>
<trkpt lat="46.2707" lon="7.31823"><ele>1019.2</ele><time>2023-07-02T16:06:21Z</time></trkpt>
<trkpt lat="46.27063" lon="7.31813"><ele>1017.8</ele><time>2023-07-02T16:06:22Z</time></trkpt>
<trkpt lat="46.27056" lon="7.31801"><ele>1015.8</ele><time>2023-07-02T16:06:23Z</time></trkpt>
<trkpt lat="46.2704" lon="7.31781"><ele>1014.8</ele><time>2023-07-02T16:06:25Z</time></trkpt>
<trkpt lat="46.27031" lon="7.31772"><ele>1014.4</ele><time>2023-07-02T16:06:26Z</time></trkpt>
<trkpt lat="46.27021" lon="7.31766"><ele>1014</ele><time>2023-07-02T16:06:27Z</time></trkpt>
<trkpt lat="46.27009" lon="7.31762"><ele>1013</ele><time>2023-07-02T16:06:28Z</time></trkpt>
<trkpt lat="46.26998" lon="7.31761"><ele>1012.4</ele><time>2023-07-02T16:06:29Z</time></trkpt>
<trkpt lat="46.26986" lon="7.31763"><ele>1011.4</ele><time>2023-07-02T16:06:30Z</time></trkpt>
<trkpt lat="46.26975" lon="7.31768"><ele>1010</ele><time>2023-07-02T16:06:31Z</time></trkpt>
<trkpt lat="46.26965" lon="7.31777"><ele>1008.8</ele><time>2023-07-02T16:06:32Z</time></trkpt>
<trkpt lat="46.26955" lon="7.31787"><ele>1008.2</ele><time>2023-07-02T16:06:33Z</time></trkpt>
<trkpt lat="46.26945" lon="7.31797"><ele>1007.8</ele><time>2023-07-02T16:06:34Z</time></trkpt>
<trkpt lat="46.26933" lon="7.31803"><ele>1007.4</ele><time>2023-07-02T16:06:35Z</time></trkpt>
<trkpt lat="46.26922" lon="7.31808"><ele>1005.8</ele><time>2023-07-02T16:06:36Z</time></trkpt>
<trkpt lat="46.26909" lon="7.31807"><ele>1005</ele><time>2023-07-02T16:06:37Z</time></trkpt>
<trkpt lat="46.26898" lon="7.318"><ele>1004.4</ele><time>2023-07-02T16:06:38Z</time></trkpt>
<trkpt lat="46.26887" lon="7.31792"><ele>1003.2</ele><time>2023-07-02T16:06:39Z</time></trkpt>
<trkpt lat="46.26877" lon="7.31781"><ele>1002</ele><time>2023-07-02T16:06:40Z</time></trkpt>
<trkpt lat="46.26869" lon="7.31767"><ele>1001.2</ele><time>2023-07-02T16:06:41Z</time></trkpt>
<trkpt lat="46.26859" lon="7.31755"><ele>999.4</ele><time>2023-07-02T16:06:42Z</time></trkpt>
<trkpt lat="46.26839" lon="7.31732"><ele>997.8</ele><time>2023-07-02T16:06:44Z</time></trkpt>
<trkpt lat="46.26829" lon="7.3172"><ele>996.4</ele><time>2023-07-02T16:06:45Z</time></trkpt>
<trkpt lat="46.26819" lon="7.31707"><ele>994</ele><time>2023-07-02T16:06:46Z</time></trkpt>
<trkpt lat="46.26811" lon="7.31692"><ele>992.4</ele><time>2023-07-02T16:06:47Z</time></trkpt>
<trkpt lat="46.26804" lon="7.31676"><ele>991</ele><time>2023-07-02T16:06:48Z</time></trkpt>
<trkpt lat="46.26798" lon="7.31658"><ele>989.2</ele><time>2023-07-02T16:06:49Z</time></trkpt>
<trkpt lat="46.26794" lon="7.31638"><ele>988.8</ele><time>2023-07-02T16:06:50Z</time></trkpt>
<trkpt lat="46.26796" lon="7.316"><ele>987.4</ele><time>2023-07-02T16:06:52Z</time></trkpt>
<trkpt lat="46.26806" lon="7.31565"><ele>985.8</ele><time>2023-07-02T16:06:54Z</time></trkpt>
<trkpt lat="46.26813" lon="7.31549"><ele>985.4</ele><time>2023-07-02T16:06:55Z</time></trkpt>
<trkpt lat="46.26831" lon="7.31523"><ele>983.6</ele><time>2023-07-02T16:06:57Z</time></trkpt>
<trkpt lat="46.26853" lon="7.31501"><ele>981.6</ele><time>2023-07-02T16:06:59Z</time></trkpt>
<trkpt lat="46.26872" lon="7.31473"><ele>979.8</ele><time>2023-07-02T16:07:01Z</time></trkpt>
<trkpt lat="46.2688" lon="7.31435"><ele>978.6</ele><time>2023-07-02T16:07:03Z</time></trkpt>
<trkpt lat="46.26884" lon="7.31396"><ele>976</ele><time>2023-07-02T16:07:05Z</time></trkpt>
<trkpt lat="46.26889" lon="7.31378"><ele>973.2</ele><time>2023-07-02T16:07:06Z</time></trkpt>
<trkpt lat="46.26893" lon="7.31359"><ele>971</ele><time>2023-07-02T16:07:07Z</time></trkpt>
<trkpt lat="46.26897" lon="7.3134"><ele>969.8</ele><time>2023-07-02T16:07:08Z</time></trkpt>
<trkpt lat="46.26897" lon="7.31323"><ele>969.4</ele><time>2023-07-02T16:07:09Z</time></trkpt>
<trkpt lat="46.26895" lon="7.31303"><ele>967.6</ele><time>2023-07-02T16:07:10Z</time></trkpt>
<trkpt lat="46.26887" lon="7.31287"><ele>965.8</ele><time>2023-07-02T16:07:11Z</time></trkpt>
<trkpt lat="46.26877" lon="7.31277"><ele>965</ele><time>2023-07-02T16:07:12Z</time></trkpt>
<trkpt lat="46.26866" lon="7.31273"><ele>964.4</ele><time>2023-07-02T16:07:13Z</time></trkpt>
<trkpt lat="46.26855" lon="7.31273"><ele>964</ele><time>2023-07-02T16:07:14Z</time></trkpt>
<trkpt lat="46.26844" lon="7.31276"><ele>963.4</ele><time>2023-07-02T16:07:15Z</time></trkpt>
<trkpt lat="46.26827" lon="7.31286"><ele>963.4</ele><time>2023-07-02T16:07:17Z</time></trkpt>
<trkpt lat="46.26814" lon="7.313"><ele>964.6</ele><time>2023-07-02T16:07:19Z</time></trkpt>
<trkpt lat="46.26809" lon="7.31307"><ele>965</ele><time>2023-07-02T16:07:20Z</time></trkpt>
<trkpt lat="46.26804" lon="7.31313"><ele>965.8</ele><time>2023-07-02T16:07:21Z</time></trkpt>
<trkpt lat="46.26796" lon="7.31323"><ele>967</ele><time>2023-07-02T16:07:23Z</time></trkpt>
<trkpt lat="46.26792" lon="7.31327"><ele>967.4</ele><time>2023-07-02T16:07:24Z</time></trkpt>
<trkpt lat="46.26786" lon="7.31334"><ele>968</ele><time>2023-07-02T16:07:26Z</time></trkpt>
<trkpt lat="46.26779" lon="7.31341"><ele>969</ele><time>2023-07-02T16:07:29Z</time></trkpt>
<trkpt lat="46.26777" lon="7.31343"><ele>969.2</ele><time>2023-07-02T16:07:30Z</time></trkpt>
<trkpt lat="46.26768" lon="7.31356"><ele>969.8</ele><time>2023-07-02T16:07:35Z</time></trkpt>
<trkpt lat="46.26763" lon="7.31363"><ele>970.2</ele><time>2023-07-02T16:07:38Z</time></trkpt>
<trkpt lat="46.26753" lon="7.31377"><ele>971</ele><time>2023-07-02T16:07:43Z</time></trkpt>
<trkpt lat="46.26749" lon="7.31383"><ele>971.2</ele><time>2023-07-02T16:07:45Z</time></trkpt>
<trkpt lat="46.2674" lon="7.31395"><ele>972.4</ele><time>2023-07-02T16:07:50Z</time></trkpt>
<trkpt lat="46.26732" lon="7.31405"><ele>973</ele><time>2023-07-02T16:07:54Z</time></trkpt>
<trkpt lat="46.26728" lon="7.31412"><ele>973.6</ele><time>2023-07-02T16:07:56Z</time></trkpt>
<trkpt lat="46.26723" lon="7.31428"><ele>974.6</ele><time>2023-07-02T16:08:00Z</time></trkpt>
<trkpt lat="46.2672" lon="7.3144"><ele>975.4</ele><time>2023-07-02T16:08:03Z</time></trkpt>
<trkpt lat="46.26719" lon="7.31444"><ele>975.8</ele><time>2023-07-02T16:08:04Z</time></trkpt>
<trkpt lat="46.26716" lon="7.31467"><ele>977</ele><time>2023-07-02T16:08:10Z</time></trkpt>
<trkpt lat="46.26715" lon="7.31478"><ele>977.2</ele><time>2023-07-02T16:08:13Z</time></trkpt>
<trkpt lat="46.26712" lon="7.31493"><ele>978</ele><time>2023-07-02T16:08:18Z</time></trkpt>
<trkpt lat="46.2671" lon="7.31502"><ele>978.6</ele><time>2023-07-02T16:08:21Z</time></trkpt>
<trkpt lat="46.26706" lon="7.31514"><ele>979.2</ele><time>2023-07-02T16:08:25Z</time></trkpt>
<trkpt lat="46.267" lon="7.31523"><ele>979.6</ele><time>2023-07-02T16:08:28Z</time></trkpt>
<trkpt lat="46.2668" lon="7.3153"><ele>980</ele><time>2023-07-02T16:08:33Z</time></trkpt>
<trkpt lat="46.26659" lon="7.3152"><ele>980.4</ele><time>2023-07-02T16:08:38Z</time></trkpt>
<trkpt lat="46.2663" lon="7.31505"><ele>980.2</ele><time>2023-07-02T16:08:44Z</time></trkpt>
<trkpt lat="46.26607" lon="7.31501"><ele>980.2</ele><time>2023-07-02T16:08:48Z</time></trkpt>
<trkpt lat="46.26595" lon="7.31503"><ele>980</ele><time>2023-07-02T16:08:50Z</time></trkpt>
<trkpt lat="46.26574" lon="7.31505"><ele>979.2</ele><time>2023-07-02T16:08:53Z</time></trkpt>
<trkpt lat="46.26554" lon="7.31503"><ele>978.4</ele><time>2023-07-02T16:08:56Z</time></trkpt>
<trkpt lat="46.26533" lon="7.31502"><ele>978.2</ele><time>2023-07-02T16:08:59Z</time></trkpt>
<trkpt lat="46.26503" lon="7.31504"><ele>977.4</ele><time>2023-07-02T16:09:03Z</time></trkpt>
<trkpt lat="46.2648" lon="7.31505"><ele>977</ele><time>2023-07-02T16:09:06Z</time></trkpt>
<trkpt lat="46.26458" lon="7.31507"><ele>975.8</ele><time>2023-07-02T16:09:09Z</time></trkpt>
<trkpt lat="46.26451" lon="7.31502"><ele>975.4</ele><time>2023-07-02T16:09:10Z</time></trkpt>
<trkpt lat="46.26446" lon="7.31493"><ele>975</ele><time>2023-07-02T16:09:11Z</time></trkpt>
<trkpt lat="46.26443" lon="7.31482"><ele>974.8</ele><time>2023-07-02T16:09:12Z</time></trkpt>
<trkpt lat="46.26436" lon="7.31458"><ele>973.8</ele><time>2023-07-02T16:09:14Z</time></trkpt>
<trkpt lat="46.26425" lon="7.31435"><ele>973</ele><time>2023-07-02T16:09:16Z</time></trkpt>
<trkpt lat="46.26418" lon="7.31426"><ele>972.4</ele><time>2023-07-02T16:09:17Z</time></trkpt>
<trkpt lat="46.26395" lon="7.31399"><ele>970.2</ele><time>2023-07-02T16:09:20Z</time></trkpt>
<trkpt lat="46.26364" lon="7.31367"><ele>969.2</ele><time>2023-07-02T16:09:24Z</time></trkpt>
<trkpt lat="46.2635" lon="7.31353"><ele>968.8</ele><time>2023-07-02T16:09:26Z</time></trkpt>
<trkpt lat="46.26343" lon="7.31346"><ele>968.4</ele><time>2023-07-02T16:09:27Z</time></trkpt>
<trkpt lat="46.26308" lon="7.31311"><ele>967.6</ele><time>2023-07-02T16:09:32Z</time></trkpt>
<trkpt lat="46.26283" lon="7.31285"><ele>967.2</ele><time>2023-07-02T16:09:36Z</time></trkpt>
<trkpt lat="46.26254" lon="7.3124"><ele>967.6</ele><time>2023-07-02T16:09:42Z</time></trkpt>
<trkpt lat="46.26237" lon="7.31212"><ele>968.4</ele><time>2023-07-02T16:09:46Z</time></trkpt>
<trkpt lat="46.26229" lon="7.31198"><ele>968.8</ele><time>2023-07-02T16:09:48Z</time></trkpt>
<trkpt lat="46.26215" lon="7.31179"><ele>969.2</ele><time>2023-07-02T16:09:51Z</time></trkpt>
<trkpt lat="46.26172" lon="7.31134"><ele>969</ele><time>2023-07-02T16:09:59Z</time></trkpt>
<trkpt lat="46.26133" lon="7.31091"><ele>968.8</ele><time>2023-07-02T16:10:06Z</time></trkpt>
<trkpt lat="46.26114" lon="7.3106"><ele>968.4</ele><time>2023-07-02T16:10:10Z</time></trkpt>
<trkpt lat="46.26107" lon="7.31056"><ele>968.2</ele><time>2023-07-02T16:10:11Z</time></trkpt>
<trkpt lat="46.26101" lon="7.31052"><ele>968.2</ele><time>2023-07-02T16:10:12Z</time></trkpt>
<trkpt lat="46.26082" lon="7.31047"><ele>968</ele><time>2023-07-02T16:10:15Z</time></trkpt>
<trkpt lat="46.26044" lon="7.31036"><ele>968.2</ele><time>2023-07-02T16:10:22Z</time></trkpt>
<trkpt lat="46.26011" lon="7.31025"><ele>969.2</ele><time>2023-07-02T16:10:28Z</time></trkpt>
<trkpt lat="46.25982" lon="7.31024"><ele>969.4</ele><time>2023-07-02T16:10:33Z</time></trkpt>
<trkpt lat="46.25952" lon="7.31033"><ele>969.6</ele><time>2023-07-02T16:10:39Z</time></trkpt>
<trkpt lat="46.25947" lon="7.31032"><ele>970</ele><time>2023-07-02T16:10:40Z</time></trkpt>
<trkpt lat="46.25943" lon="7.3103"><ele>970.2</ele><time>2023-07-02T16:10:41Z</time></trkpt>
<trkpt lat="46.25933" lon="7.31025"><ele>970.2</ele><time>2023-07-02T16:10:43Z</time></trkpt>
<trkpt lat="46.25923" lon="7.31017"><ele>970.2</ele><time>2023-07-02T16:10:45Z</time></trkpt>
<trkpt lat="46.25914" lon="7.31005"><ele>968.8</ele><time>2023-07-02T16:10:47Z</time></trkpt>
<trkpt lat="46.25893" lon="7.30988"><ele>967</ele><time>2023-07-02T16:10:50Z</time></trkpt>
<trkpt lat="46.25885" lon="7.30982"><ele>966.2</ele><time>2023-07-02T16:10:51Z</time></trkpt>
<trkpt lat="46.25878" lon="7.30973"><ele>965.8</ele><time>2023-07-02T16:10:52Z</time></trkpt>
<trkpt lat="46.25867" lon="7.30953"><ele>964.8</ele><time>2023-07-02T16:10:54Z</time></trkpt>
<trkpt lat="46.25859" lon="7.30931"><ele>963.6</ele><time>2023-07-02T16:10:56Z</time></trkpt>
<trkpt lat="46.25856" lon="7.30918"><ele>962.8</ele><time>2023-07-02T16:10:57Z</time></trkpt>
<trkpt lat="46.25853" lon="7.30906"><ele>961.8</ele><time>2023-07-02T16:10:58Z</time></trkpt>
<trkpt lat="46.25847" lon="7.30866"><ele>960.8</ele><time>2023-07-02T16:11:01Z</time></trkpt>
<trkpt lat="46.25841" lon="7.30838"><ele>960</ele><time>2023-07-02T16:11:03Z</time></trkpt>
<trkpt lat="46.25836" lon="7.30825"><ele>959.4</ele><time>2023-07-02T16:11:04Z</time></trkpt>
<trkpt lat="46.2583" lon="7.30814"><ele>959</ele><time>2023-07-02T16:11:05Z</time></trkpt>
<trkpt lat="46.25824" lon="7.30802"><ele>957.6</ele><time>2023-07-02T16:11:06Z</time></trkpt>
<trkpt lat="46.25818" lon="7.3079"><ele>956.6</ele><time>2023-07-02T16:11:07Z</time></trkpt>
<trkpt lat="46.25813" lon="7.30778"><ele>956.4</ele><time>2023-07-02T16:11:08Z</time></trkpt>
<trkpt lat="46.25809" lon="7.30764"><ele>956</ele><time>2023-07-02T16:11:09Z</time></trkpt>
<trkpt lat="46.25805" lon="7.30735"><ele>955.4</ele><time>2023-07-02T16:11:11Z</time></trkpt>
<trkpt lat="46.258" lon="7.30708"><ele>954.8</ele><time>2023-07-02T16:11:13Z</time></trkpt>
<trkpt lat="46.25792" lon="7.30698"><ele>953.2</ele><time>2023-07-02T16:11:14Z</time></trkpt>
<trkpt lat="46.25782" lon="7.30692"><ele>952.8</ele><time>2023-07-02T16:11:15Z</time></trkpt>
<trkpt lat="46.25772" lon="7.30691"><ele>952.4</ele><time>2023-07-02T16:11:16Z</time></trkpt>
<trkpt lat="46.25762" lon="7.30691"><ele>951.8</ele><time>2023-07-02T16:11:17Z</time></trkpt>
<trkpt lat="46.25742" lon="7.30685"><ele>950.4</ele><time>2023-07-02T16:11:19Z</time></trkpt>
<trkpt lat="46.25734" lon="7.30679"><ele>950</ele><time>2023-07-02T16:11:20Z</time></trkpt>
<trkpt lat="46.25726" lon="7.30672"><ele>949.8</ele><time>2023-07-02T16:11:21Z</time></trkpt>
<trkpt lat="46.25711" lon="7.30654"><ele>948.8</ele><time>2023-07-02T16:11:23Z</time></trkpt>
<trkpt lat="46.25704" lon="7.30645"><ele>948.6</ele><time>2023-07-02T16:11:24Z</time></trkpt>
<trkpt lat="46.25696" lon="7.30636"><ele>947.8</ele><time>2023-07-02T16:11:25Z</time></trkpt>
<trkpt lat="46.2568" lon="7.30623"><ele>946.6</ele><time>2023-07-02T16:11:27Z</time></trkpt>
<trkpt lat="46.25671" lon="7.30618"><ele>946</ele><time>2023-07-02T16:11:28Z</time></trkpt>
<trkpt lat="46.25662" lon="7.30614"><ele>945.2</ele><time>2023-07-02T16:11:29Z</time></trkpt>
<trkpt lat="46.25646" lon="7.30601"><ele>944.2</ele><time>2023-07-02T16:11:31Z</time></trkpt>
<trkpt lat="46.2564" lon="7.30592"><ele>943.8</ele><time>2023-07-02T16:11:32Z</time></trkpt>
<trkpt lat="46.25635" lon="7.30582"><ele>943.6</ele><time>2023-07-02T16:11:33Z</time></trkpt>
<trkpt lat="46.25625" lon="7.30572"><ele>942</ele><time>2023-07-02T16:11:35Z</time></trkpt>
<trkpt lat="46.25618" lon="7.30581"><ele>941</ele><time>2023-07-02T16:11:37Z</time></trkpt>
<trkpt lat="46.25624" lon="7.30594"><ele>940</ele><time>2023-07-02T16:11:39Z</time></trkpt>
<trkpt lat="46.25632" lon="7.30606"><ele>940</ele><time>2023-07-02T16:11:41Z</time></trkpt>
<trkpt lat="46.25646" lon="7.30629"><ele>939.4</ele><time>2023-07-02T16:11:44Z</time></trkpt>
<trkpt lat="46.25652" lon="7.30636"><ele>938.4</ele><time>2023-07-02T16:11:45Z</time></trkpt>
<trkpt lat="46.25666" lon="7.30652"><ele>936.8</ele><time>2023-07-02T16:11:47Z</time></trkpt>
<trkpt lat="46.25673" lon="7.30661"><ele>936.2</ele><time>2023-07-02T16:11:48Z</time></trkpt>
<trkpt lat="46.2568" lon="7.3067"><ele>935.2</ele><time>2023-07-02T16:11:49Z</time></trkpt>
<trkpt lat="46.25693" lon="7.30691"><ele>934.2</ele><time>2023-07-02T16:11:51Z</time></trkpt>
<trkpt lat="46.25708" lon="7.30712"><ele>933.6</ele><time>2023-07-02T16:11:53Z</time></trkpt>
<trkpt lat="46.25717" lon="7.30721"><ele>932.4</ele><time>2023-07-02T16:11:54Z</time></trkpt>
<trkpt lat="46.25737" lon="7.30735"><ele>931.2</ele><time>2023-07-02T16:11:56Z</time></trkpt>
<trkpt lat="46.25755" lon="7.30745"><ele>929.8</ele><time>2023-07-02T16:11:58Z</time></trkpt>
<trkpt lat="46.25759" lon="7.30753"><ele>929.4</ele><time>2023-07-02T16:11:59Z</time></trkpt>
<trkpt lat="46.25759" lon="7.3076"><ele>929.2</ele><time>2023-07-02T16:12:00Z</time></trkpt>
<trkpt lat="46.25754" lon="7.30764"><ele>928.8</ele><time>2023-07-02T16:12:01Z</time></trkpt>
<trkpt lat="46.25749" lon="7.30762"><ele>928.8</ele><time>2023-07-02T16:12:02Z</time></trkpt>
<trkpt lat="46.25743" lon="7.30758"><ele>928.6</ele><time>2023-07-02T16:12:03Z</time></trkpt>
<trkpt lat="46.25739" lon="7.30753"><ele>928.4</ele><time>2023-07-02T16:12:04Z</time></trkpt>
<trkpt lat="46.25726" lon="7.30744"><ele>927.4</ele><time>2023-07-02T16:12:06Z</time></trkpt>
<trkpt lat="46.25719" lon="7.30742"><ele>926.8</ele><time>2023-07-02T16:12:07Z</time></trkpt>
<trkpt lat="46.25711" lon="7.3074"><ele>925.8</ele><time>2023-07-02T16:12:08Z</time></trkpt>
<trkpt lat="46.25692" lon="7.30738"><ele>924.4</ele><time>2023-07-02T16:12:10Z</time></trkpt>
<trkpt lat="46.25682" lon="7.30734"><ele>923</ele><time>2023-07-02T16:12:11Z</time></trkpt>
<trkpt lat="46.25662" lon="7.30726"><ele>921</ele><time>2023-07-02T16:12:13Z</time></trkpt>
<trkpt lat="46.2564" lon="7.30718"><ele>919.4</ele><time>2023-07-02T16:12:15Z</time></trkpt>
<trkpt lat="46.25628" lon="7.30718"><ele>918.6</ele><time>2023-07-02T16:12:16Z</time></trkpt>
<trkpt lat="46.25617" lon="7.3072"><ele>917.8</ele><time>2023-07-02T16:12:17Z</time></trkpt>
<trkpt lat="46.25606" lon="7.30724"><ele>916.2</ele><time>2023-07-02T16:12:18Z</time></trkpt>
<trkpt lat="46.25595" lon="7.30728"><ele>916</ele><time>2023-07-02T16:12:19Z</time></trkpt>
<trkpt lat="46.25575" lon="7.30734"><ele>914.6</ele><time>2023-07-02T16:12:21Z</time></trkpt>
<trkpt lat="46.25566" lon="7.30736"><ele>913.4</ele><time>2023-07-02T16:12:22Z</time></trkpt>
<trkpt lat="46.25557" lon="7.30735"><ele>911.8</ele><time>2023-07-02T16:12:23Z</time></trkpt>
<trkpt lat="46.2555" lon="7.30731"><ele>911.2</ele><time>2023-07-02T16:12:24Z</time></trkpt>
<trkpt lat="46.25543" lon="7.30725"><ele>910.2</ele><time>2023-07-02T16:12:25Z</time></trkpt>
<trkpt lat="46.25538" lon="7.30718"><ele>909.8</ele><time>2023-07-02T16:12:26Z</time></trkpt>
<trkpt lat="46.25528" lon="7.30703"><ele>909.2</ele><time>2023-07-02T16:12:28Z</time></trkpt>
<trkpt lat="46.25515" lon="7.3068"><ele>908.2</ele><time>2023-07-02T16:12:31Z</time></trkpt>
<trkpt lat="46.25511" lon="7.30672"><ele>908</ele><time>2023-07-02T16:12:32Z</time></trkpt>
<trkpt lat="46.25501" lon="7.30649"><ele>908.2</ele><time>2023-07-02T16:12:35Z</time></trkpt>
<trkpt lat="46.25497" lon="7.30643"><ele>908</ele><time>2023-07-02T16:12:36Z</time></trkpt>
<trkpt lat="46.25493" lon="7.30639"><ele>907.8</ele><time>2023-07-02T16:12:37Z</time></trkpt>
<trkpt lat="46.25482" lon="7.30631"><ele>907.6</ele><time>2023-07-02T16:12:39Z</time></trkpt>
<trkpt lat="46.25475" lon="7.30627"><ele>907.4</ele><time>2023-07-02T16:12:40Z</time></trkpt>
<trkpt lat="46.25462" lon="7.30619"><ele>904.8</ele><time>2023-07-02T16:12:42Z</time></trkpt>
<trkpt lat="46.25449" lon="7.30611"><ele>903.6</ele><time>2023-07-02T16:12:44Z</time></trkpt>
<trkpt lat="46.25434" lon="7.30603"><ele>903.4</ele><time>2023-07-02T16:12:46Z</time></trkpt>
<trkpt lat="46.254" lon="7.3059"><ele>902.2</ele><time>2023-07-02T16:12:50Z</time></trkpt>
<trkpt lat="46.25391" lon="7.30588"><ele>901.4</ele><time>2023-07-02T16:12:51Z</time></trkpt>
<trkpt lat="46.25382" lon="7.30587"><ele>900.6</ele><time>2023-07-02T16:12:52Z</time></trkpt>
<trkpt lat="46.25361" lon="7.30586"><ele>898.6</ele><time>2023-07-02T16:12:54Z</time></trkpt>
<trkpt lat="46.25351" lon="7.30583"><ele>897.4</ele><time>2023-07-02T16:12:55Z</time></trkpt>
<trkpt lat="46.25341" lon="7.30577"><ele>895.8</ele><time>2023-07-02T16:12:56Z</time></trkpt>
<trkpt lat="46.25333" lon="7.30568"><ele>895.2</ele><time>2023-07-02T16:12:57Z</time></trkpt>
<trkpt lat="46.25326" lon="7.30556"><ele>894.8</ele><time>2023-07-02T16:12:58Z</time></trkpt>
<trkpt lat="46.25319" lon="7.30545"><ele>894.6</ele><time>2023-07-02T16:12:59Z</time></trkpt>
<trkpt lat="46.25303" lon="7.30526"><ele>893.2</ele><time>2023-07-02T16:13:01Z</time></trkpt>
<trkpt lat="46.25293" lon="7.30518"><ele>892</ele><time>2023-07-02T16:13:02Z</time></trkpt>
<trkpt lat="46.25283" lon="7.30512"><ele>890.4</ele><time>2023-07-02T16:13:03Z</time></trkpt>
<trkpt lat="46.25272" lon="7.30506"><ele>889</ele><time>2023-07-02T16:13:04Z</time></trkpt>
<trkpt lat="46.25263" lon="7.30498"><ele>888.6</ele><time>2023-07-02T16:13:05Z</time></trkpt>
<trkpt lat="46.25256" lon="7.30486"><ele>887.8</ele><time>2023-07-02T16:13:06Z</time></trkpt>
<trkpt lat="46.25252" lon="7.30473"><ele>887</ele><time>2023-07-02T16:13:07Z</time></trkpt>
<trkpt lat="46.25248" lon="7.30458"><ele>886.6</ele><time>2023-07-02T16:13:08Z</time></trkpt>
<trkpt lat="46.25243" lon="7.30444"><ele>886.2</ele><time>2023-07-02T16:13:09Z</time></trkpt>
<trkpt lat="46.25232" lon="7.30417"><ele>884.4</ele><time>2023-07-02T16:13:11Z</time></trkpt>
<trkpt lat="46.25225" lon="7.30405"><ele>882.8</ele><time>2023-07-02T16:13:12Z</time></trkpt>
<trkpt lat="46.25217" lon="7.30394"><ele>880.4</ele><time>2023-07-02T16:13:13Z</time></trkpt>
<trkpt lat="46.25192" lon="7.30362"><ele>879.2</ele><time>2023-07-02T16:13:16Z</time></trkpt>
<trkpt lat="46.25175" lon="7.30341"><ele>877.8</ele><time>2023-07-02T16:13:18Z</time></trkpt>
<trkpt lat="46.25166" lon="7.30331"><ele>877</ele><time>2023-07-02T16:13:19Z</time></trkpt>
<trkpt lat="46.25157" lon="7.30321"><ele>876.8</ele><time>2023-07-02T16:13:20Z</time></trkpt>
<trkpt lat="46.25139" lon="7.30301"><ele>875.2</ele><time>2023-07-02T16:13:22Z</time></trkpt>
<trkpt lat="46.2513" lon="7.30291"><ele>873</ele><time>2023-07-02T16:13:23Z</time></trkpt>
<trkpt lat="46.25112" lon="7.30271"><ele>871.8</ele><time>2023-07-02T16:13:25Z</time></trkpt>
<trkpt lat="46.25084" lon="7.30243"><ele>870.6</ele><time>2023-07-02T16:13:28Z</time></trkpt>
<trkpt lat="46.25074" lon="7.30234"><ele>869.4</ele><time>2023-07-02T16:13:29Z</time></trkpt>
<trkpt lat="46.25063" lon="7.30226"><ele>867.4</ele><time>2023-07-02T16:13:30Z</time></trkpt>
<trkpt lat="46.25052" lon="7.30219"><ele>865.6</ele><time>2023-07-02T16:13:31Z</time></trkpt>
<trkpt lat="46.2504" lon="7.30214"><ele>864.2</ele><time>2023-07-02T16:13:32Z</time></trkpt>
<trkpt lat="46.25028" lon="7.3021"><ele>862.2</ele><time>2023-07-02T16:13:33Z</time></trkpt>
<trkpt lat="46.24992" lon="7.30199"><ele>860.8</ele><time>2023-07-02T16:13:36Z</time></trkpt>
<trkpt lat="46.2498" lon="7.30194"><ele>859.6</ele><time>2023-07-02T16:13:37Z</time></trkpt>
<trkpt lat="46.24969" lon="7.3019"><ele>857.8</ele><time>2023-07-02T16:13:38Z</time></trkpt>
<trkpt lat="46.24945" lon="7.30186"><ele>856.6</ele><time>2023-07-02T16:13:40Z</time></trkpt>
<trkpt lat="46.24933" lon="7.30187"><ele>856.2</ele><time>2023-07-02T16:13:41Z</time></trkpt>
<trkpt lat="46.24921" lon="7.3019"><ele>855.8</ele><time>2023-07-02T16:13:42Z</time></trkpt>
<trkpt lat="46.24909" lon="7.30194"><ele>855.2</ele><time>2023-07-02T16:13:43Z</time></trkpt>
<trkpt lat="46.24897" lon="7.302"><ele>853</ele><time>2023-07-02T16:13:44Z</time></trkpt>
<trkpt lat="46.24886" lon="7.30204"><ele>852</ele><time>2023-07-02T16:13:45Z</time></trkpt>
<trkpt lat="46.24874" lon="7.30207"><ele>849.2</ele><time>2023-07-02T16:13:46Z</time></trkpt>
<trkpt lat="46.24835" lon="7.30212"><ele>848</ele><time>2023-07-02T16:13:49Z</time></trkpt>
<trkpt lat="46.24822" lon="7.30211"><ele>847.4</ele><time>2023-07-02T16:13:50Z</time></trkpt>
<trkpt lat="46.24809" lon="7.3021"><ele>846.4</ele><time>2023-07-02T16:13:51Z</time></trkpt>
<trkpt lat="46.24797" lon="7.30209"><ele>844.6</ele><time>2023-07-02T16:13:52Z</time></trkpt>
<trkpt lat="46.24771" lon="7.3021"><ele>843</ele><time>2023-07-02T16:13:54Z</time></trkpt>
<trkpt lat="46.24758" lon="7.30215"><ele>842.4</ele><time>2023-07-02T16:13:55Z</time></trkpt>
<trkpt lat="46.24747" lon="7.30223"><ele>841.8</ele><time>2023-07-02T16:13:56Z</time></trkpt>
<trkpt lat="46.24724" lon="7.30243"><ele>839.4</ele><time>2023-07-02T16:13:58Z</time></trkpt>
<trkpt lat="46.24712" lon="7.30254"><ele>837.8</ele><time>2023-07-02T16:13:59Z</time></trkpt>
<trkpt lat="46.24691" lon="7.30275"><ele>835</ele><time>2023-07-02T16:14:01Z</time></trkpt>
<trkpt lat="46.24679" lon="7.30281"><ele>834.6</ele><time>2023-07-02T16:14:02Z</time></trkpt>
<trkpt lat="46.24666" lon="7.30284"><ele>834.6</ele><time>2023-07-02T16:14:03Z</time></trkpt>
<trkpt lat="46.24654" lon="7.30283"><ele>833.8</ele><time>2023-07-02T16:14:04Z</time></trkpt>
<trkpt lat="46.24642" lon="7.30279"><ele>833.6</ele><time>2023-07-02T16:14:05Z</time></trkpt>
<trkpt lat="46.24632" lon="7.3027"><ele>833</ele><time>2023-07-02T16:14:06Z</time></trkpt>
<trkpt lat="46.24625" lon="7.30259"><ele>832.2</ele><time>2023-07-02T16:14:07Z</time></trkpt>
<trkpt lat="46.24619" lon="7.30247"><ele>831.8</ele><time>2023-07-02T16:14:08Z</time></trkpt>
<trkpt lat="46.24614" lon="7.30234"><ele>831.4</ele><time>2023-07-02T16:14:09Z</time></trkpt>
<trkpt lat="46.24609" lon="7.30222"><ele>831.2</ele><time>2023-07-02T16:14:10Z</time></trkpt>
<trkpt lat="46.24605" lon="7.3021"><ele>831.2</ele><time>2023-07-02T16:14:11Z</time></trkpt>
<trkpt lat="46.24596" lon="7.30186"><ele>829.4</ele><time>2023-07-02T16:14:13Z</time></trkpt>
<trkpt lat="46.24589" lon="7.30163"><ele>828.2</ele><time>2023-07-02T16:14:15Z</time></trkpt>
<trkpt lat="46.24587" lon="7.30151"><ele>828</ele><time>2023-07-02T16:14:16Z</time></trkpt>
<trkpt lat="46.24577" lon="7.30117"><ele>827.2</ele><time>2023-07-02T16:14:19Z</time></trkpt>
<trkpt lat="46.24573" lon="7.30106"><ele>827.2</ele><time>2023-07-02T16:14:20Z</time></trkpt>
<trkpt lat="46.24564" lon="7.30085"><ele>826.8</ele><time>2023-07-02T16:14:22Z</time></trkpt>
<trkpt lat="46.24554" lon="7.30066"><ele>825.6</ele><time>2023-07-02T16:14:24Z</time></trkpt>
<trkpt lat="46.24544" lon="7.30046"><ele>825</ele><time>2023-07-02T16:14:26Z</time></trkpt>
<trkpt lat="46.24534" lon="7.30024"><ele>825</ele><time>2023-07-02T16:14:28Z</time></trkpt>
<trkpt lat="46.2453" lon="7.3"><ele>824.4</ele><time>2023-07-02T16:14:30Z</time></trkpt>
<trkpt lat="46.24529" lon="7.29988"><ele>823.8</ele><time>2023-07-02T16:14:31Z</time></trkpt>
<trkpt lat="46.24529" lon="7.29975"><ele>823</ele><time>2023-07-02T16:14:32Z</time></trkpt>
<trkpt lat="46.24528" lon="7.29951"><ele>821.6</ele><time>2023-07-02T16:14:34Z</time></trkpt>
<trkpt lat="46.24528" lon="7.29928"><ele>820.4</ele><time>2023-07-02T16:14:36Z</time></trkpt>
<trkpt lat="46.24526" lon="7.29905"><ele>820.4</ele><time>2023-07-02T16:14:38Z</time></trkpt>
<trkpt lat="46.24516" lon="7.29848"><ele>820.4</ele><time>2023-07-02T16:14:43Z</time></trkpt>
<trkpt lat="46.24512" lon="7.29838"><ele>820</ele><time>2023-07-02T16:14:44Z</time></trkpt>
<trkpt lat="46.24495" lon="7.2981"><ele>819.4</ele><time>2023-07-02T16:14:47Z</time></trkpt>
<trkpt lat="46.24489" lon="7.29802"><ele>819.2</ele><time>2023-07-02T16:14:48Z</time></trkpt>
<trkpt lat="46.24477" lon="7.29785"><ele>817.8</ele><time>2023-07-02T16:14:50Z</time></trkpt>
<trkpt lat="46.24448" lon="7.29743"><ele>816.6</ele><time>2023-07-02T16:14:55Z</time></trkpt>
<trkpt lat="46.24425" lon="7.29711"><ele>816</ele><time>2023-07-02T16:14:59Z</time></trkpt>
<trkpt lat="46.24412" lon="7.29696"><ele>815.2</ele><time>2023-07-02T16:15:01Z</time></trkpt>
<trkpt lat="46.24379" lon="7.29661"><ele>814</ele><time>2023-07-02T16:15:06Z</time></trkpt>
<trkpt lat="46.24347" lon="7.29633"><ele>813.6</ele><time>2023-07-02T16:15:11Z</time></trkpt>
<trkpt lat="46.2434" lon="7.2963"><ele>813.6</ele><time>2023-07-02T16:15:12Z</time></trkpt>
<trkpt lat="46.24332" lon="7.29629"><ele>813.4</ele><time>2023-07-02T16:15:13Z</time></trkpt>
<trkpt lat="46.24325" lon="7.29628"><ele>813</ele><time>2023-07-02T16:15:14Z</time></trkpt>
<trkpt lat="46.24304" lon="7.29622"><ele>812.4</ele><time>2023-07-02T16:15:17Z</time></trkpt>
<trkpt lat="46.2427" lon="7.29609"><ele>812</ele><time>2023-07-02T16:15:22Z</time></trkpt>
<trkpt lat="46.24243" lon="7.29597"><ele>811.8</ele><time>2023-07-02T16:15:26Z</time></trkpt>
<trkpt lat="46.24191" lon="7.2958"><ele>811.4</ele><time>2023-07-02T16:15:34Z</time></trkpt>
<trkpt lat="46.24146" lon="7.29578"><ele>810.6</ele><time>2023-07-02T16:15:41Z</time></trkpt>
<trkpt lat="46.24136" lon="7.29578"><ele>810</ele><time>2023-07-02T16:15:43Z</time></trkpt>
<trkpt lat="46.24096" lon="7.29572"><ele>809.8</ele><time>2023-07-02T16:15:51Z</time></trkpt>
<trkpt lat="46.24091" lon="7.29569"><ele>809.6</ele><time>2023-07-02T16:15:52Z</time></trkpt>
<trkpt lat="46.24078" lon="7.29562"><ele>809</ele><time>2023-07-02T16:15:55Z</time></trkpt>
<trkpt lat="46.24074" lon="7.29559"><ele>808.8</ele><time>2023-07-02T16:15:56Z</time></trkpt>
<trkpt lat="46.24064" lon="7.2955"><ele>808.6</ele><time>2023-07-02T16:15:59Z</time></trkpt>
<trkpt lat="46.24045" lon="7.29534"><ele>809</ele><time>2023-07-02T16:16:05Z</time></trkpt>
<trkpt lat="46.24026" lon="7.29519"><ele>807.8</ele><time>2023-07-02T16:16:10Z</time></trkpt>
<trkpt lat="46.24022" lon="7.29515"><ele>807.6</ele><time>2023-07-02T16:16:11Z</time></trkpt>
<trkpt lat="46.23998" lon="7.29484"><ele>806.6</ele><time>2023-07-02T16:16:17Z</time></trkpt>
<trkpt lat="46.23988" lon="7.29473"><ele>805.4</ele><time>2023-07-02T16:16:19Z</time></trkpt>
<trkpt lat="46.23972" lon="7.29455"><ele>804.4</ele><time>2023-07-02T16:16:22Z</time></trkpt>
<trkpt lat="46.23962" lon="7.29443"><ele>804.2</ele><time>2023-07-02T16:16:24Z</time></trkpt>
<trkpt lat="46.23938" lon="7.29419"><ele>803.4</ele><time>2023-07-02T16:16:28Z</time></trkpt>
<trkpt lat="46.23931" lon="7.29413"><ele>802.2</ele><time>2023-07-02T16:16:29Z</time></trkpt>
<trkpt lat="46.23925" lon="7.29407"><ele>801.8</ele><time>2023-07-02T16:16:30Z</time></trkpt>
<trkpt lat="46.23918" lon="7.294"><ele>801.8</ele><time>2023-07-02T16:16:31Z</time></trkpt>
<trkpt lat="46.23911" lon="7.29393"><ele>801.4</ele><time>2023-07-02T16:16:32Z</time></trkpt>
<trkpt lat="46.23905" lon="7.29386"><ele>801.2</ele><time>2023-07-02T16:16:33Z</time></trkpt>
<trkpt lat="46.23892" lon="7.29371"><ele>800.4</ele><time>2023-07-02T16:16:35Z</time></trkpt>
<trkpt lat="46.23886" lon="7.29362"><ele>798.6</ele><time>2023-07-02T16:16:36Z</time></trkpt>
<trkpt lat="46.23876" lon="7.29342"><ele>797.4</ele><time>2023-07-02T16:16:38Z</time></trkpt>
<trkpt lat="46.23871" lon="7.29332"><ele>797.4</ele><time>2023-07-02T16:16:39Z</time></trkpt>
<trkpt lat="46.23846" lon="7.29284"><ele>795.2</ele><time>2023-07-02T16:16:44Z</time></trkpt>
<trkpt lat="46.23834" lon="7.29258"><ele>795</ele><time>2023-07-02T16:16:47Z</time></trkpt>
<trkpt lat="46.23824" lon="7.29234"><ele>793.8</ele><time>2023-07-02T16:16:51Z</time></trkpt>
<trkpt lat="46.23818" lon="7.2923"><ele>793.4</ele><time>2023-07-02T16:16:53Z</time></trkpt>
<trkpt lat="46.23814" lon="7.2923"><ele>793.2</ele><time>2023-07-02T16:16:54Z</time></trkpt>
<trkpt lat="46.2381" lon="7.29233"><ele>793.2</ele><time>2023-07-02T16:16:55Z</time></trkpt>
<trkpt lat="46.23799" lon="7.29238"><ele>792.6</ele><time>2023-07-02T16:16:57Z</time></trkpt>
<trkpt lat="46.23794" lon="7.29241"><ele>792.2</ele><time>2023-07-02T16:16:58Z</time></trkpt>
<trkpt lat="46.2379" lon="7.29241"><ele>791.8</ele><time>2023-07-02T16:16:59Z</time></trkpt>
<trkpt lat="46.23782" lon="7.29246"><ele>791.4</ele><time>2023-07-02T16:17:01Z</time></trkpt>
<trkpt lat="46.23768" lon="7.29255"><ele>790</ele><time>2023-07-02T16:17:04Z</time></trkpt>
<trkpt lat="46.23759" lon="7.29261"><ele>789.2</ele><time>2023-07-02T16:17:06Z</time></trkpt>
<trkpt lat="46.23753" lon="7.29264"><ele>787.8</ele><time>2023-07-02T16:17:07Z</time></trkpt>
<trkpt lat="46.23744" lon="7.29271"><ele>786.2</ele><time>2023-07-02T16:17:09Z</time></trkpt>
<trkpt lat="46.23739" lon="7.29273"><ele>785.6</ele><time>2023-07-02T16:17:10Z</time></trkpt>
<trkpt lat="46.23728" lon="7.29274"><ele>784.8</ele><time>2023-07-02T16:17:12Z</time></trkpt>
<trkpt lat="46.23717" lon="7.29271"><ele>783.8</ele><time>2023-07-02T16:17:14Z</time></trkpt>
<trkpt lat="46.23711" lon="7.29267"><ele>782.6</ele><time>2023-07-02T16:17:15Z</time></trkpt>
<trkpt lat="46.23705" lon="7.29262"><ele>781.6</ele><time>2023-07-02T16:17:16Z</time></trkpt>
<trkpt lat="46.23692" lon="7.29249"><ele>778.8</ele><time>2023-07-02T16:17:18Z</time></trkpt>
<trkpt lat="46.23684" lon="7.29242"><ele>777.2</ele><time>2023-07-02T16:17:19Z</time></trkpt>
<trkpt lat="46.23676" lon="7.29234"><ele>776.4</ele><time>2023-07-02T16:17:20Z</time></trkpt>
<trkpt lat="46.2366" lon="7.29219"><ele>775.6</ele><time>2023-07-02T16:17:22Z</time></trkpt>
<trkpt lat="46.23647" lon="7.29207"><ele>773.8</ele><time>2023-07-02T16:17:24Z</time></trkpt>
<trkpt lat="46.23641" lon="7.29201"><ele>772.6</ele><time>2023-07-02T16:17:25Z</time></trkpt>
<trkpt lat="46.23636" lon="7.29194"><ele>772.2</ele><time>2023-07-02T16:17:26Z</time></trkpt>
<trkpt lat="46.23631" lon="7.29187"><ele>771.2</ele><time>2023-07-02T16:17:27Z</time></trkpt>
<trkpt lat="46.23626" lon="7.29178"><ele>770.6</ele><time>2023-07-02T16:17:28Z</time></trkpt>
<trkpt lat="46.23621" lon="7.2917"><ele>770.2</ele><time>2023-07-02T16:17:29Z</time></trkpt>
<trkpt lat="46.2361" lon="7.29157"><ele>769</ele><time>2023-07-02T16:17:31Z</time></trkpt>
<trkpt lat="46.23601" lon="7.29147"><ele>764</ele><time>2023-07-02T16:17:33Z</time></trkpt>
<trkpt lat="46.23597" lon="7.29143"><ele>761.2</ele><time>2023-07-02T16:17:34Z</time></trkpt>
<trkpt lat="46.23586" lon="7.29137"><ele>760.2</ele><time>2023-07-02T16:17:36Z</time></trkpt>
<trkpt lat="46.2358" lon="7.29135"><ele>759.4</ele><time>2023-07-02T16:17:37Z</time></trkpt>
<trkpt lat="46.23566" lon="7.29132"><ele>758</ele><time>2023-07-02T16:17:39Z</time></trkpt>
<trkpt lat="46.23543" lon="7.29125"><ele>756.8</ele><time>2023-07-02T16:17:42Z</time></trkpt>
<trkpt lat="46.23536" lon="7.2912"><ele>755.8</ele><time>2023-07-02T16:17:43Z</time></trkpt>
<trkpt lat="46.23529" lon="7.29113"><ele>754</ele><time>2023-07-02T16:17:44Z</time></trkpt>
<trkpt lat="46.23522" lon="7.29105"><ele>752.6</ele><time>2023-07-02T16:17:45Z</time></trkpt>
<trkpt lat="46.23517" lon="7.29097"><ele>751</ele><time>2023-07-02T16:17:46Z</time></trkpt>
<trkpt lat="46.23512" lon="7.29089"><ele>750</ele><time>2023-07-02T16:17:47Z</time></trkpt>
<trkpt lat="46.23509" lon="7.29081"><ele>748</ele><time>2023-07-02T16:17:48Z</time></trkpt>
<trkpt lat="46.23506" lon="7.29072"><ele>746.8</ele><time>2023-07-02T16:17:49Z</time></trkpt>
<trkpt lat="46.23504" lon="7.29062"><ele>746.2</ele><time>2023-07-02T16:17:50Z</time></trkpt>
<trkpt lat="46.23504" lon="7.29051"><ele>744.4</ele><time>2023-07-02T16:17:51Z</time></trkpt>
<trkpt lat="46.23503" lon="7.29039"><ele>743.8</ele><time>2023-07-02T16:17:52Z</time></trkpt>
<trkpt lat="46.23504" lon="7.29025"><ele>742.6</ele><time>2023-07-02T16:17:53Z</time></trkpt>
<trkpt lat="46.23506" lon="7.28996"><ele>740.8</ele><time>2023-07-02T16:17:55Z</time></trkpt>
<trkpt lat="46.23507" lon="7.28981"><ele>739.6</ele><time>2023-07-02T16:17:56Z</time></trkpt>
<trkpt lat="46.2351" lon="7.28955"><ele>737.4</ele><time>2023-07-02T16:17:58Z</time></trkpt>
<trkpt lat="46.2351" lon="7.28942"><ele>736.4</ele><time>2023-07-02T16:17:59Z</time></trkpt>
<trkpt lat="46.23508" lon="7.28929"><ele>735.2</ele><time>2023-07-02T16:18:00Z</time></trkpt>
<trkpt lat="46.23504" lon="7.28918"><ele>733.2</ele><time>2023-07-02T16:18:01Z</time></trkpt>
<trkpt lat="46.23498" lon="7.28909"><ele>731.8</ele><time>2023-07-02T16:18:02Z</time></trkpt>
<trkpt lat="46.2349" lon="7.28902"><ele>730.4</ele><time>2023-07-02T16:18:03Z</time></trkpt>
<trkpt lat="46.23483" lon="7.28894"><ele>729</ele><time>2023-07-02T16:18:04Z</time></trkpt>
<trkpt lat="46.23477" lon="7.28884"><ele>728.6</ele><time>2023-07-02T16:18:05Z</time></trkpt>
<trkpt lat="46.23473" lon="7.28874"><ele>728.4</ele><time>2023-07-02T16:18:06Z</time></trkpt>
<trkpt lat="46.23452" lon="7.28831"><ele>728.2</ele><time>2023-07-02T16:18:11Z</time></trkpt>
<trkpt lat="46.23447" lon="7.28825"><ele>728</ele><time>2023-07-02T16:18:12Z</time></trkpt>
<trkpt lat="46.23442" lon="7.28818"><ele>727.8</ele><time>2023-07-02T16:18:13Z</time></trkpt>
<trkpt lat="46.23427" lon="7.28798"><ele>727.4</ele><time>2023-07-02T16:18:16Z</time></trkpt>
<trkpt lat="46.23408" lon="7.28757"><ele>726.4</ele><time>2023-07-02T16:18:21Z</time></trkpt>
<trkpt lat="46.23404" lon="7.28749"><ele>726.4</ele><time>2023-07-02T16:18:22Z</time></trkpt>
<trkpt lat="46.23387" lon="7.28718"><ele>725.2</ele><time>2023-07-02T16:18:26Z</time></trkpt>
<trkpt lat="46.2338" lon="7.28701"><ele>724.8</ele><time>2023-07-02T16:18:28Z</time></trkpt>
<trkpt lat="46.23373" lon="7.28676"><ele>724.2</ele><time>2023-07-02T16:18:31Z</time></trkpt>
<trkpt lat="46.23368" lon="7.28649"><ele>723.2</ele><time>2023-07-02T16:18:34Z</time></trkpt>
<trkpt lat="46.23366" lon="7.28639"><ele>722.8</ele><time>2023-07-02T16:18:35Z</time></trkpt>
<trkpt lat="46.23366" lon="7.28629"><ele>722.6</ele><time>2023-07-02T16:18:36Z</time></trkpt>
<trkpt lat="46.23367" lon="7.28608"><ele>722</ele><time>2023-07-02T16:18:38Z</time></trkpt>
<trkpt lat="46.23368" lon="7.28597"><ele>721.6</ele><time>2023-07-02T16:18:39Z</time></trkpt>
<trkpt lat="46.23373" lon="7.28544"><ele>720.6</ele><time>2023-07-02T16:18:44Z</time></trkpt>
<trkpt lat="46.23373" lon="7.28522"><ele>720.2</ele><time>2023-07-02T16:18:46Z</time></trkpt>
<trkpt lat="46.23372" lon="7.285"><ele>719.4</ele><time>2023-07-02T16:18:48Z</time></trkpt>
<trkpt lat="46.23373" lon="7.28479"><ele>719</ele><time>2023-07-02T16:18:50Z</time></trkpt>
<trkpt lat="46.23376" lon="7.28469"><ele>718.4</ele><time>2023-07-02T16:18:51Z</time></trkpt>
<trkpt lat="46.23379" lon="7.28459"><ele>718</ele><time>2023-07-02T16:18:52Z</time></trkpt>
<trkpt lat="46.23383" lon="7.2845"><ele>716.4</ele><time>2023-07-02T16:18:53Z</time></trkpt>
<trkpt lat="46.23389" lon="7.2843"><ele>715.4</ele><time>2023-07-02T16:18:55Z</time></trkpt>
<trkpt lat="46.23392" lon="7.28386"><ele>714.4</ele><time>2023-07-02T16:18:59Z</time></trkpt>
<trkpt lat="46.23392" lon="7.28374"><ele>714.4</ele><time>2023-07-02T16:19:00Z</time></trkpt>
<trkpt lat="46.23388" lon="7.28351"><ele>714.2</ele><time>2023-07-02T16:19:02Z</time></trkpt>
<trkpt lat="46.23385" lon="7.28339"><ele>714</ele><time>2023-07-02T16:19:03Z</time></trkpt>
<trkpt lat="46.23376" lon="7.28305"><ele>713</ele><time>2023-07-02T16:19:06Z</time></trkpt>
<trkpt lat="46.23365" lon="7.28258"><ele>710.8</ele><time>2023-07-02T16:19:10Z</time></trkpt>
<trkpt lat="46.2336" lon="7.28235"><ele>709.8</ele><time>2023-07-02T16:19:12Z</time></trkpt>
<trkpt lat="46.23359" lon="7.28211"><ele>709</ele><time>2023-07-02T16:19:14Z</time></trkpt>
<trkpt lat="46.23359" lon="7.28199"><ele>708.2</ele><time>2023-07-02T16:19:15Z</time></trkpt>
<trkpt lat="46.23358" lon="7.2816"><ele>706.8</ele><time>2023-07-02T16:19:18Z</time></trkpt>
<trkpt lat="46.23355" lon="7.28147"><ele>706.6</ele><time>2023-07-02T16:19:19Z</time></trkpt>
<trkpt lat="46.23352" lon="7.28136"><ele>706.6</ele><time>2023-07-02T16:19:20Z</time></trkpt>
<trkpt lat="46.23348" lon="7.28124"><ele>705.6</ele><time>2023-07-02T16:19:21Z</time></trkpt>
<trkpt lat="46.23341" lon="7.28102"><ele>704.8</ele><time>2023-07-02T16:19:23Z</time></trkpt>
<trkpt lat="46.23332" lon="7.2807"><ele>705.4</ele><time>2023-07-02T16:19:27Z</time></trkpt>
<trkpt lat="46.23325" lon="7.28056"><ele>706.2</ele><time>2023-07-02T16:19:30Z</time></trkpt>
<trkpt lat="46.23321" lon="7.28053"><ele>706.2</ele><time>2023-07-02T16:19:31Z</time></trkpt>
<trkpt lat="46.23315" lon="7.2805"><ele>706.2</ele><time>2023-07-02T16:19:32Z</time></trkpt>
<trkpt lat="46.23303" lon="7.28043"><ele>704.2</ele><time>2023-07-02T16:19:34Z</time></trkpt>
<trkpt lat="46.23297" lon="7.2804"><ele>703.4</ele><time>2023-07-02T16:19:35Z</time></trkpt>
<trkpt lat="46.23292" lon="7.28037"><ele>702.6</ele><time>2023-07-02T16:19:36Z</time></trkpt>
<trkpt lat="46.23286" lon="7.28031"><ele>701.2</ele><time>2023-07-02T16:19:38Z</time></trkpt>
<trkpt lat="46.23283" lon="7.28025"><ele>699.6</ele><time>2023-07-02T16:19:40Z</time></trkpt>
<trkpt lat="46.23285" lon="7.28021"><ele>699</ele><time>2023-07-02T16:19:41Z</time></trkpt>
<trkpt lat="46.23289" lon="7.28018"><ele>698.4</ele><time>2023-07-02T16:19:42Z</time></trkpt>
<trkpt lat="46.23295" lon="7.28017"><ele>697.8</ele><time>2023-07-02T16:19:43Z</time></trkpt>
<trkpt lat="46.23302" lon="7.28014"><ele>696.8</ele><time>2023-07-02T16:19:44Z</time></trkpt>
<trkpt lat="46.23306" lon="7.28008"><ele>696.4</ele><time>2023-07-02T16:19:45Z</time></trkpt>
<trkpt lat="46.23308" lon="7.28001"><ele>694.8</ele><time>2023-07-02T16:19:46Z</time></trkpt>
<trkpt lat="46.23308" lon="7.27993"><ele>693.8</ele><time>2023-07-02T16:19:47Z</time></trkpt>
<trkpt lat="46.23303" lon="7.27987"><ele>692.6</ele><time>2023-07-02T16:19:48Z</time></trkpt>
<trkpt lat="46.23296" lon="7.27983"><ele>691.6</ele><time>2023-07-02T16:19:49Z</time></trkpt>
<trkpt lat="46.23281" lon="7.27972"><ele>691</ele><time>2023-07-02T16:19:51Z</time></trkpt>
<trkpt lat="46.23263" lon="7.27963"><ele>690.4</ele><time>2023-07-02T16:19:53Z</time></trkpt>
<trkpt lat="46.23254" lon="7.27959"><ele>688.8</ele><time>2023-07-02T16:19:54Z</time></trkpt>
<trkpt lat="46.23244" lon="7.27955"><ele>687.8</ele><time>2023-07-02T16:19:55Z</time></trkpt>
<trkpt lat="46.23235" lon="7.27953"><ele>686.6</ele><time>2023-07-02T16:19:56Z</time></trkpt>
<trkpt lat="46.23219" lon="7.27945"><ele>685.2</ele><time>2023-07-02T16:19:58Z</time></trkpt>
<trkpt lat="46.23213" lon="7.2794"><ele>684.4</ele><time>2023-07-02T16:19:59Z</time></trkpt>
<trkpt lat="46.23207" lon="7.27934"><ele>683.6</ele><time>2023-07-02T16:20:00Z</time></trkpt>
<trkpt lat="46.2319" lon="7.27911"><ele>681.4</ele><time>2023-07-02T16:20:03Z</time></trkpt>
<trkpt lat="46.23184" lon="7.27903"><ele>680.2</ele><time>2023-07-02T16:20:04Z</time></trkpt>
<trkpt lat="46.2318" lon="7.27896"><ele>678.6</ele><time>2023-07-02T16:20:05Z</time></trkpt>
<trkpt lat="46.23177" lon="7.2789"><ele>677.8</ele><time>2023-07-02T16:20:06Z</time></trkpt>
<trkpt lat="46.23175" lon="7.27882"><ele>677.2</ele><time>2023-07-02T16:20:07Z</time></trkpt>
<trkpt lat="46.23173" lon="7.27874"><ele>676.2</ele><time>2023-07-02T16:20:08Z</time></trkpt>
<trkpt lat="46.23173" lon="7.27866"><ele>674.8</ele><time>2023-07-02T16:20:09Z</time></trkpt>
<trkpt lat="46.23172" lon="7.27848"><ele>673.4</ele><time>2023-07-02T16:20:11Z</time></trkpt>
<trkpt lat="46.23173" lon="7.27838"><ele>673</ele><time>2023-07-02T16:20:12Z</time></trkpt>
<trkpt lat="46.23174" lon="7.2783"><ele>671.6</ele><time>2023-07-02T16:20:13Z</time></trkpt>
<trkpt lat="46.23175" lon="7.27822"><ele>670</ele><time>2023-07-02T16:20:14Z</time></trkpt>
<trkpt lat="46.23176" lon="7.27816"><ele>668.8</ele><time>2023-07-02T16:20:15Z</time></trkpt>
<trkpt lat="46.23177" lon="7.2781"><ele>667.6</ele><time>2023-07-02T16:20:16Z</time></trkpt>
<trkpt lat="46.23176" lon="7.27804"><ele>666.6</ele><time>2023-07-02T16:20:17Z</time></trkpt>
<trkpt lat="46.23172" lon="7.27801"><ele>665.6</ele><time>2023-07-02T16:20:18Z</time></trkpt>
<trkpt lat="46.23166" lon="7.27802"><ele>664.4</ele><time>2023-07-02T16:20:19Z</time></trkpt>
<trkpt lat="46.23161" lon="7.27807"><ele>663.4</ele><time>2023-07-02T16:20:20Z</time></trkpt>
<trkpt lat="46.23155" lon="7.27811"><ele>662.2</ele><time>2023-07-02T16:20:21Z</time></trkpt>
<trkpt lat="46.23149" lon="7.27815"><ele>661.4</ele><time>2023-07-02T16:20:22Z</time></trkpt>
<trkpt lat="46.23136" lon="7.27816"><ele>661</ele><time>2023-07-02T16:20:24Z</time></trkpt>
<trkpt lat="46.23125" lon="7.2781"><ele>660.2</ele><time>2023-07-02T16:20:26Z</time></trkpt>
<trkpt lat="46.2312" lon="7.27805"><ele>659.8</ele><time>2023-07-02T16:20:27Z</time></trkpt>
<trkpt lat="46.23103" lon="7.27791"><ele>659</ele><time>2023-07-02T16:20:30Z</time></trkpt>
<trkpt lat="46.23095" lon="7.27779"><ele>658.8</ele><time>2023-07-02T16:20:32Z</time></trkpt>
<trkpt lat="46.23074" lon="7.27739"><ele>658.6</ele><time>2023-07-02T16:20:38Z</time></trkpt>
<trkpt lat="46.23057" lon="7.27713"><ele>657.6</ele><time>2023-07-02T16:20:42Z</time></trkpt>
<trkpt lat="46.23047" lon="7.27698"><ele>656.8</ele><time>2023-07-02T16:20:44Z</time></trkpt>
<trkpt lat="46.23041" lon="7.27691"><ele>656.2</ele><time>2023-07-02T16:20:45Z</time></trkpt>
<trkpt lat="46.23028" lon="7.27675"><ele>655.2</ele><time>2023-07-02T16:20:47Z</time></trkpt>
<trkpt lat="46.23015" lon="7.27659"><ele>653.8</ele><time>2023-07-02T16:20:49Z</time></trkpt>
<trkpt lat="46.23008" lon="7.27651"><ele>652.2</ele><time>2023-07-02T16:20:50Z</time></trkpt>
<trkpt lat="46.22993" lon="7.27637"><ele>650.6</ele><time>2023-07-02T16:20:52Z</time></trkpt>
<trkpt lat="46.22977" lon="7.27623"><ele>649</ele><time>2023-07-02T16:20:54Z</time></trkpt>
<trkpt lat="46.22968" lon="7.27614"><ele>647.6</ele><time>2023-07-02T16:20:55Z</time></trkpt>
<trkpt lat="46.2296" lon="7.27606"><ele>645</ele><time>2023-07-02T16:20:56Z</time></trkpt>
<trkpt lat="46.22952" lon="7.27597"><ele>643.8</ele><time>2023-07-02T16:20:57Z</time></trkpt>
<trkpt lat="46.22944" lon="7.27588"><ele>642.8</ele><time>2023-07-02T16:20:58Z</time></trkpt>
<trkpt lat="46.22936" lon="7.27578"><ele>641.4</ele><time>2023-07-02T16:20:59Z</time></trkpt>
<trkpt lat="46.2293" lon="7.27567"><ele>640.8</ele><time>2023-07-02T16:21:00Z</time></trkpt>
<trkpt lat="46.22925" lon="7.27556"><ele>639.6</ele><time>2023-07-02T16:21:01Z</time></trkpt>
<trkpt lat="46.22921" lon="7.27547"><ele>638.4</ele><time>2023-07-02T16:21:02Z</time></trkpt>
<trkpt lat="46.22916" lon="7.27538"><ele>637.6</ele><time>2023-07-02T16:21:03Z</time></trkpt>
<trkpt lat="46.2291" lon="7.27531"><ele>637</ele><time>2023-07-02T16:21:04Z</time></trkpt>
<trkpt lat="46.22905" lon="7.27525"><ele>636.6</ele><time>2023-07-02T16:21:05Z</time></trkpt>
<trkpt lat="46.22891" lon="7.27516"><ele>635.6</ele><time>2023-07-02T16:21:07Z</time></trkpt>
<trkpt lat="46.22884" lon="7.27509"><ele>635</ele><time>2023-07-02T16:21:08Z</time></trkpt>
<trkpt lat="46.22877" lon="7.27502"><ele>633.4</ele><time>2023-07-02T16:21:09Z</time></trkpt>
<trkpt lat="46.22862" lon="7.27491"><ele>632.2</ele><time>2023-07-02T16:21:11Z</time></trkpt>
<trkpt lat="46.22853" lon="7.27486"><ele>631.2</ele><time>2023-07-02T16:21:12Z</time></trkpt>
<trkpt lat="46.22844" lon="7.27481"><ele>629.8</ele><time>2023-07-02T16:21:13Z</time></trkpt>
<trkpt lat="46.22826" lon="7.27471"><ele>628</ele><time>2023-07-02T16:21:15Z</time></trkpt>
<trkpt lat="46.2281" lon="7.27457"><ele>622.6</ele><time>2023-07-02T16:21:17Z</time></trkpt>
<trkpt lat="46.22802" lon="7.27449"><ele>621.6</ele><time>2023-07-02T16:21:18Z</time></trkpt>
<trkpt lat="46.22779" lon="7.27427"><ele>620</ele><time>2023-07-02T16:21:21Z</time></trkpt>
<trkpt lat="46.22771" lon="7.27421"><ele>617.4</ele><time>2023-07-02T16:21:22Z</time></trkpt>
<trkpt lat="46.22763" lon="7.27414"><ele>615.6</ele><time>2023-07-02T16:21:23Z</time></trkpt>
<trkpt lat="46.22746" lon="7.27399"><ele>612.8</ele><time>2023-07-02T16:21:25Z</time></trkpt>
<trkpt lat="46.22738" lon="7.27392"><ele>611.2</ele><time>2023-07-02T16:21:26Z</time></trkpt>
<trkpt lat="46.22723" lon="7.2738"><ele>609.4</ele><time>2023-07-02T16:21:28Z</time></trkpt>
<trkpt lat="46.22716" lon="7.27375"><ele>607.8</ele><time>2023-07-02T16:21:29Z</time></trkpt>
<trkpt lat="46.22702" lon="7.27366"><ele>604.6</ele><time>2023-07-02T16:21:31Z</time></trkpt>
<trkpt lat="46.22688" lon="7.2736"><ele>602.6</ele><time>2023-07-02T16:21:33Z</time></trkpt>
<trkpt lat="46.22683" lon="7.27358"><ele>601</ele><time>2023-07-02T16:21:34Z</time></trkpt>
<trkpt lat="46.22679" lon="7.27355"><ele>599</ele><time>2023-07-02T16:21:35Z</time></trkpt>
<trkpt lat="46.22677" lon="7.27352"><ele>598</ele><time>2023-07-02T16:21:36Z</time></trkpt>
<trkpt lat="46.22677" lon="7.27348"><ele>596.4</ele><time>2023-07-02T16:21:37Z</time></trkpt>
<trkpt lat="46.22682" lon="7.27345"><ele>595.8</ele><time>2023-07-02T16:21:39Z</time></trkpt>
<trkpt lat="46.22691" lon="7.27345"><ele>595.2</ele><time>2023-07-02T16:21:41Z</time></trkpt>
<trkpt lat="46.22697" lon="7.27343"><ele>594.4</ele><time>2023-07-02T16:21:42Z</time></trkpt>
<trkpt lat="46.22702" lon="7.27337"><ele>593.6</ele><time>2023-07-02T16:21:43Z</time></trkpt>
<trkpt lat="46.22705" lon="7.27328"><ele>593.2</ele><time>2023-07-02T16:21:44Z</time></trkpt>
<trkpt lat="46.22704" lon="7.27317"><ele>592.4</ele><time>2023-07-02T16:21:45Z</time></trkpt>
<trkpt lat="46.22701" lon="7.27306"><ele>591.6</ele><time>2023-07-02T16:21:46Z</time></trkpt>
<trkpt lat="46.22695" lon="7.27296"><ele>590.8</ele><time>2023-07-02T16:21:47Z</time></trkpt>
<trkpt lat="46.22689" lon="7.27286"><ele>590.2</ele><time>2023-07-02T16:21:48Z</time></trkpt>
<trkpt lat="46.22682" lon="7.27277"><ele>588.8</ele><time>2023-07-02T16:21:49Z</time></trkpt>
<trkpt lat="46.22674" lon="7.27268"><ele>587.4</ele><time>2023-07-02T16:21:50Z</time></trkpt>
<trkpt lat="46.22659" lon="7.27248"><ele>585.6</ele><time>2023-07-02T16:21:52Z</time></trkpt>
<trkpt lat="46.22645" lon="7.27228"><ele>583.8</ele><time>2023-07-02T16:21:54Z</time></trkpt>
<trkpt lat="46.22639" lon="7.27218"><ele>582.4</ele><time>2023-07-02T16:21:55Z</time></trkpt>
<trkpt lat="46.22634" lon="7.27209"><ele>580.4</ele><time>2023-07-02T16:21:56Z</time></trkpt>
<trkpt lat="46.22628" lon="7.27201"><ele>579.4</ele><time>2023-07-02T16:21:57Z</time></trkpt>
<trkpt lat="46.22623" lon="7.27194"><ele>577.8</ele><time>2023-07-02T16:21:58Z</time></trkpt>
<trkpt lat="46.22617" lon="7.27188"><ele>576.2</ele><time>2023-07-02T16:21:59Z</time></trkpt>
<trkpt lat="46.22607" lon="7.27178"><ele>574.4</ele><time>2023-07-02T16:22:01Z</time></trkpt>
<trkpt lat="46.22601" lon="7.27173"><ele>573.4</ele><time>2023-07-02T16:22:02Z</time></trkpt>
<trkpt lat="46.22596" lon="7.27169"><ele>572.8</ele><time>2023-07-02T16:22:03Z</time></trkpt>
<trkpt lat="46.22591" lon="7.27167"><ele>572</ele><time>2023-07-02T16:22:04Z</time></trkpt>
<trkpt lat="46.22581" lon="7.27173"><ele>570.4</ele><time>2023-07-02T16:22:06Z</time></trkpt>
<trkpt lat="46.22578" lon="7.27179"><ele>569</ele><time>2023-07-02T16:22:07Z</time></trkpt>
<trkpt lat="46.22577" lon="7.27185"><ele>568.6</ele><time>2023-07-02T16:22:08Z</time></trkpt>
<trkpt lat="46.22577" lon="7.27192"><ele>568.6</ele><time>2023-07-02T16:22:09Z</time></trkpt>
<trkpt lat="46.22577" lon="7.27242"><ele>568.8</ele><time>2023-07-02T16:22:17Z</time></trkpt>
<trkpt lat="46.22578" lon="7.27278"><ele>568</ele><time>2023-07-02T16:22:22Z</time></trkpt>
<trkpt lat="46.22578" lon="7.27294"><ele>567.6</ele><time>2023-07-02T16:22:24Z</time></trkpt>
<trkpt lat="46.22578" lon="7.27309"><ele>566.4</ele><time>2023-07-02T16:22:26Z</time></trkpt>
<trkpt lat="46.22579" lon="7.27316"><ele>566.4</ele><time>2023-07-02T16:22:27Z</time></trkpt>
<trkpt lat="46.22579" lon="7.27323"><ele>565.4</ele><time>2023-07-02T16:22:28Z</time></trkpt>
<trkpt lat="46.22581" lon="7.2733"><ele>565.2</ele><time>2023-07-02T16:22:29Z</time></trkpt>
<trkpt lat="46.22586" lon="7.27343"><ele>564.4</ele><time>2023-07-02T16:22:31Z</time></trkpt>
<trkpt lat="46.22592" lon="7.27362"><ele>564</ele><time>2023-07-02T16:22:33Z</time></trkpt>
<trkpt lat="46.22596" lon="7.27387"><ele>562.2</ele><time>2023-07-02T16:22:35Z</time></trkpt>
<trkpt lat="46.22597" lon="7.274"><ele>561.2</ele><time>2023-07-02T16:22:36Z</time></trkpt>
<trkpt lat="46.22598" lon="7.27413"><ele>559.6</ele><time>2023-07-02T16:22:37Z</time></trkpt>
<trkpt lat="46.226" lon="7.27424"><ele>558.4</ele><time>2023-07-02T16:22:38Z</time></trkpt>
<trkpt lat="46.22603" lon="7.27434"><ele>558</ele><time>2023-07-02T16:22:39Z</time></trkpt>
<trkpt lat="46.22609" lon="7.27443"><ele>557.6</ele><time>2023-07-02T16:22:40Z</time></trkpt>
<trkpt lat="46.22615" lon="7.27452"><ele>557.2</ele><time>2023-07-02T16:22:41Z</time></trkpt>
<trkpt lat="46.2262" lon="7.27462"><ele>557.2</ele><time>2023-07-02T16:22:42Z</time></trkpt>
<trkpt lat="46.22625" lon="7.27472"><ele>557</ele><time>2023-07-02T16:22:43Z</time></trkpt>
<trkpt lat="46.22635" lon="7.27491"><ele>557.2</ele><time>2023-07-02T16:22:45Z</time></trkpt>
<trkpt lat="46.2264" lon="7.27499"><ele>557.2</ele><time>2023-07-02T16:22:46Z</time></trkpt>
<trkpt lat="46.22661" lon="7.27535"><ele>558</ele><time>2023-07-02T16:22:50Z</time></trkpt>
<trkpt lat="46.22666" lon="7.27554"><ele>558.2</ele><time>2023-07-02T16:22:52Z</time></trkpt>
<trkpt lat="46.22667" lon="7.27563"><ele>558.2</ele><time>2023-07-02T16:22:53Z</time></trkpt>
<trkpt lat="46.22669" lon="7.27571"><ele>558.8</ele><time>2023-07-02T16:22:54Z</time></trkpt>
<trkpt lat="46.22672" lon="7.27578"><ele>559.4</ele><time>2023-07-02T16:22:55Z</time></trkpt>
<trkpt lat="46.22675" lon="7.27584"><ele>559.8</ele><time>2023-07-02T16:22:56Z</time></trkpt>
<trkpt lat="46.22678" lon="7.27589"><ele>560.4</ele><time>2023-07-02T16:22:57Z</time></trkpt>
<trkpt lat="46.22685" lon="7.276"><ele>561.4</ele><time>2023-07-02T16:22:59Z</time></trkpt>
<trkpt lat="46.22689" lon="7.27605"><ele>561.6</ele><time>2023-07-02T16:23:00Z</time></trkpt>
<trkpt lat="46.22692" lon="7.2761"><ele>562</ele><time>2023-07-02T16:23:01Z</time></trkpt>
<trkpt lat="46.22702" lon="7.27626"><ele>563.2</ele><time>2023-07-02T16:23:04Z</time></trkpt>
<trkpt lat="46.22713" lon="7.27642"><ele>564.2</ele><time>2023-07-02T16:23:07Z</time></trkpt>
<trkpt lat="46.2272" lon="7.27652"><ele>564.6</ele><time>2023-07-02T16:23:09Z</time></trkpt>
<trkpt lat="46.2273" lon="7.27667"><ele>565.2</ele><time>2023-07-02T16:23:12Z</time></trkpt>
<trkpt lat="46.22745" lon="7.27691"><ele>565.2</ele><time>2023-07-02T16:23:16Z</time></trkpt>
<trkpt lat="46.22754" lon="7.27704"><ele>565</ele><time>2023-07-02T16:23:18Z</time></trkpt>
<trkpt lat="46.22763" lon="7.27719"><ele>564.8</ele><time>2023-07-02T16:23:20Z</time></trkpt>
<trkpt lat="46.2277" lon="7.27736"><ele>564.6</ele><time>2023-07-02T16:23:22Z</time></trkpt>
<trkpt lat="46.22772" lon="7.27746"><ele>564.2</ele><time>2023-07-02T16:23:23Z</time></trkpt>
<trkpt lat="46.22773" lon="7.27757"><ele>563.6</ele><time>2023-07-02T16:23:24Z</time></trkpt>
<trkpt lat="46.22777" lon="7.27778"><ele>563</ele><time>2023-07-02T16:23:26Z</time></trkpt>
<trkpt lat="46.2278" lon="7.27789"><ele>562.6</ele><time>2023-07-02T16:23:27Z</time></trkpt>
<trkpt lat="46.22784" lon="7.27799"><ele>562.2</ele><time>2023-07-02T16:23:28Z</time></trkpt>
<trkpt lat="46.22794" lon="7.2782"><ele>561.4</ele><time>2023-07-02T16:23:30Z</time></trkpt>
<trkpt lat="46.228" lon="7.27829"><ele>560</ele><time>2023-07-02T16:23:31Z</time></trkpt>
<trkpt lat="46.22804" lon="7.2784"><ele>559</ele><time>2023-07-02T16:23:32Z</time></trkpt>
<trkpt lat="46.22806" lon="7.27853"><ele>557.8</ele><time>2023-07-02T16:23:33Z</time></trkpt>
<trkpt lat="46.22805" lon="7.27866"><ele>556</ele><time>2023-07-02T16:23:34Z</time></trkpt>
<trkpt lat="46.228" lon="7.27879"><ele>554.6</ele><time>2023-07-02T16:23:35Z</time></trkpt>
<trkpt lat="46.22795" lon="7.27892"><ele>551.4</ele><time>2023-07-02T16:23:36Z</time></trkpt>
<trkpt lat="46.22785" lon="7.27915"><ele>550</ele><time>2023-07-02T16:23:38Z</time></trkpt>
<trkpt lat="46.22781" lon="7.27925"><ele>548.4</ele><time>2023-07-02T16:23:39Z</time></trkpt>
<trkpt lat="46.22777" lon="7.27934"><ele>547.2</ele><time>2023-07-02T16:23:40Z</time></trkpt>
<trkpt lat="46.22774" lon="7.27943"><ele>545.2</ele><time>2023-07-02T16:23:41Z</time></trkpt>
<trkpt lat="46.22771" lon="7.2795"><ele>543.4</ele><time>2023-07-02T16:23:42Z</time></trkpt>
<trkpt lat="46.22769" lon="7.27956"><ele>541.4</ele><time>2023-07-02T16:23:43Z</time></trkpt>
<trkpt lat="46.22765" lon="7.27969"><ele>539.8</ele><time>2023-07-02T16:23:45Z</time></trkpt>
<trkpt lat="46.22765" lon="7.27976"><ele>538.8</ele><time>2023-07-02T16:23:46Z</time></trkpt>
<trkpt lat="46.22768" lon="7.27985"><ele>538.2</ele><time>2023-07-02T16:23:47Z</time></trkpt>
<trkpt lat="46.22773" lon="7.28005"><ele>537.4</ele><time>2023-07-02T16:23:49Z</time></trkpt>
<trkpt lat="46.22776" lon="7.28019"><ele>536.6</ele><time>2023-07-02T16:23:50Z</time></trkpt>
<trkpt lat="46.22777" lon="7.28033"><ele>535.2</ele><time>2023-07-02T16:23:51Z</time></trkpt>
<trkpt lat="46.22776" lon="7.28049"><ele>532.8</ele><time>2023-07-02T16:23:52Z</time></trkpt>
<trkpt lat="46.22773" lon="7.28064"><ele>531.2</ele><time>2023-07-02T16:23:53Z</time></trkpt>
<trkpt lat="46.22769" lon="7.28078"><ele>530.2</ele><time>2023-07-02T16:23:54Z</time></trkpt>
<trkpt lat="46.22765" lon="7.28094"><ele>528.4</ele><time>2023-07-02T16:23:55Z</time></trkpt>
<trkpt lat="46.22758" lon="7.2812"><ele>527.6</ele><time>2023-07-02T16:23:57Z</time></trkpt>
<trkpt lat="46.22756" lon="7.28132"><ele>527</ele><time>2023-07-02T16:23:58Z</time></trkpt>
<trkpt lat="46.22752" lon="7.2815"><ele>526.4</ele><time>2023-07-02T16:24:00Z</time></trkpt>
<trkpt lat="46.22748" lon="7.2816"><ele>525</ele><time>2023-07-02T16:24:02Z</time></trkpt>
<trkpt lat="46.22746" lon="7.28165"><ele>524.8</ele><time>2023-07-02T16:24:03Z</time></trkpt>
<trkpt lat="46.22745" lon="7.2817"><ele>524.4</ele><time>2023-07-02T16:24:04Z</time></trkpt>
<trkpt lat="46.22744" lon="7.28176"><ele>523.6</ele><time>2023-07-02T16:24:05Z</time></trkpt>
<trkpt lat="46.22745" lon="7.28186"><ele>522.8</ele><time>2023-07-02T16:24:07Z</time></trkpt>
<trkpt lat="46.22744" lon="7.28197"><ele>522.6</ele><time>2023-07-02T16:24:09Z</time></trkpt>
<trkpt lat="46.22738" lon="7.28202"><ele>522.6</ele><time>2023-07-02T16:24:11Z</time></trkpt>
<trkpt lat="46.2273" lon="7.28194"><ele>522.4</ele><time>2023-07-02T16:24:13Z</time></trkpt>
<trkpt lat="46.22726" lon="7.28193"><ele>522</ele><time>2023-07-02T16:24:14Z</time></trkpt>
<trkpt lat="46.22714" lon="7.28195"><ele>521.4</ele><time>2023-07-02T16:24:16Z</time></trkpt>
<trkpt lat="46.22702" lon="7.28199"><ele>520</ele><time>2023-07-02T16:24:18Z</time></trkpt>
<trkpt lat="46.22697" lon="7.28201"><ele>519</ele><time>2023-07-02T16:24:19Z</time></trkpt>
<trkpt lat="46.22693" lon="7.28202"><ele>517.2</ele><time>2023-07-02T16:24:20Z</time></trkpt>
<trkpt lat="46.22688" lon="7.28204"><ele>516.4</ele><time>2023-07-02T16:24:22Z</time></trkpt>
<trkpt lat="46.22687" lon="7.28206"><ele>516.2</ele><time>2023-07-02T16:24:23Z</time></trkpt>
<trkpt lat="46.22689" lon="7.28227"><ele>516</ele><time>2023-07-02T16:24:27Z</time></trkpt>
<trkpt lat="46.22692" lon="7.28264"><ele>515.2</ele><time>2023-07-02T16:24:32Z</time></trkpt>
<trkpt lat="46.22693" lon="7.28289"><ele>514.6</ele><time>2023-07-02T16:24:35Z</time></trkpt>
<trkpt lat="46.22687" lon="7.28303"><ele>514.4</ele><time>2023-07-02T16:24:37Z</time></trkpt>
<trkpt lat="46.22677" lon="7.28314"><ele>514.2</ele><time>2023-07-02T16:24:39Z</time></trkpt>
<trkpt lat="46.22665" lon="7.28328"><ele>513.4</ele><time>2023-07-02T16:24:41Z</time></trkpt>
<trkpt lat="46.22651" lon="7.28339"><ele>512.4</ele><time>2023-07-02T16:24:43Z</time></trkpt>
<trkpt lat="46.22636" lon="7.28345"><ele>511.8</ele><time>2023-07-02T16:24:45Z</time></trkpt>
<trkpt lat="46.22628" lon="7.28346"><ele>511.4</ele><time>2023-07-02T16:24:46Z</time></trkpt>
<trkpt lat="46.22621" lon="7.28346"><ele>510.8</ele><time>2023-07-02T16:24:47Z</time></trkpt>
<trkpt lat="46.22613" lon="7.28345"><ele>510.2</ele><time>2023-07-02T16:24:48Z</time></trkpt>
<trkpt lat="46.22606" lon="7.28344"><ele>510</ele><time>2023-07-02T16:24:49Z</time></trkpt>
<trkpt lat="46.2259" lon="7.28341"><ele>509.2</ele><time>2023-07-02T16:24:52Z</time></trkpt>
<trkpt lat="46.22585" lon="7.2834"><ele>509</ele><time>2023-07-02T16:24:53Z</time></trkpt>
<trkpt lat="46.22577" lon="7.28338"><ele>506.8</ele><time>2023-07-02T16:24:56Z</time></trkpt>
<trkpt lat="46.22576" lon="7.28337"><ele>506.2</ele><time>2023-07-02T16:24:57Z</time></trkpt>
<trkpt lat="46.22576" lon="7.28337"><ele>506.8</ele><time>2023-07-02T16:25:04Z</time></trkpt>
<trkpt lat="46.22576" lon="7.28337"><ele>506.6</ele><time>2023-07-02T16:25:08Z</time></trkpt>
<trkpt lat="46.22576" lon="7.28337"><ele>507.2</ele><time>2023-07-02T16:25:20Z</time></trkpt>
<trkpt lat="46.22576" lon="7.28337"><ele>506.4</ele><time>2023-07-02T16:25:25Z</time></trkpt>
<trkpt lat="46.22572" lon="7.28334"><ele>506</ele><time>2023-07-02T16:25:34Z</time></trkpt>
<trkpt lat="46.22562" lon="7.28329"><ele>506.4</ele><time>2023-07-02T16:25:38Z</time></trkpt>
<trkpt lat="46.22558" lon="7.28329"><ele>506.4</ele><time>2023-07-02T16:25:39Z</time></trkpt>
<trkpt lat="46.22548" lon="7.28331"><ele>506.4</ele><time>2023-07-02T16:25:41Z</time></trkpt>
<trkpt lat="46.22543" lon="7.28333"><ele>506</ele><time>2023-07-02T16:25:42Z</time></trkpt>
<trkpt lat="46.22537" lon="7.28336"><ele>505.6</ele><time>2023-07-02T16:25:43Z</time></trkpt>
<trkpt lat="46.22521" lon="7.28344"><ele>504.4</ele><time>2023-07-02T16:25:46Z</time></trkpt>
<trkpt lat="46.22505" lon="7.28354"><ele>503.4</ele><time>2023-07-02T16:25:49Z</time></trkpt>
<trkpt lat="46.22499" lon="7.28356"><ele>503.4</ele><time>2023-07-02T16:25:50Z</time></trkpt>
<trkpt lat="46.22483" lon="7.28364"><ele>502.8</ele><time>2023-07-02T16:25:53Z</time></trkpt>
<trkpt lat="46.22477" lon="7.28368"><ele>503</ele><time>2023-07-02T16:25:54Z</time></trkpt>
<trkpt lat="46.22466" lon="7.28375"><ele>501.8</ele><time>2023-07-02T16:25:56Z</time></trkpt>
<trkpt lat="46.22435" lon="7.28397"><ele>501.4</ele><time>2023-07-02T16:26:02Z</time></trkpt>
<trkpt lat="46.22403" lon="7.28415"><ele>501.6</ele><time>2023-07-02T16:26:08Z</time></trkpt>
<trkpt lat="46.22399" lon="7.28417"><ele>501.6</ele><time>2023-07-02T16:26:09Z</time></trkpt>
<trkpt lat="46.2239" lon="7.28424"><ele>501.4</ele><time>2023-07-02T16:26:11Z</time></trkpt>
<trkpt lat="46.22384" lon="7.28427"><ele>500.8</ele><time>2023-07-02T16:26:12Z</time></trkpt>
<trkpt lat="46.22379" lon="7.28428"><ele>500.6</ele><time>2023-07-02T16:26:13Z</time></trkpt>
<trkpt lat="46.22374" lon="7.28427"><ele>500.2</ele><time>2023-07-02T16:26:14Z</time></trkpt>
<trkpt lat="46.2237" lon="7.28423"><ele>499</ele><time>2023-07-02T16:26:15Z</time></trkpt>
<trkpt lat="46.22365" lon="7.28411"><ele>498.6</ele><time>2023-07-02T16:26:17Z</time></trkpt>
<trkpt lat="46.22348" lon="7.28372"><ele>498.6</ele><time>2023-07-02T16:26:23Z</time></trkpt>
<trkpt lat="46.22346" lon="7.28366"><ele>498.6</ele><time>2023-07-02T16:26:24Z</time></trkpt>
<trkpt lat="46.22338" lon="7.28348"><ele>497.8</ele><time>2023-07-02T16:26:27Z</time></trkpt>
<trkpt lat="46.22329" lon="7.28332"><ele>496.6</ele><time>2023-07-02T16:26:30Z</time></trkpt>
<trkpt lat="46.22322" lon="7.28322"><ele>496.6</ele><time>2023-07-02T16:26:32Z</time></trkpt>
<trkpt lat="46.22319" lon="7.28321"><ele>496.6</ele><time>2023-07-02T16:26:35Z</time></trkpt>
<trkpt lat="46.22321" lon="7.28325"><ele>496.8</ele><time>2023-07-02T16:26:40Z</time></trkpt>
</trkseg></trk></gpx>